<?xml version='1.0' encoding='UTF-8'?><gpx version="1.1" creator="JPX - https://github.com/jenetics/jpx" xmlns="http://www.topografix.com/GPX/1/1"><trk><trkseg><trkpt lat="41.07771628944401" lon="16.78420974606908"><ele>81.99999999999999</ele><time>2026-04-28T14:41:21Z</time></trkpt><trkpt lat="41.07766238186833" lon="16.784140663303617"><ele>82.0</ele><time>2026-04-28T14:41:27Z</time></trkpt><trkpt lat="41.07760415438892" lon="16.784106431418923"><ele>82.0</ele><time>2026-04-28T14:41:33Z</time></trkpt><trkpt lat="41.07753168040668" lon="16.784081819135654"><ele>82.0</ele><time>2026-04-28T14:41:38Z</time></trkpt><trkpt lat="41.0774674446581" lon="16.784076567439108"><ele>82.0</ele><time>2026-04-28T14:41:42.001Z</time></trkpt><trkpt lat="41.077420161012554" lon="16.784142590869365"><ele>81.99999999999999</ele><time>2026-04-28T14:41:47.001Z</time></trkpt><trkpt lat="41.07737591553589" lon="16.78420614721357"><ele>82.0</ele><time>2026-04-28T14:41:52.001Z</time></trkpt><trkpt lat="41.07734271082682" lon="16.784286924174395"><ele>81.99999999999999</ele><time>2026-04-28T14:41:58.001Z</time></trkpt><trkpt lat="41.077304207043824" lon="16.78436790542982"><ele>82.0</ele><time>2026-04-28T14:42:04.001Z</time></trkpt><trkpt lat="41.0772713853028" lon="16.784445861456543"><ele>82.0</ele><time>2026-04-28T14:42:10.001Z</time></trkpt><trkpt lat="41.07723125145375" lon="16.784525122968624"><ele>82.0</ele><time>2026-04-28T14:42:15.001Z</time></trkpt><trkpt lat="41.07718901857108" lon="16.78458943184764"><ele>82.0</ele><time>2026-04-28T14:42:19.001Z</time></trkpt><trkpt lat="41.07715767237044" lon="16.784662769122335"><ele>81.99999999999999</ele><time>2026-04-28T14:42:24.001Z</time></trkpt><trkpt lat="41.077122713132965" lon="16.78473732736406"><ele>82.0</ele><time>2026-04-28T14:42:29.001Z</time></trkpt><trkpt lat="41.07708005497676" lon="16.784801734368195"><ele>81.99999999999999</ele><time>2026-04-28T14:42:32.001Z</time></trkpt><trkpt lat="41.0770441988685" lon="16.784872701612006"><ele>82.0</ele><time>2026-04-28T14:42:38.999Z</time></trkpt><trkpt lat="41.07701516099654" lon="16.784953718802548"><ele>82.0</ele><time>2026-04-28T14:42:43.999Z</time></trkpt><trkpt lat="41.07697130844112" lon="16.785035895434177"><ele>82.0</ele><time>2026-04-28T14:42:50Z</time></trkpt><trkpt lat="41.07692200911116" lon="16.785110948820225"><ele>82.0</ele><time>2026-04-28T14:42:57Z</time></trkpt><trkpt lat="41.07685940510314" lon="16.785089934193625"><ele>81.99999999999999</ele><time>2026-04-28T14:43:03Z</time></trkpt><trkpt lat="41.07679796867589" lon="16.78502383654279"><ele>82.0</ele><time>2026-04-28T14:43:08Z</time></trkpt><trkpt lat="41.07674188414661" lon="16.784951490093473"><ele>81.99999999999999</ele><time>2026-04-28T14:43:14Z</time></trkpt><trkpt lat="41.076687435881425" lon="16.78490841963244"><ele>82.0</ele><time>2026-04-28T14:43:19Z</time></trkpt><trkpt lat="41.07663650897635" lon="16.78485268737265"><ele>82.0</ele><time>2026-04-28T14:43:24Z</time></trkpt><trkpt lat="41.07657748109455" lon="16.78479264481896"><ele>82.0</ele><time>2026-04-28T14:43:29Z</time></trkpt><trkpt lat="41.076502255216674" lon="16.78477501682464"><ele>82.0</ele><time>2026-04-28T14:43:36Z</time></trkpt><trkpt lat="41.07643816328194" lon="16.78473253797991"><ele>81.99999999999999</ele><time>2026-04-28T14:43:41Z</time></trkpt><trkpt lat="41.07638697836726" lon="16.784683534054373"><ele>82.0</ele><time>2026-04-28T14:43:45Z</time></trkpt><trkpt lat="41.07632712762448" lon="16.784647076386207"><ele>82.28571428571428</ele><time>2026-04-28T14:43:51.001Z</time></trkpt><trkpt lat="41.07630583597928" lon="16.784561412804955"><ele>82.57142857142857</ele><time>2026-04-28T14:43:58.001Z</time></trkpt><trkpt lat="41.07625659832332" lon="16.78450551040693"><ele>82.85714285714286</ele><time>2026-04-28T14:44:02.001Z</time></trkpt><trkpt lat="41.07619228744353" lon="16.784511692051268"><ele>83.14285714285714</ele><time>2026-04-28T14:44:08.001Z</time></trkpt><trkpt lat="41.07612811969693" lon="16.784473805232643"><ele>83.42857142857143</ele><time>2026-04-28T14:44:14.001Z</time></trkpt><trkpt lat="41.07606037778506" lon="16.784434540897543"><ele>83.71428571428571</ele><time>2026-04-28T14:44:19.001Z</time></trkpt><trkpt lat="41.07600351836529" lon="16.784388618244915"><ele>84.0</ele><time>2026-04-28T14:44:24.001Z</time></trkpt><trkpt lat="41.07594214867005" lon="16.784350257888786"><ele>84.0</ele><time>2026-04-28T14:44:29.001Z</time></trkpt><trkpt lat="41.07587874316009" lon="16.784308656088534"><ele>84.0</ele><time>2026-04-28T14:44:35.001Z</time></trkpt><trkpt lat="41.07582244681028" lon="16.78434834631951"><ele>84.0</ele><time>2026-04-28T14:44:39.001Z</time></trkpt><trkpt lat="41.075752270183344" lon="16.784391487273172"><ele>84.0</ele><time>2026-04-28T14:44:44.001Z</time></trkpt><trkpt lat="41.07570074171714" lon="16.784334878262136"><ele>84.0</ele><time>2026-04-28T14:44:49.001Z</time></trkpt><trkpt lat="41.07564843795503" lon="16.78426984452091"><ele>84.0</ele><time>2026-04-28T14:44:55.001Z</time></trkpt><trkpt lat="41.07558569696371" lon="16.7842263166398"><ele>84.0</ele><time>2026-04-28T14:45:01.001Z</time></trkpt><trkpt lat="41.07553046433654" lon="16.784180160825603"><ele>83.85714285714286</ele><time>2026-04-28T14:45:06.001Z</time></trkpt><trkpt lat="41.075459160907066" lon="16.784135410561017"><ele>83.71428571428572</ele><time>2026-04-28T14:45:11.001Z</time></trkpt><trkpt lat="41.075394871349566" lon="16.784092873465745"><ele>83.57142857142857</ele><time>2026-04-28T14:45:16.001Z</time></trkpt><trkpt lat="41.07532743878811" lon="16.7840734546258"><ele>83.42857142857143</ele><time>2026-04-28T14:45:21.001Z</time></trkpt><trkpt lat="41.07526530179426" lon="16.78403006769581"><ele>83.28571428571429</ele><time>2026-04-28T14:45:26.001Z</time></trkpt><trkpt lat="41.07521552704116" lon="16.783977822020123"><ele>83.14285714285714</ele><time>2026-04-28T14:45:30.001Z</time></trkpt><trkpt lat="41.07514786167917" lon="16.78397643096471"><ele>83.0</ele><time>2026-04-28T14:45:35.001Z</time></trkpt><trkpt lat="41.07508410633663" lon="16.783968390371403"><ele>83.0</ele><time>2026-04-28T14:45:40.001Z</time></trkpt><trkpt lat="41.075018358197624" lon="16.78395324253328"><ele>83.0</ele><time>2026-04-28T14:45:45.001Z</time></trkpt><trkpt lat="41.07495970915595" lon="16.783921416080343"><ele>83.0</ele><time>2026-04-28T14:45:50.001Z</time></trkpt><trkpt lat="41.074890922553436" lon="16.783878290861"><ele>83.0</ele><time>2026-04-28T14:45:56.001Z</time></trkpt><trkpt lat="41.07482716396012" lon="16.783838630169345"><ele>83.0</ele><time>2026-04-28T14:46:01.001Z</time></trkpt><trkpt lat="41.0747633085124" lon="16.783813135212686"><ele>83.0</ele><time>2026-04-28T14:46:06.001Z</time></trkpt><trkpt lat="41.07470777666869" lon="16.783772922186575"><ele>83.0</ele><time>2026-04-28T14:46:11.001Z</time></trkpt><trkpt lat="41.07464853351954" lon="16.783736896884268"><ele>83.0</ele><time>2026-04-28T14:46:16.001Z</time></trkpt><trkpt lat="41.074590260018" lon="16.783698067694683"><ele>83.0</ele><time>2026-04-28T14:46:21.001Z</time></trkpt><trkpt lat="41.07453125971765" lon="16.783660952721625"><ele>83.0</ele><time>2026-04-28T14:46:26.001Z</time></trkpt><trkpt lat="41.07447059646296" lon="16.783624833199365"><ele>83.0</ele><time>2026-04-28T14:46:31.001Z</time></trkpt><trkpt lat="41.074411722157286" lon="16.783583363439327"><ele>83.0</ele><time>2026-04-28T14:46:36.001Z</time></trkpt><trkpt lat="41.074350712822756" lon="16.783554825472056"><ele>83.0</ele><time>2026-04-28T14:46:41.001Z</time></trkpt><trkpt lat="41.07428781097248" lon="16.78352306266187"><ele>83.0</ele><time>2026-04-28T14:46:46.001Z</time></trkpt><trkpt lat="41.074221340814994" lon="16.78350482732922"><ele>83.0</ele><time>2026-04-28T14:46:51.001Z</time></trkpt><trkpt lat="41.074154437073965" lon="16.783511047107396"><ele>83.0</ele><time>2026-04-28T14:46:56.001Z</time></trkpt><trkpt lat="41.07408289961644" lon="16.783540502902188"><ele>83.0</ele><time>2026-04-28T14:47:02.001Z</time></trkpt><trkpt lat="41.07401738286006" lon="16.783569301732133"><ele>83.0</ele><time>2026-04-28T14:47:07.001Z</time></trkpt><trkpt lat="41.07395498855191" lon="16.78360053509558"><ele>83.0</ele><time>2026-04-28T14:47:12Z</time></trkpt><trkpt lat="41.0738952475637" lon="16.783633347148687"><ele>83.0</ele><time>2026-04-28T14:47:17Z</time></trkpt><trkpt lat="41.07383902466126" lon="16.78367396519643"><ele>83.0</ele><time>2026-04-28T14:47:23Z</time></trkpt><trkpt lat="41.073786669805834" lon="16.783724773415567"><ele>83.14285714285714</ele><time>2026-04-28T14:47:28Z</time></trkpt><trkpt lat="41.07373020573982" lon="16.783763675804284"><ele>83.28571428571429</ele><time>2026-04-28T14:47:33Z</time></trkpt><trkpt lat="41.073666339998795" lon="16.783804379830876"><ele>83.42857142857143</ele><time>2026-04-28T14:47:38.001Z</time></trkpt><trkpt lat="41.07359645664199" lon="16.783824143880967"><ele>83.57142857142857</ele><time>2026-04-28T14:47:43.001Z</time></trkpt><trkpt lat="41.073533135193976" lon="16.783839496223607"><ele>83.71428571428572</ele><time>2026-04-28T14:47:48.001Z</time></trkpt><trkpt lat="41.0734611004575" lon="16.783831608322597"><ele>83.85714285714286</ele><time>2026-04-28T14:47:54.001Z</time></trkpt><trkpt lat="41.073394352091846" lon="16.78383546021376"><ele>84.0</ele><time>2026-04-28T14:47:59.001Z</time></trkpt><trkpt lat="41.07332362886504" lon="16.783840911161736"><ele>84.0</ele><time>2026-04-28T14:48:05.001Z</time></trkpt><trkpt lat="41.07325675970697" lon="16.783850985020493"><ele>84.0</ele><time>2026-04-28T14:48:10.001Z</time></trkpt><trkpt lat="41.0731874163843" lon="16.783855582517013"><ele>84.0</ele><time>2026-04-28T14:48:17.001Z</time></trkpt><trkpt lat="41.07312165290949" lon="16.783861540939835"><ele>84.0</ele><time>2026-04-28T14:48:22.001Z</time></trkpt><trkpt lat="41.07304907967885" lon="16.78386814358328"><ele>84.0</ele><time>2026-04-28T14:48:27.001Z</time></trkpt><trkpt lat="41.07298266369387" lon="16.783869053234294"><ele>84.0</ele><time>2026-04-28T14:48:32.001Z</time></trkpt><trkpt lat="41.07291834813932" lon="16.783876215576136"><ele>84.0</ele><time>2026-04-28T14:48:37.001Z</time></trkpt><trkpt lat="41.072851687635676" lon="16.783881162676064"><ele>84.0</ele><time>2026-04-28T14:48:42.001Z</time></trkpt><trkpt lat="41.072777688392804" lon="16.783859295774366"><ele>84.0</ele><time>2026-04-28T14:48:48.001Z</time></trkpt><trkpt lat="41.07272235192454" lon="16.783793705242964"><ele>84.0</ele><time>2026-04-28T14:48:54.001Z</time></trkpt><trkpt lat="41.072646860431796" lon="16.7837694955263"><ele>84.0</ele><time>2026-04-28T14:48:58.999Z</time></trkpt><trkpt lat="41.07257346487344" lon="16.783757414173234"><ele>84.0</ele><time>2026-04-28T14:49:03.999Z</time></trkpt><trkpt lat="41.07250113433748" lon="16.78371846020877"><ele>84.0</ele><time>2026-04-28T14:49:09.999Z</time></trkpt><trkpt lat="41.0724360561259" lon="16.783699111924502"><ele>84.0</ele><time>2026-04-28T14:49:16Z</time></trkpt><trkpt lat="41.07237595031577" lon="16.78365066290478"><ele>84.14285714285714</ele><time>2026-04-28T14:49:21Z</time></trkpt><trkpt lat="41.072315048907555" lon="16.783607007107037"><ele>84.28571428571428</ele><time>2026-04-28T14:49:26Z</time></trkpt><trkpt lat="41.07225186752222" lon="16.783558898401466"><ele>84.42857142857143</ele><time>2026-04-28T14:49:31Z</time></trkpt><trkpt lat="41.07219849242215" lon="16.78349864833262"><ele>84.57142857142857</ele><time>2026-04-28T14:49:36Z</time></trkpt><trkpt lat="41.07213806902345" lon="16.78345800973508"><ele>84.71428571428571</ele><time>2026-04-28T14:49:42Z</time></trkpt><trkpt lat="41.07206950086033" lon="16.78341438876608"><ele>84.85714285714286</ele><time>2026-04-28T14:49:48Z</time></trkpt><trkpt lat="41.0720067842642" lon="16.783381990813005"><ele>85.0</ele><time>2026-04-28T14:49:53Z</time></trkpt><trkpt lat="41.071947698144506" lon="16.783332471764453"><ele>85.28571428571429</ele><time>2026-04-28T14:49:58Z</time></trkpt><trkpt lat="41.07188168571422" lon="16.783303181280928"><ele>85.57142857142857</ele><time>2026-04-28T14:50:03Z</time></trkpt><trkpt lat="41.07182329080413" lon="16.783269959184395"><ele>85.85714285714286</ele><time>2026-04-28T14:50:08Z</time></trkpt><trkpt lat="41.07176758009749" lon="16.78322126575744"><ele>86.14285714285714</ele><time>2026-04-28T14:50:15Z</time></trkpt><trkpt lat="41.07174658450464" lon="16.783137212546727"><ele>86.42857142857143</ele><time>2026-04-28T14:50:21Z</time></trkpt><trkpt lat="41.071739402705155" lon="16.7830454512929"><ele>86.71428571428571</ele><time>2026-04-28T14:50:26Z</time></trkpt><trkpt lat="41.071733812470484" lon="16.78295048721753"><ele>87.0</ele><time>2026-04-28T14:50:31Z</time></trkpt><trkpt lat="41.07171515257242" lon="16.782857465434034"><ele>87.0</ele><time>2026-04-28T14:50:36.001Z</time></trkpt><trkpt lat="41.07171099401919" lon="16.782767383833438"><ele>87.0</ele><time>2026-04-28T14:50:41.001Z</time></trkpt><trkpt lat="41.07169504662675" lon="16.782674522151733"><ele>87.0</ele><time>2026-04-28T14:50:46.001Z</time></trkpt><trkpt lat="41.07169564941048" lon="16.78257997464231"><ele>87.0</ele><time>2026-04-28T14:50:51.001Z</time></trkpt><trkpt lat="41.071696420563924" lon="16.782487984592972"><ele>87.0</ele><time>2026-04-28T14:50:56.001Z</time></trkpt><trkpt lat="41.07171282581532" lon="16.782397553520006"><ele>87.0</ele><time>2026-04-28T14:51:01.001Z</time></trkpt><trkpt lat="41.07172230637753" lon="16.782308953301108"><ele>87.0</ele><time>2026-04-28T14:51:05.999Z</time></trkpt><trkpt lat="41.071742464348894" lon="16.78222130227785"><ele>86.85714285714286</ele><time>2026-04-28T14:51:10.999Z</time></trkpt><trkpt lat="41.07174093945753" lon="16.782124758141276"><ele>86.71428571428572</ele><time>2026-04-28T14:51:15.999Z</time></trkpt><trkpt lat="41.071692357155634" lon="16.782067897065954"><ele>86.57142857142858</ele><time>2026-04-28T14:51:20.999Z</time></trkpt><trkpt lat="41.07163384006256" lon="16.78203117083628"><ele>86.42857142857143</ele><time>2026-04-28T14:51:25.999Z</time></trkpt><trkpt lat="41.071577412040085" lon="16.781993790295896"><ele>86.28571428571429</ele><time>2026-04-28T14:51:31Z</time></trkpt><trkpt lat="41.07151024576584" lon="16.781960856640882"><ele>86.14285714285715</ele><time>2026-04-28T14:51:37Z</time></trkpt><trkpt lat="41.07144770586081" lon="16.781936241313765"><ele>86.0</ele><time>2026-04-28T14:51:42Z</time></trkpt><trkpt lat="41.07139093322646" lon="16.78189552721983"><ele>86.00000000000001</ele><time>2026-04-28T14:51:47Z</time></trkpt><trkpt lat="41.07133050141605" lon="16.78185812651944"><ele>86.0</ele><time>2026-04-28T14:51:52Z</time></trkpt><trkpt lat="41.071263119881976" lon="16.7818451982309"><ele>86.0</ele><time>2026-04-28T14:51:57Z</time></trkpt><trkpt lat="41.07119973427838" lon="16.78183369883208"><ele>86.0</ele><time>2026-04-28T14:52:02Z</time></trkpt><trkpt lat="41.07113181734782" lon="16.781797168411654"><ele>86.0</ele><time>2026-04-28T14:52:08Z</time></trkpt><trkpt lat="41.071067808517085" lon="16.781777782658693"><ele>86.00000000000001</ele><time>2026-04-28T14:52:13Z</time></trkpt><trkpt lat="41.07105283882028" lon="16.781862155475142"><ele>86.0</ele><time>2026-04-28T14:52:24Z</time></trkpt><trkpt lat="41.07107480270437" lon="16.78194215519677"><ele>86.00000000000001</ele><time>2026-04-28T14:52:29Z</time></trkpt><trkpt lat="41.07109043026796" lon="16.782024278373278"><ele>86.0</ele><time>2026-04-28T14:52:34Z</time></trkpt><trkpt lat="41.07110702017477" lon="16.78210821205756"><ele>86.0</ele><time>2026-04-28T14:52:39.001Z</time></trkpt><trkpt lat="41.071129447944834" lon="16.782196524442043"><ele>86.0</ele><time>2026-04-28T14:52:45.001Z</time></trkpt><trkpt lat="41.071146586184604" lon="16.78228309823111"><ele>86.0</ele><time>2026-04-28T14:52:50.001Z</time></trkpt><trkpt lat="41.07115956845293" lon="16.78237058333839"><ele>86.00000000000001</ele><time>2026-04-28T14:52:55.001Z</time></trkpt><trkpt lat="41.071174273276064" lon="16.782457341172346"><ele>86.0</ele><time>2026-04-28T14:53:00.001Z</time></trkpt><trkpt lat="41.071187148674944" lon="16.782552924806673"><ele>86.00000000000001</ele><time>2026-04-28T14:53:05.001Z</time></trkpt><trkpt lat="41.07119874714958" lon="16.782638749773987"><ele>86.0</ele><time>2026-04-28T14:53:10Z</time></trkpt><trkpt lat="41.07121278785337" lon="16.782726783433027"><ele>86.0</ele><time>2026-04-28T14:53:15Z</time></trkpt><trkpt lat="41.07122351470407" lon="16.782817259602986"><ele>86.0</ele><time>2026-04-28T14:53:20Z</time></trkpt><trkpt lat="41.071234642181324" lon="16.782902616896465"><ele>86.0</ele><time>2026-04-28T14:53:25Z</time></trkpt><trkpt lat="41.0712576705956" lon="16.782984724048948"><ele>86.00000000000001</ele><time>2026-04-28T14:53:30Z</time></trkpt><trkpt lat="41.07126526795444" lon="16.783080345925644"><ele>86.0</ele><time>2026-04-28T14:53:36Z</time></trkpt><trkpt lat="41.07127988262951" lon="16.783174048893155"><ele>86.00000000000001</ele><time>2026-04-28T14:53:42Z</time></trkpt><trkpt lat="41.071285592311355" lon="16.783271526213145"><ele>86.0</ele><time>2026-04-28T14:53:47Z</time></trkpt><trkpt lat="41.071296884358006" lon="16.78336211352413"><ele>86.0</ele><time>2026-04-28T14:53:52Z</time></trkpt><trkpt lat="41.07130799045006" lon="16.78344801836622"><ele>86.0</ele><time>2026-04-28T14:53:57Z</time></trkpt><trkpt lat="41.071315572318156" lon="16.78354786267799"><ele>86.0</ele><time>2026-04-28T14:54:03.001Z</time></trkpt><trkpt lat="41.07133310158235" lon="16.783645067008948"><ele>86.00000000000001</ele><time>2026-04-28T14:54:09.001Z</time></trkpt><trkpt lat="41.07135122094702" lon="16.783737003373062"><ele>86.0</ele><time>2026-04-28T14:54:15.001Z</time></trkpt><trkpt lat="41.07136295500664" lon="16.783820593928336"><ele>86.00000000000001</ele><time>2026-04-28T14:54:20.001Z</time></trkpt><trkpt lat="41.07138042950607" lon="16.783905764837204"><ele>86.0</ele><time>2026-04-28T14:54:25.001Z</time></trkpt><trkpt lat="41.071397644578816" lon="16.783991365145198"><ele>86.0</ele><time>2026-04-28T14:54:30.001Z</time></trkpt><trkpt lat="41.07141360366621" lon="16.784078809548102"><ele>86.0</ele><time>2026-04-28T14:54:35.001Z</time></trkpt><trkpt lat="41.071430769593015" lon="16.78416180889282"><ele>86.0</ele><time>2026-04-28T14:54:40.001Z</time></trkpt><trkpt lat="41.07143860538912" lon="16.78426188233137"><ele>86.00000000000001</ele><time>2026-04-28T14:54:46.001Z</time></trkpt><trkpt lat="41.071452285021" lon="16.784362223262384"><ele>86.0</ele><time>2026-04-28T14:54:52.001Z</time></trkpt><trkpt lat="41.07146742912066" lon="16.784445509480346"><ele>85.85714285714286</ele><time>2026-04-28T14:54:57.001Z</time></trkpt><trkpt lat="41.07148202896181" lon="16.78453776767948"><ele>85.71428571428572</ele><time>2026-04-28T14:55:03.001Z</time></trkpt><trkpt lat="41.07150173000807" lon="16.7846185166477"><ele>85.57142857142858</ele><time>2026-04-28T14:55:09.001Z</time></trkpt><trkpt lat="41.071511127549556" lon="16.784713938922327"><ele>85.42857142857143</ele><time>2026-04-28T14:55:14.001Z</time></trkpt><trkpt lat="41.07151430981512" lon="16.784798032226238"><ele>85.28571428571428</ele><time>2026-04-28T14:55:19Z</time></trkpt><trkpt lat="41.071497505966356" lon="16.784884430867347"><ele>85.14285714285715</ele><time>2026-04-28T14:55:24Z</time></trkpt><trkpt lat="41.071460483553246" lon="16.78495424070722"><ele>85.0</ele><time>2026-04-28T14:55:29Z</time></trkpt><trkpt lat="41.07139809169072" lon="16.785007403392818"><ele>85.0</ele><time>2026-04-28T14:55:34Z</time></trkpt><trkpt lat="41.07133318862722" lon="16.785040792524764"><ele>85.0</ele><time>2026-04-28T14:55:39Z</time></trkpt><trkpt lat="41.07126975153694" lon="16.78507484240775"><ele>85.0</ele><time>2026-04-28T14:55:44Z</time></trkpt><trkpt lat="41.07121108616316" lon="16.785121542256643"><ele>85.0</ele><time>2026-04-28T14:55:49Z</time></trkpt><trkpt lat="41.07115097662882" lon="16.785167129446542"><ele>85.0</ele><time>2026-04-28T14:55:54.001Z</time></trkpt><trkpt lat="41.07109323708567" lon="16.78522068940111"><ele>85.0</ele><time>2026-04-28T14:55:59.001Z</time></trkpt><trkpt lat="41.07103657150649" lon="16.785263903143985"><ele>85.0</ele><time>2026-04-28T14:56:04.001Z</time></trkpt><trkpt lat="41.07097989104251" lon="16.78530263965408"><ele>84.71428571428572</ele><time>2026-04-28T14:56:09.001Z</time></trkpt><trkpt lat="41.07092852978443" lon="16.785358262545365"><ele>84.42857142857142</ele><time>2026-04-28T14:56:14.001Z</time></trkpt><trkpt lat="41.07087297784655" lon="16.78540885141779"><ele>84.14285714285714</ele><time>2026-04-28T14:56:19.001Z</time></trkpt><trkpt lat="41.07081731066017" lon="16.785455460855147"><ele>83.85714285714286</ele><time>2026-04-28T14:56:24.001Z</time></trkpt><trkpt lat="41.070758264895396" lon="16.7855131718468"><ele>83.57142857142858</ele><time>2026-04-28T14:56:30.001Z</time></trkpt><trkpt lat="41.070693297474925" lon="16.785538868524483"><ele>83.28571428571428</ele><time>2026-04-28T14:56:36.001Z</time></trkpt><trkpt lat="41.07061905754022" lon="16.78555541747681"><ele>83.0</ele><time>2026-04-28T14:56:42.001Z</time></trkpt><trkpt lat="41.070548347058114" lon="16.78557109042296"><ele>82.71428571428571</ele><time>2026-04-28T14:56:47.001Z</time></trkpt><trkpt lat="41.070479467968035" lon="16.78556725462407"><ele>82.42857142857143</ele><time>2026-04-28T14:56:52.001Z</time></trkpt><trkpt lat="41.0704129587792" lon="16.785583827629843"><ele>82.14285714285714</ele><time>2026-04-28T14:56:57.001Z</time></trkpt><trkpt lat="41.07034907091956" lon="16.785587168375166"><ele>81.85714285714286</ele><time>2026-04-28T14:57:02.001Z</time></trkpt><trkpt lat="41.0702752985032" lon="16.785574755636915"><ele>81.57142857142857</ele><time>2026-04-28T14:57:08.001Z</time></trkpt><trkpt lat="41.07021288874715" lon="16.785599994213783"><ele>81.28571428571429</ele><time>2026-04-28T14:57:13.001Z</time></trkpt><trkpt lat="41.07016274736471" lon="16.785663575505687"><ele>81.0</ele><time>2026-04-28T14:57:18.001Z</time></trkpt><trkpt lat="41.07012375881938" lon="16.7857343140364"><ele>81.0</ele><time>2026-04-28T14:57:23.001Z</time></trkpt><trkpt lat="41.07008336048084" lon="16.785804580193595"><ele>81.0</ele><time>2026-04-28T14:57:28.001Z</time></trkpt><trkpt lat="41.0700490266367" lon="16.7858810321774"><ele>81.0</ele><time>2026-04-28T14:57:33.001Z</time></trkpt><trkpt lat="41.07001390752323" lon="16.785951810173835"><ele>81.0</ele><time>2026-04-28T14:57:38.001Z</time></trkpt><trkpt lat="41.06996888026692" lon="16.78601885426804"><ele>81.0</ele><time>2026-04-28T14:57:43.001Z</time></trkpt><trkpt lat="41.06993294540726" lon="16.78609373904635"><ele>81.0</ele><time>2026-04-28T14:57:48.001Z</time></trkpt><trkpt lat="41.0698944514126" lon="16.78617039368923"><ele>81.0</ele><time>2026-04-28T14:57:53.001Z</time></trkpt><trkpt lat="41.06986110508214" lon="16.78625346908996"><ele>80.28571428571429</ele><time>2026-04-28T14:57:58.001Z</time></trkpt><trkpt lat="41.06984293508005" lon="16.786336631066572"><ele>79.57142857142857</ele><time>2026-04-28T14:58:03.001Z</time></trkpt><trkpt lat="41.06983430460692" lon="16.78643096078011"><ele>78.85714285714286</ele><time>2026-04-28T14:58:09.001Z</time></trkpt><trkpt lat="41.06985313829519" lon="16.786512078839134"><ele>78.14285714285714</ele><time>2026-04-28T14:58:15.001Z</time></trkpt><trkpt lat="41.0698612218523" lon="16.786595208652404"><ele>77.42857142857143</ele><time>2026-04-28T14:58:21.001Z</time></trkpt><trkpt lat="41.06986781309311" lon="16.78668724987366"><ele>76.71428571428571</ele><time>2026-04-28T14:58:27.001Z</time></trkpt><trkpt lat="41.06988005761635" lon="16.78678243375501"><ele>76.0</ele><time>2026-04-28T14:58:33.001Z</time></trkpt><trkpt lat="41.06988521728586" lon="16.786867121225022"><ele>76.0</ele><time>2026-04-28T14:58:39.001Z</time></trkpt><trkpt lat="41.06987626199146" lon="16.786950994416657"><ele>76.0</ele><time>2026-04-28T14:58:44.001Z</time></trkpt><trkpt lat="41.06986959866224" lon="16.787048471804507"><ele>76.0</ele><time>2026-04-28T14:58:50.001Z</time></trkpt><trkpt lat="41.069849523386786" lon="16.787141122345723"><ele>76.0</ele><time>2026-04-28T14:58:56.001Z</time></trkpt><trkpt lat="41.06981364463696" lon="16.78722100996107"><ele>76.0</ele><time>2026-04-28T14:59:02.001Z</time></trkpt><trkpt lat="41.06978323464682" lon="16.78730268351476"><ele>76.0</ele><time>2026-04-28T14:59:07.001Z</time></trkpt><trkpt lat="41.069749056488" lon="16.78737367896781"><ele>76.0</ele><time>2026-04-28T14:59:12.001Z</time></trkpt><trkpt lat="41.06971978376413" lon="16.787460973411573"><ele>76.0</ele><time>2026-04-28T14:59:17.001Z</time></trkpt><trkpt lat="41.06967779795054" lon="16.787552018157808"><ele>76.0</ele><time>2026-04-28T14:59:23.001Z</time></trkpt><trkpt lat="41.06963888462612" lon="16.787623673368866"><ele>76.0</ele><time>2026-04-28T14:59:27.999Z</time></trkpt><trkpt lat="41.06960509211827" lon="16.787697579918127"><ele>76.0</ele><time>2026-04-28T14:59:33Z</time></trkpt><trkpt lat="41.069563679888375" lon="16.78777885304128"><ele>76.0</ele><time>2026-04-28T14:59:39Z</time></trkpt><trkpt lat="41.06952592185552" lon="16.78786009179184"><ele>76.0</ele><time>2026-04-28T14:59:44Z</time></trkpt><trkpt lat="41.06948761553083" lon="16.787940337833373"><ele>76.0</ele><time>2026-04-28T14:59:49Z</time></trkpt><trkpt lat="41.0694572142601" lon="16.788036026193417"><ele>76.14285714285714</ele><time>2026-04-28T14:59:55Z</time></trkpt><trkpt lat="41.06944356295386" lon="16.78812217281057"><ele>76.28571428571429</ele><time>2026-04-28T15:00:00Z</time></trkpt><trkpt lat="41.06943891161554" lon="16.788212806786433"><ele>76.42857142857143</ele><time>2026-04-28T15:00:05Z</time></trkpt><trkpt lat="41.06940111091295" lon="16.788281718727255"><ele>76.57142857142857</ele><time>2026-04-28T15:00:10Z</time></trkpt><trkpt lat="41.069341870316336" lon="16.788338629112513"><ele>76.71428571428572</ele><time>2026-04-28T15:00:15Z</time></trkpt><trkpt lat="41.06929724742399" lon="16.78840197974512"><ele>76.85714285714286</ele><time>2026-04-28T15:00:20Z</time></trkpt><trkpt lat="41.069251923158376" lon="16.788480214823856"><ele>77.0</ele><time>2026-04-28T15:00:25Z</time></trkpt><trkpt lat="41.0692198355986" lon="16.78855462563851"><ele>77.28571428571429</ele><time>2026-04-28T15:00:30Z</time></trkpt><trkpt lat="41.06918936969397" lon="16.788644309167488"><ele>77.57142857142857</ele><time>2026-04-28T15:00:35Z</time></trkpt><trkpt lat="41.06915553450815" lon="16.78873824086116"><ele>77.85714285714286</ele><time>2026-04-28T15:00:41Z</time></trkpt><trkpt lat="41.06912915568253" lon="16.78881548282359"><ele>78.14285714285714</ele><time>2026-04-28T15:00:46.001Z</time></trkpt><trkpt lat="41.0691012483259" lon="16.788895138469275"><ele>78.42857142857143</ele><time>2026-04-28T15:00:51.001Z</time></trkpt><trkpt lat="41.069075455536996" lon="16.78897580610276"><ele>78.71428571428572</ele><time>2026-04-28T15:00:56.001Z</time></trkpt><trkpt lat="41.069045461569424" lon="16.789052028709733"><ele>79.0</ele><time>2026-04-28T15:01:01.001Z</time></trkpt><trkpt lat="41.069018241427614" lon="16.78913236500583"><ele>78.28571428571429</ele><time>2026-04-28T15:01:06.001Z</time></trkpt><trkpt lat="41.06897588936719" lon="16.78920958284179"><ele>77.57142857142857</ele><time>2026-04-28T15:01:11.001Z</time></trkpt><trkpt lat="41.06893116462067" lon="16.78927744835683"><ele>76.85714285714286</ele><time>2026-04-28T15:01:16.001Z</time></trkpt><trkpt lat="41.06886367981567" lon="16.789337583630722"><ele>76.14285714285714</ele><time>2026-04-28T15:01:21.001Z</time></trkpt><trkpt lat="41.06880306474282" lon="16.789368318342298"><ele>75.42857142857143</ele><time>2026-04-28T15:01:26.001Z</time></trkpt><trkpt lat="41.06872796210731" lon="16.789380220086546"><ele>74.71428571428572</ele><time>2026-04-28T15:01:31.001Z</time></trkpt><trkpt lat="41.06865081535059" lon="16.789397482219954"><ele>74.0</ele><time>2026-04-28T15:01:36Z</time></trkpt><trkpt lat="41.06857619724746" lon="16.789393319712477"><ele>74.0</ele><time>2026-04-28T15:01:41Z</time></trkpt><trkpt lat="41.06850356476513" lon="16.789372494268964"><ele>74.0</ele><time>2026-04-28T15:01:46Z</time></trkpt><trkpt lat="41.06843125953029" lon="16.789358808607716"><ele>74.0</ele><time>2026-04-28T15:01:51Z</time></trkpt><trkpt lat="41.06836071581956" lon="16.78935855046298"><ele>74.0</ele><time>2026-04-28T15:01:56Z</time></trkpt><trkpt lat="41.06829317306016" lon="16.78935442120391"><ele>74.0</ele><time>2026-04-28T15:02:01Z</time></trkpt><trkpt lat="41.06822452881614" lon="16.789353815871657"><ele>74.0</ele><time>2026-04-28T15:02:06Z</time></trkpt><trkpt lat="41.06815453251903" lon="16.7893412314901"><ele>74.0</ele><time>2026-04-28T15:02:11Z</time></trkpt><trkpt lat="41.06808511714617" lon="16.789326172160123"><ele>74.42857142857143</ele><time>2026-04-28T15:02:16Z</time></trkpt><trkpt lat="41.06801602095002" lon="16.78931703362523"><ele>74.85714285714286</ele><time>2026-04-28T15:02:21Z</time></trkpt><trkpt lat="41.06794946118475" lon="16.78931097789535"><ele>75.28571428571428</ele><time>2026-04-28T15:02:26.001Z</time></trkpt><trkpt lat="41.06788293433569" lon="16.7892889070958"><ele>75.71428571428572</ele><time>2026-04-28T15:02:31.001Z</time></trkpt><trkpt lat="41.067816783557035" lon="16.789264491227797"><ele>76.14285714285714</ele><time>2026-04-28T15:02:36.001Z</time></trkpt><trkpt lat="41.06775530867081" lon="16.789233988917115"><ele>76.57142857142857</ele><time>2026-04-28T15:02:42.001Z</time></trkpt><trkpt lat="41.067694796643295" lon="16.789198643093748"><ele>77.0</ele><time>2026-04-28T15:02:47.001Z</time></trkpt><trkpt lat="41.06763101992857" lon="16.789157570586468"><ele>77.0</ele><time>2026-04-28T15:02:52.001Z</time></trkpt><trkpt lat="41.06757356892278" lon="16.789113433469154"><ele>77.0</ele><time>2026-04-28T15:02:57.001Z</time></trkpt><trkpt lat="41.067521529587" lon="16.789052817623137"><ele>77.0</ele><time>2026-04-28T15:03:02.001Z</time></trkpt><trkpt lat="41.06748410711026" lon="16.788983190343018"><ele>77.0</ele><time>2026-04-28T15:03:07.001Z</time></trkpt><trkpt lat="41.06745246358557" lon="16.7889077849927"><ele>77.0</ele><time>2026-04-28T15:03:12.001Z</time></trkpt><trkpt lat="41.06742342101658" lon="16.788831255219062"><ele>77.0</ele><time>2026-04-28T15:03:17.001Z</time></trkpt><trkpt lat="41.06739481800509" lon="16.78874132978236"><ele>77.0</ele><time>2026-04-28T15:03:23.001Z</time></trkpt><trkpt lat="41.06736679963363" lon="16.788650822127654"><ele>77.42857142857143</ele><time>2026-04-28T15:03:29.001Z</time></trkpt><trkpt lat="41.06733412858137" lon="16.78856851567819"><ele>77.85714285714286</ele><time>2026-04-28T15:03:35.001Z</time></trkpt><trkpt lat="41.0673017673738" lon="16.788479805473"><ele>78.28571428571428</ele><time>2026-04-28T15:03:41.001Z</time></trkpt><trkpt lat="41.06726272526419" lon="16.788412198769983"><ele>78.71428571428572</ele><time>2026-04-28T15:03:46Z</time></trkpt><trkpt lat="41.06721357638532" lon="16.788336243125002"><ele>79.14285714285714</ele><time>2026-04-28T15:03:52Z</time></trkpt><trkpt lat="41.067157106481645" lon="16.788276952957983"><ele>79.57142857142857</ele><time>2026-04-28T15:03:58Z</time></trkpt><trkpt lat="41.06709562757459" lon="16.788227648157193"><ele>80.0</ele><time>2026-04-28T15:04:04Z</time></trkpt><trkpt lat="41.067040222589455" lon="16.78818164453153"><ele>80.0</ele><time>2026-04-28T15:04:09Z</time></trkpt><trkpt lat="41.066972471866166" lon="16.7881337242915"><ele>80.0</ele><time>2026-04-28T15:04:15Z</time></trkpt><trkpt lat="41.06690226399002" lon="16.788097373914265"><ele>80.0</ele><time>2026-04-28T15:04:21.001Z</time></trkpt><trkpt lat="41.06684180352351" lon="16.788069935186254"><ele>80.0</ele><time>2026-04-28T15:04:26.001Z</time></trkpt><trkpt lat="41.06676691774925" lon="16.78805654865017"><ele>80.0</ele><time>2026-04-28T15:04:32.001Z</time></trkpt><trkpt lat="41.066700126696794" lon="16.788049056165534"><ele>80.0</ele><time>2026-04-28T15:04:37.001Z</time></trkpt><trkpt lat="41.066634477962495" lon="16.788049831149255"><ele>80.0</ele><time>2026-04-28T15:04:42.001Z</time></trkpt><trkpt lat="41.066570189086114" lon="16.788062412564315"><ele>79.85714285714286</ele><time>2026-04-28T15:04:47.001Z</time></trkpt><trkpt lat="41.066505218831026" lon="16.78807813626205"><ele>79.71428571428572</ele><time>2026-04-28T15:04:52.001Z</time></trkpt><trkpt lat="41.06644067337148" lon="16.788104873964983"><ele>79.57142857142858</ele><time>2026-04-28T15:04:57.001Z</time></trkpt><trkpt lat="41.06637929231039" lon="16.78813992908386"><ele>79.42857142857143</ele><time>2026-04-28T15:05:02.001Z</time></trkpt><trkpt lat="41.066326336424936" lon="16.788189655689635"><ele>79.28571428571429</ele><time>2026-04-28T15:05:07.001Z</time></trkpt><trkpt lat="41.06627518203734" lon="16.788244161819026"><ele>79.14285714285715</ele><time>2026-04-28T15:05:12.001Z</time></trkpt><trkpt lat="41.06622812032921" lon="16.788300673858508"><ele>79.0</ele><time>2026-04-28T15:05:17.001Z</time></trkpt><trkpt lat="41.06618050821906" lon="16.788361718734755"><ele>79.00000000000001</ele><time>2026-04-28T15:05:22.001Z</time></trkpt><trkpt lat="41.06613158900526" lon="16.78843387873143"><ele>79.0</ele><time>2026-04-28T15:05:28.001Z</time></trkpt><trkpt lat="41.066087562358305" lon="16.788500760695168"><ele>79.0</ele><time>2026-04-28T15:05:34.001Z</time></trkpt><trkpt lat="41.06603854086494" lon="16.78857327103074"><ele>79.0</ele><time>2026-04-28T15:05:40.001Z</time></trkpt><trkpt lat="41.065997982467906" lon="16.788641961928967"><ele>79.0</ele><time>2026-04-28T15:05:45Z</time></trkpt><trkpt lat="41.06595027334417" lon="16.78871728657313"><ele>79.00000000000001</ele><time>2026-04-28T15:05:51Z</time></trkpt><trkpt lat="41.06590879580503" lon="16.788781087736066"><ele>79.0</ele><time>2026-04-28T15:05:57Z</time></trkpt><trkpt lat="41.06585935124209" lon="16.78885504016765"><ele>79.42857142857143</ele><time>2026-04-28T15:06:04Z</time></trkpt><trkpt lat="41.06581147856066" lon="16.78891538927754"><ele>79.85714285714286</ele><time>2026-04-28T15:06:08Z</time></trkpt><trkpt lat="41.06576198983611" lon="16.78898245755651"><ele>80.28571428571428</ele><time>2026-04-28T15:06:13Z</time></trkpt><trkpt lat="41.065709865349454" lon="16.789044161151214"><ele>80.71428571428572</ele><time>2026-04-28T15:06:19Z</time></trkpt><trkpt lat="41.06565689934034" lon="16.789111219839185"><ele>81.14285714285714</ele><time>2026-04-28T15:06:26Z</time></trkpt><trkpt lat="41.065606689600855" lon="16.789171330206216"><ele>81.57142857142857</ele><time>2026-04-28T15:06:31Z</time></trkpt><trkpt lat="41.065557668125244" lon="16.789225687038705"><ele>82.0</ele><time>2026-04-28T15:06:37Z</time></trkpt><trkpt lat="41.065499947481435" lon="16.789292358249444"><ele>82.42857142857142</ele><time>2026-04-28T15:06:43.001Z</time></trkpt><trkpt lat="41.06544447590518" lon="16.78935474351832"><ele>82.85714285714286</ele><time>2026-04-28T15:06:49.001Z</time></trkpt><trkpt lat="41.06539316084181" lon="16.78941901404208"><ele>83.28571428571428</ele><time>2026-04-28T15:06:54.001Z</time></trkpt><trkpt lat="41.06533715179471" lon="16.789482702955713"><ele>83.71428571428571</ele><time>2026-04-28T15:07:00.001Z</time></trkpt><trkpt lat="41.06528314723397" lon="16.789545215529472"><ele>84.14285714285714</ele><time>2026-04-28T15:07:06.001Z</time></trkpt><trkpt lat="41.0652309423862" lon="16.789608319741074"><ele>84.57142857142857</ele><time>2026-04-28T15:07:11.001Z</time></trkpt><trkpt lat="41.06517678060283" lon="16.789674985945823"><ele>85.0</ele><time>2026-04-28T15:07:17.001Z</time></trkpt><trkpt lat="41.06512114447389" lon="16.789739378785217"><ele>85.0</ele><time>2026-04-28T15:07:23.001Z</time></trkpt><trkpt lat="41.06506914353777" lon="16.789795201496077"><ele>85.0</ele><time>2026-04-28T15:07:29.001Z</time></trkpt><trkpt lat="41.06501461871441" lon="16.78985864520103"><ele>85.0</ele><time>2026-04-28T15:07:35.001Z</time></trkpt><trkpt lat="41.064971389536936" lon="16.789922858156682"><ele>85.0</ele><time>2026-04-28T15:07:40.001Z</time></trkpt><trkpt lat="41.06491725956851" lon="16.78998122549989"><ele>85.0</ele><time>2026-04-28T15:07:46.001Z</time></trkpt><trkpt lat="41.06486857808931" lon="16.79003486854314"><ele>85.0</ele><time>2026-04-28T15:07:51Z</time></trkpt><trkpt lat="41.06481232532647" lon="16.79010055362888"><ele>85.0</ele><time>2026-04-28T15:07:57Z</time></trkpt><trkpt lat="41.06476344590187" lon="16.790161309591593"><ele>85.28571428571429</ele><time>2026-04-28T15:08:02Z</time></trkpt><trkpt lat="41.06471100005211" lon="16.790219106835906"><ele>85.57142857142857</ele><time>2026-04-28T15:08:07Z</time></trkpt><trkpt lat="41.06470513035273" lon="16.79030895018714"><ele>85.85714285714286</ele><time>2026-04-28T15:08:13Z</time></trkpt><trkpt lat="41.064656660433926" lon="16.79036789059242"><ele>86.14285714285714</ele><time>2026-04-28T15:08:18Z</time></trkpt><trkpt lat="41.06461007091449" lon="16.790427349547635"><ele>86.42857142857143</ele><time>2026-04-28T15:08:23Z</time></trkpt><trkpt lat="41.06455383699348" lon="16.79048948386258"><ele>86.71428571428571</ele><time>2026-04-28T15:08:29Z</time></trkpt><trkpt lat="41.0645032826962" lon="16.79054104209878"><ele>87.0</ele><time>2026-04-28T15:08:34Z</time></trkpt><trkpt lat="41.06443919248141" lon="16.79059420826815"><ele>87.0</ele><time>2026-04-28T15:08:40Z</time></trkpt><trkpt lat="41.06437883615768" lon="16.790628942729224"><ele>87.0</ele><time>2026-04-28T15:08:45Z</time></trkpt><trkpt lat="41.06432010304796" lon="16.790660947259934"><ele>87.0</ele><time>2026-04-28T15:08:50Z</time></trkpt><trkpt lat="41.06425453163308" lon="16.79068155993041"><ele>87.0</ele><time>2026-04-28T15:08:56Z</time></trkpt><trkpt lat="41.06418879237651" lon="16.79070336702443"><ele>87.0</ele><time>2026-04-28T15:09:01Z</time></trkpt><trkpt lat="41.064118563896784" lon="16.790712398842253"><ele>87.0</ele><time>2026-04-28T15:09:07Z</time></trkpt><trkpt lat="41.064055640558045" lon="16.790718010598958"><ele>87.0</ele><time>2026-04-28T15:09:12.001Z</time></trkpt><trkpt lat="41.06398491847721" lon="16.790710822094866"><ele>86.85714285714286</ele><time>2026-04-28T15:09:18.001Z</time></trkpt><trkpt lat="41.06391806239551" lon="16.7906993357909"><ele>86.71428571428572</ele><time>2026-04-28T15:09:23.001Z</time></trkpt><trkpt lat="41.06384422483815" lon="16.790676898780884"><ele>86.57142857142858</ele><time>2026-04-28T15:09:29.001Z</time></trkpt><trkpt lat="41.063778368112246" lon="16.790662925817458"><ele>86.42857142857143</ele><time>2026-04-28T15:09:34.001Z</time></trkpt><trkpt lat="41.06371395178109" lon="16.790645041997077"><ele>86.28571428571429</ele><time>2026-04-28T15:09:39.001Z</time></trkpt><trkpt lat="41.06363843673876" lon="16.790630631633046"><ele>86.14285714285715</ele><time>2026-04-28T15:09:45.001Z</time></trkpt><trkpt lat="41.063561805980434" lon="16.79060533453593"><ele>86.0</ele><time>2026-04-28T15:09:51.001Z</time></trkpt><trkpt lat="41.06348717006452" lon="16.79058931975031"><ele>86.00000000000001</ele><time>2026-04-28T15:09:57Z</time></trkpt><trkpt lat="41.06341049237217" lon="16.790573083609623"><ele>86.0</ele><time>2026-04-28T15:10:03Z</time></trkpt><trkpt lat="41.06333660385008" lon="16.790552834640767"><ele>86.0</ele><time>2026-04-28T15:10:09Z</time></trkpt><trkpt lat="41.0632626144271" lon="16.79053513779817"><ele>86.0</ele><time>2026-04-28T15:10:15Z</time></trkpt><trkpt lat="41.06318652071639" lon="16.79051414822405"><ele>86.0</ele><time>2026-04-28T15:10:21Z</time></trkpt><trkpt lat="41.063122162589465" lon="16.79049634842021"><ele>86.00000000000001</ele><time>2026-04-28T15:10:26Z</time></trkpt><trkpt lat="41.06306038997666" lon="16.790478572140316"><ele>86.0</ele><time>2026-04-28T15:10:31Z</time></trkpt><trkpt lat="41.06299563713974" lon="16.79046704275408"><ele>86.14285714285715</ele><time>2026-04-28T15:10:36Z</time></trkpt><trkpt lat="41.062926215622944" lon="16.790455435023116"><ele>86.28571428571429</ele><time>2026-04-28T15:10:41Z</time></trkpt><trkpt lat="41.06285406438779" lon="16.79042976954789"><ele>86.42857142857143</ele><time>2026-04-28T15:10:47Z</time></trkpt><trkpt lat="41.06278513630868" lon="16.790407889900425"><ele>86.57142857142858</ele><time>2026-04-28T15:10:53Z</time></trkpt><trkpt lat="41.06271058897012" lon="16.79039263510053"><ele>86.71428571428572</ele><time>2026-04-28T15:10:59Z</time></trkpt><trkpt lat="41.06264454082815" lon="16.790378557717855"><ele>86.85714285714286</ele><time>2026-04-28T15:11:04Z</time></trkpt><trkpt lat="41.0625734664876" lon="16.790365291787626"><ele>87.0</ele><time>2026-04-28T15:11:09.001Z</time></trkpt><trkpt lat="41.0625076132216" lon="16.790358804258275"><ele>87.28571428571428</ele><time>2026-04-28T15:11:14.001Z</time></trkpt><trkpt lat="41.06244172523352" lon="16.790349366989428"><ele>87.57142857142857</ele><time>2026-04-28T15:11:19.001Z</time></trkpt><trkpt lat="41.0623784601147" lon="16.790339456809857"><ele>87.85714285714286</ele><time>2026-04-28T15:11:24.001Z</time></trkpt><trkpt lat="41.06231538921886" lon="16.790318321787968"><ele>88.14285714285714</ele><time>2026-04-28T15:11:29.001Z</time></trkpt><trkpt lat="41.06225144511975" lon="16.7903049002085"><ele>88.42857142857143</ele><time>2026-04-28T15:11:34.001Z</time></trkpt><trkpt lat="41.06217663823034" lon="16.790299184425532"><ele>88.71428571428571</ele><time>2026-04-28T15:11:40.001Z</time></trkpt><trkpt lat="41.06210977594646" lon="16.790282220010084"><ele>89.0</ele><time>2026-04-28T15:11:45.001Z</time></trkpt><trkpt lat="41.06204413335626" lon="16.79027211279156"><ele>88.99999999999999</ele><time>2026-04-28T15:11:50.001Z</time></trkpt><trkpt lat="41.061977126900246" lon="16.790261634177217"><ele>89.0</ele><time>2026-04-28T15:11:55.001Z</time></trkpt><trkpt lat="41.06190954930104" lon="16.79027341163146"><ele>89.0</ele><time>2026-04-28T15:12:00.001Z</time></trkpt><trkpt lat="41.06184498791288" lon="16.790300079328862"><ele>89.0</ele><time>2026-04-28T15:12:04.999Z</time></trkpt><trkpt lat="41.06177806377478" lon="16.790306208365163"><ele>89.0</ele><time>2026-04-28T15:12:09.999Z</time></trkpt><trkpt lat="41.06170975461007" lon="16.79025507074745"><ele>88.99999999999999</ele><time>2026-04-28T15:12:15.999Z</time></trkpt><trkpt lat="41.06165381982891" lon="16.79019400644648"><ele>89.0</ele><time>2026-04-28T15:12:21.999Z</time></trkpt><trkpt lat="41.0615815568015" lon="16.79018397717832"><ele>89.14285714285714</ele><time>2026-04-28T15:12:26.999Z</time></trkpt><trkpt lat="41.061522671049445" lon="16.790152182119456"><ele>89.28571428571428</ele><time>2026-04-28T15:12:32Z</time></trkpt><trkpt lat="41.06146000178524" lon="16.79012000380308"><ele>89.42857142857142</ele><time>2026-04-28T15:12:37Z</time></trkpt><trkpt lat="41.0613926666153" lon="16.79010269511966"><ele>89.57142857142857</ele><time>2026-04-28T15:12:42Z</time></trkpt><trkpt lat="41.06132429156217" lon="16.790082818117998"><ele>89.71428571428572</ele><time>2026-04-28T15:12:47Z</time></trkpt><trkpt lat="41.061252609026845" lon="16.790056628546335"><ele>89.85714285714285</ele><time>2026-04-28T15:12:52Z</time></trkpt><trkpt lat="41.06117605727117" lon="16.790039807868816"><ele>90.0</ele><time>2026-04-28T15:12:57Z</time></trkpt><trkpt lat="41.06110564802453" lon="16.790011396043692"><ele>90.0</ele><time>2026-04-28T15:13:02Z</time></trkpt><trkpt lat="41.06104104635081" lon="16.78998066753352"><ele>90.0</ele><time>2026-04-28T15:13:07Z</time></trkpt><trkpt lat="41.06097451100936" lon="16.78996454734424"><ele>90.0</ele><time>2026-04-28T15:13:12Z</time></trkpt><trkpt lat="41.06090912370307" lon="16.789953710875928"><ele>90.0</ele><time>2026-04-28T15:13:17Z</time></trkpt><trkpt lat="41.060842920876624" lon="16.789944674244005"><ele>90.0</ele><time>2026-04-28T15:13:22Z</time></trkpt><trkpt lat="41.06077447464701" lon="16.7899268542272"><ele>90.0</ele><time>2026-04-28T15:13:27.001Z</time></trkpt><trkpt lat="41.06070692376283" lon="16.789924127748982"><ele>90.0</ele><time>2026-04-28T15:13:32.001Z</time></trkpt><trkpt lat="41.060637057260664" lon="16.789928300228333"><ele>90.0</ele><time>2026-04-28T15:13:37.001Z</time></trkpt><trkpt lat="41.06056842664133" lon="16.789929000509712"><ele>90.0</ele><time>2026-04-28T15:13:43.001Z</time></trkpt><trkpt lat="41.06049350346674" lon="16.78991716106359"><ele>90.0</ele><time>2026-04-28T15:13:48.001Z</time></trkpt><trkpt lat="41.06042585161522" lon="16.789915418831484"><ele>90.0</ele><time>2026-04-28T15:13:53.001Z</time></trkpt><trkpt lat="41.06034987105484" lon="16.789921526142905"><ele>90.0</ele><time>2026-04-28T15:13:58.001Z</time></trkpt><trkpt lat="41.06027379666829" lon="16.78992387956379"><ele>90.0</ele><time>2026-04-28T15:14:03.001Z</time></trkpt><trkpt lat="41.06021002291378" lon="16.78991699179769"><ele>90.0</ele><time>2026-04-28T15:14:08.001Z</time></trkpt><trkpt lat="41.060145657199726" lon="16.789917840537036"><ele>90.0</ele><time>2026-04-28T15:14:12.997Z</time></trkpt><trkpt lat="41.0600717218558" lon="16.789923255399277"><ele>90.0</ele><time>2026-04-28T15:14:17.997Z</time></trkpt><trkpt lat="41.05999902517987" lon="16.78992600130702"><ele>90.0</ele><time>2026-04-28T15:14:22.997Z</time></trkpt><trkpt lat="41.059923093422896" lon="16.789939969994677"><ele>90.0</ele><time>2026-04-28T15:14:28.998Z</time></trkpt><trkpt lat="41.059854634062546" lon="16.789952269765145"><ele>90.0</ele><time>2026-04-28T15:14:33.998Z</time></trkpt><trkpt lat="41.059784762539024" lon="16.7899649707584"><ele>90.0</ele><time>2026-04-28T15:14:38.999Z</time></trkpt><trkpt lat="41.05971634558997" lon="16.78997345869546"><ele>90.0</ele><time>2026-04-28T15:14:43.999Z</time></trkpt><trkpt lat="41.05965384595609" lon="16.78998413360115"><ele>90.14285714285714</ele><time>2026-04-28T15:14:47.999Z</time></trkpt><trkpt lat="41.05958585448656" lon="16.789997591735258"><ele>90.28571428571429</ele><time>2026-04-28T15:14:52.999Z</time></trkpt><trkpt lat="41.0595177276204" lon="16.790012344026362"><ele>90.42857142857143</ele><time>2026-04-28T15:14:57.999Z</time></trkpt><trkpt lat="41.05945233555577" lon="16.79003226016104"><ele>90.57142857142857</ele><time>2026-04-28T15:15:02.999Z</time></trkpt><trkpt lat="41.05937678298417" lon="16.790058628037677"><ele>90.71428571428572</ele><time>2026-04-28T15:15:08Z</time></trkpt><trkpt lat="41.05931397210772" lon="16.790069121064718"><ele>90.85714285714286</ele><time>2026-04-28T15:15:13Z</time></trkpt><trkpt lat="41.05924638958977" lon="16.790092794016893"><ele>91.0</ele><time>2026-04-28T15:15:18Z</time></trkpt><trkpt lat="41.059178499227755" lon="16.79010905820139"><ele>91.0</ele><time>2026-04-28T15:15:23Z</time></trkpt><trkpt lat="41.05910992376062" lon="16.790136621847264"><ele>91.0</ele><time>2026-04-28T15:15:28Z</time></trkpt><trkpt lat="41.05904171042227" lon="16.790167615239795"><ele>91.0</ele><time>2026-04-28T15:15:33Z</time></trkpt><trkpt lat="41.05897179620221" lon="16.790198688455824"><ele>91.0</ele><time>2026-04-28T15:15:38Z</time></trkpt><trkpt lat="41.05890631688268" lon="16.790235125701216"><ele>91.0</ele><time>2026-04-28T15:15:43Z</time></trkpt><trkpt lat="41.058841613087246" lon="16.79026480275214"><ele>91.0</ele><time>2026-04-28T15:15:48Z</time></trkpt><trkpt lat="41.058776601192996" lon="16.79029354480979"><ele>91.0</ele><time>2026-04-28T15:15:53.001Z</time></trkpt><trkpt lat="41.05871333054509" lon="16.79032802053924"><ele>91.0</ele><time>2026-04-28T15:15:58.001Z</time></trkpt><trkpt lat="41.0586488729975" lon="16.79036234752711"><ele>91.0</ele><time>2026-04-28T15:16:03.001Z</time></trkpt><trkpt lat="41.058582859435425" lon="16.79040112301033"><ele>91.0</ele><time>2026-04-28T15:16:08.001Z</time></trkpt><trkpt lat="41.058517633807" lon="16.790445025468088"><ele>91.0</ele><time>2026-04-28T15:16:13.001Z</time></trkpt><trkpt lat="41.05845189807785" lon="16.7904709238187"><ele>91.0</ele><time>2026-04-28T15:16:17.997Z</time></trkpt><trkpt lat="41.05838599487035" lon="16.79050884771847"><ele>91.0</ele><time>2026-04-28T15:16:22.998Z</time></trkpt><trkpt lat="41.05832197717994" lon="16.79054431366824"><ele>91.0</ele><time>2026-04-28T15:16:27.998Z</time></trkpt><trkpt lat="41.05825088125667" lon="16.790575541499912"><ele>91.14285714285714</ele><time>2026-04-28T15:16:33.998Z</time></trkpt><trkpt lat="41.058187657264085" lon="16.79061190477628"><ele>91.28571428571428</ele><time>2026-04-28T15:16:38.999Z</time></trkpt><trkpt lat="41.05812346534248" lon="16.79064400507811"><ele>91.42857142857143</ele><time>2026-04-28T15:16:43.999Z</time></trkpt><trkpt lat="41.058053964535816" lon="16.79068593872158"><ele>91.57142857142857</ele><time>2026-04-28T15:16:48.999Z</time></trkpt><trkpt lat="41.05798158382402" lon="16.79071877870544"><ele>91.71428571428571</ele><time>2026-04-28T15:16:54Z</time></trkpt><trkpt lat="41.057910742428106" lon="16.790755953679337"><ele>91.85714285714286</ele><time>2026-04-28T15:16:59Z</time></trkpt><trkpt lat="41.05784256807888" lon="16.79080157458616"><ele>92.0</ele><time>2026-04-28T15:17:04Z</time></trkpt><trkpt lat="41.05778056666795" lon="16.79083236113902"><ele>92.0</ele><time>2026-04-28T15:17:09Z</time></trkpt><trkpt lat="41.057718718621636" lon="16.790875173578257"><ele>92.0</ele><time>2026-04-28T15:17:14Z</time></trkpt><trkpt lat="41.05765424517536" lon="16.790911519892834"><ele>92.0</ele><time>2026-04-28T15:17:19Z</time></trkpt><trkpt lat="41.0575911452648" lon="16.790940990067156"><ele>92.0</ele><time>2026-04-28T15:17:25.001Z</time></trkpt><trkpt lat="41.05754009840309" lon="16.79099382652213"><ele>92.0</ele><time>2026-04-28T15:17:30.001Z</time></trkpt><trkpt lat="41.057477666662024" lon="16.79101928044967"><ele>92.0</ele><time>2026-04-28T15:17:35.001Z</time></trkpt><trkpt lat="41.05741375639611" lon="16.791049684446087"><ele>92.0</ele><time>2026-04-28T15:17:40.001Z</time></trkpt><trkpt lat="41.05734485899286" lon="16.79108121826852"><ele>92.0</ele><time>2026-04-28T15:17:45.001Z</time></trkpt><trkpt lat="41.05728455567939" lon="16.791113643760127"><ele>92.0</ele><time>2026-04-28T15:17:50.001Z</time></trkpt><trkpt lat="41.05722187313234" lon="16.791154670252777"><ele>92.0</ele><time>2026-04-28T15:17:55.001Z</time></trkpt><trkpt lat="41.05715889010098" lon="16.79120085225161"><ele>92.0</ele><time>2026-04-28T15:18:01.002Z</time></trkpt><trkpt lat="41.057099644153794" lon="16.791234660853252"><ele>92.0</ele><time>2026-04-28T15:18:06.002Z</time></trkpt><trkpt lat="41.05704228887302" lon="16.791273938852278"><ele>92.0</ele><time>2026-04-28T15:18:11.002Z</time></trkpt><trkpt lat="41.056978492392744" lon="16.791308897296723"><ele>92.0</ele><time>2026-04-28T15:18:16.002Z</time></trkpt><trkpt lat="41.05691893863114" lon="16.79134792048443"><ele>92.0</ele><time>2026-04-28T15:18:20.998Z</time></trkpt><trkpt lat="41.05685583484723" lon="16.79137557200829"><ele>92.0</ele><time>2026-04-28T15:18:25.998Z</time></trkpt><trkpt lat="41.05679514552003" lon="16.79140929861155"><ele>92.0</ele><time>2026-04-28T15:18:30.998Z</time></trkpt><trkpt lat="41.05672908165744" lon="16.7914443525425"><ele>92.0</ele><time>2026-04-28T15:18:37.998Z</time></trkpt><trkpt lat="41.056671408554294" lon="16.791485486396567"><ele>92.0</ele><time>2026-04-28T15:18:41.999Z</time></trkpt><trkpt lat="41.056612507452414" lon="16.791537987886947"><ele>92.0</ele><time>2026-04-28T15:18:46.999Z</time></trkpt><trkpt lat="41.056561454274416" lon="16.791588718678767"><ele>92.0</ele><time>2026-04-28T15:18:50.999Z</time></trkpt><trkpt lat="41.05650502999651" lon="16.79163692626911"><ele>92.14285714285715</ele><time>2026-04-28T15:18:55.999Z</time></trkpt><trkpt lat="41.056445640235204" lon="16.79169069021058"><ele>92.28571428571428</ele><time>2026-04-28T15:19:01Z</time></trkpt><trkpt lat="41.05639433820316" lon="16.79174366706137"><ele>92.42857142857143</ele><time>2026-04-28T15:19:06Z</time></trkpt><trkpt lat="41.05634048464261" lon="16.79180275291977"><ele>92.57142857142858</ele><time>2026-04-28T15:19:11Z</time></trkpt><trkpt lat="41.05629131086251" lon="16.791862993959203"><ele>92.71428571428572</ele><time>2026-04-28T15:19:16Z</time></trkpt><trkpt lat="41.05624122786171" lon="16.791920133201035"><ele>92.85714285714286</ele><time>2026-04-28T15:19:21Z</time></trkpt><trkpt lat="41.05618992792622" lon="16.79198985971039"><ele>93.0</ele><time>2026-04-28T15:19:26.001Z</time></trkpt><trkpt lat="41.05613029650992" lon="16.792061566267275"><ele>93.00000000000001</ele><time>2026-04-28T15:19:32.001Z</time></trkpt><trkpt lat="41.05608523990184" lon="16.79212891157167"><ele>93.0</ele><time>2026-04-28T15:19:37.001Z</time></trkpt><trkpt lat="41.05604195637606" lon="16.792193694637376"><ele>93.0</ele><time>2026-04-28T15:19:42.001Z</time></trkpt><trkpt lat="41.05599433643787" lon="16.79225659455387"><ele>93.0</ele><time>2026-04-28T15:19:47.001Z</time></trkpt><trkpt lat="41.0559465767673" lon="16.792338746658928"><ele>93.0</ele><time>2026-04-28T15:19:52.001Z</time></trkpt><trkpt lat="41.05590374405491" lon="16.792409882110427"><ele>93.00000000000001</ele><time>2026-04-28T15:19:57.001Z</time></trkpt><trkpt lat="41.055850103810975" lon="16.79248355774552"><ele>93.0</ele><time>2026-04-28T15:20:02.002Z</time></trkpt><trkpt lat="41.055757510499696" lon="16.79260533866491"><ele>92.33333333333333</ele><time>2026-04-28T15:20:07.002Z</time></trkpt><trkpt lat="41.05571818973213" lon="16.7926853351838"><ele>91.66666666666667</ele><time>2026-04-28T15:20:10.002Z</time></trkpt><trkpt lat="41.05564448395252" lon="16.79277993142852"><ele>91.0</ele><time>2026-04-28T15:20:12.002Z</time></trkpt><trkpt lat="41.05557979302001" lon="16.79285510720116"><ele>90.33333333333334</ele><time>2026-04-28T15:20:15.002Z</time></trkpt><trkpt lat="41.05553786175197" lon="16.79293300768223"><ele>89.66666666666667</ele><time>2026-04-28T15:20:17.002Z</time></trkpt><trkpt lat="41.05548202683963" lon="16.793013390149873"><ele>89.0</ele><time>2026-04-28T15:20:20.002Z</time></trkpt><trkpt lat="41.0554222261878" lon="16.793094447518673"><ele>88.99999999999999</ele><time>2026-04-28T15:20:23.002Z</time></trkpt><trkpt lat="41.05539551599773" lon="16.79317207961043"><ele>89.0</ele><time>2026-04-28T15:20:25.002Z</time></trkpt><trkpt lat="41.05534599204943" lon="16.79322716787697"><ele>89.0</ele><time>2026-04-28T15:20:26.999Z</time></trkpt><trkpt lat="41.05527483892169" lon="16.79331151931581"><ele>89.0</ele><time>2026-04-28T15:20:29.999Z</time></trkpt><trkpt lat="41.05521434789671" lon="16.793358525079324"><ele>89.0</ele><time>2026-04-28T15:20:37Z</time></trkpt><trkpt lat="41.05515675985064" lon="16.79340247028753"><ele>88.99999999999999</ele><time>2026-04-28T15:20:43Z</time></trkpt><trkpt lat="41.05510598088679" lon="16.793456627851594"><ele>89.0</ele><time>2026-04-28T15:20:48Z</time></trkpt><trkpt lat="41.05505411718364" lon="16.793508063157084"><ele>88.71428571428571</ele><time>2026-04-28T15:20:52Z</time></trkpt><trkpt lat="41.05499448425343" lon="16.79355151135774"><ele>88.42857142857143</ele><time>2026-04-28T15:20:57Z</time></trkpt><trkpt lat="41.054927993930285" lon="16.79359146938733"><ele>88.14285714285714</ele><time>2026-04-28T15:21:02.001Z</time></trkpt><trkpt lat="41.054868464009346" lon="16.793628512381286"><ele>87.85714285714286</ele><time>2026-04-28T15:21:07.001Z</time></trkpt><trkpt lat="41.05480361312313" lon="16.79366485111435"><ele>87.57142857142857</ele><time>2026-04-28T15:21:12.001Z</time></trkpt><trkpt lat="41.054743505800666" lon="16.793700846724924"><ele>87.28571428571428</ele><time>2026-04-28T15:21:17.001Z</time></trkpt><trkpt lat="41.054676378133315" lon="16.793739810847878"><ele>87.0</ele><time>2026-04-28T15:21:22.001Z</time></trkpt><trkpt lat="41.054610959998655" lon="16.793765908923632"><ele>87.71428571428571</ele><time>2026-04-28T15:21:27.002Z</time></trkpt><trkpt lat="41.05454835058141" lon="16.793803403348935"><ele>88.42857142857143</ele><time>2026-04-28T15:21:32.002Z</time></trkpt><trkpt lat="41.05448553011722" lon="16.793844141226394"><ele>89.14285714285714</ele><time>2026-04-28T15:21:37.002Z</time></trkpt><trkpt lat="41.054423422309384" lon="16.793881193870792"><ele>89.85714285714286</ele><time>2026-04-28T15:21:42.002Z</time></trkpt><trkpt lat="41.05436142203561" lon="16.79390608611086"><ele>90.57142857142857</ele><time>2026-04-28T15:21:47.002Z</time></trkpt><trkpt lat="41.0542969366696" lon="16.793926912724416"><ele>91.28571428571429</ele><time>2026-04-28T15:21:52.002Z</time></trkpt><trkpt lat="41.054231340824174" lon="16.79394574499757"><ele>92.0</ele><time>2026-04-28T15:21:57.002Z</time></trkpt><trkpt lat="41.054165503079005" lon="16.79396063788824"><ele>92.42857142857143</ele><time>2026-04-28T15:22:02.003Z</time></trkpt><trkpt lat="41.05410190700995" lon="16.793972140351517"><ele>92.85714285714285</ele><time>2026-04-28T15:22:07.003Z</time></trkpt><trkpt lat="41.05403928725354" lon="16.793981871719435"><ele>93.28571428571428</ele><time>2026-04-28T15:22:12.003Z</time></trkpt><trkpt lat="41.05397526365984" lon="16.793999020597017"><ele>93.71428571428572</ele><time>2026-04-28T15:22:17.003Z</time></trkpt><trkpt lat="41.05390970308831" lon="16.794011068775507"><ele>94.14285714285714</ele><time>2026-04-28T15:22:22.003Z</time></trkpt><trkpt lat="41.05384530188075" lon="16.794028436614866"><ele>94.57142857142857</ele><time>2026-04-28T15:22:27.003Z</time></trkpt><trkpt lat="41.05378038921578" lon="16.79403518279815"><ele>95.0</ele><time>2026-04-28T15:22:32.003Z</time></trkpt><trkpt lat="41.05371796971892" lon="16.794047127838773"><ele>95.0</ele><time>2026-04-28T15:22:37.001Z</time></trkpt><trkpt lat="41.05365463192032" lon="16.794067800248413"><ele>95.0</ele><time>2026-04-28T15:22:42.001Z</time></trkpt><trkpt lat="41.05358963703986" lon="16.79408280764101"><ele>95.0</ele><time>2026-04-28T15:22:47.001Z</time></trkpt><trkpt lat="41.05351659455132" lon="16.794104479439994"><ele>95.0</ele><time>2026-04-28T15:22:53.001Z</time></trkpt><trkpt lat="41.05344428058147" lon="16.794111208024997"><ele>95.0</ele><time>2026-04-28T15:22:59.001Z</time></trkpt><trkpt lat="41.05338104747929" lon="16.794125722642203"><ele>95.0</ele><time>2026-04-28T15:23:04.001Z</time></trkpt><trkpt lat="41.05331627097719" lon="16.79413661514942"><ele>95.0</ele><time>2026-04-28T15:23:09.001Z</time></trkpt><trkpt lat="41.05325212676151" lon="16.794155097742895"><ele>95.0</ele><time>2026-04-28T15:23:14.001Z</time></trkpt><trkpt lat="41.05318128557533" lon="16.79417203650502"><ele>95.0</ele><time>2026-04-28T15:23:20.001Z</time></trkpt><trkpt lat="41.05310723027047" lon="16.794191111726455"><ele>95.0</ele><time>2026-04-28T15:23:26.001Z</time></trkpt><trkpt lat="41.05303786549167" lon="16.794205235208416"><ele>95.0</ele><time>2026-04-28T15:23:32.001Z</time></trkpt><trkpt lat="41.052971056421605" lon="16.79422644324143"><ele>95.0</ele><time>2026-04-28T15:23:38.001Z</time></trkpt><trkpt lat="41.05290828790131" lon="16.794237742466656"><ele>95.0</ele><time>2026-04-28T15:23:43.001Z</time></trkpt><trkpt lat="41.052844251495074" lon="16.794245375108428"><ele>95.0</ele><time>2026-04-28T15:23:48.001Z</time></trkpt><trkpt lat="41.052780470716776" lon="16.794266696417367"><ele>95.0</ele><time>2026-04-28T15:23:53.001Z</time></trkpt><trkpt lat="41.052700849886335" lon="16.79427972314789"><ele>95.0</ele><time>2026-04-28T15:23:59.001Z</time></trkpt><trkpt lat="41.05262980338138" lon="16.794288856131594"><ele>95.0</ele><time>2026-04-28T15:24:05.002Z</time></trkpt><trkpt lat="41.052564389222304" lon="16.794286910424937"><ele>95.0</ele><time>2026-04-28T15:24:11.002Z</time></trkpt><trkpt lat="41.05250159341622" lon="16.794312093554844"><ele>95.0</ele><time>2026-04-28T15:24:16.002Z</time></trkpt><trkpt lat="41.052435538822216" lon="16.794330387370213"><ele>95.0</ele><time>2026-04-28T15:24:21.002Z</time></trkpt><trkpt lat="41.05236386742284" lon="16.79434433601208"><ele>95.0</ele><time>2026-04-28T15:24:26.002Z</time></trkpt><trkpt lat="41.052295903941385" lon="16.794370827055292"><ele>95.14285714285714</ele><time>2026-04-28T15:24:31.002Z</time></trkpt><trkpt lat="41.05221459892514" lon="16.794393206462033"><ele>95.28571428571429</ele><time>2026-04-28T15:24:37.002Z</time></trkpt><trkpt lat="41.05215119017899" lon="16.79440589259847"><ele>95.42857142857142</ele><time>2026-04-28T15:24:41.996Z</time></trkpt><trkpt lat="41.05208461129466" lon="16.794420592917565"><ele>95.57142857142857</ele><time>2026-04-28T15:24:46.997Z</time></trkpt><trkpt lat="41.05202036891646" lon="16.794428931156965"><ele>95.71428571428571</ele><time>2026-04-28T15:24:51.997Z</time></trkpt><trkpt lat="41.051956044463964" lon="16.794446765077062"><ele>95.85714285714285</ele><time>2026-04-28T15:24:56.998Z</time></trkpt><trkpt lat="41.051891542805755" lon="16.794458137777987"><ele>96.0</ele><time>2026-04-28T15:25:01.999Z</time></trkpt><trkpt lat="41.05182336175166" lon="16.794470762719214"><ele>95.99999999999999</ele><time>2026-04-28T15:25:06.999Z</time></trkpt><trkpt lat="41.05175564370829" lon="16.794490434442682"><ele>96.0</ele><time>2026-04-28T15:25:11.999Z</time></trkpt><trkpt lat="41.05168678656546" lon="16.79450094156942"><ele>96.0</ele><time>2026-04-28T15:25:17Z</time></trkpt><trkpt lat="41.05161873467346" lon="16.794516669122366"><ele>96.0</ele><time>2026-04-28T15:25:22Z</time></trkpt><trkpt lat="41.0515497702157" lon="16.7945383612023"><ele>96.0</ele><time>2026-04-28T15:25:27Z</time></trkpt><trkpt lat="41.05148054400503" lon="16.79455033106285"><ele>95.99999999999999</ele><time>2026-04-28T15:25:33Z</time></trkpt><trkpt lat="41.051409377209175" lon="16.79456637345683"><ele>96.0</ele><time>2026-04-28T15:25:38.001Z</time></trkpt><trkpt lat="41.05134232379098" lon="16.79458234330357"><ele>95.99999999999999</ele><time>2026-04-28T15:25:43.001Z</time></trkpt><trkpt lat="41.051278220184145" lon="16.79459400809909"><ele>96.0</ele><time>2026-04-28T15:25:48.001Z</time></trkpt><trkpt lat="41.0511977049477" lon="16.794602652697503"><ele>96.0</ele><time>2026-04-28T15:25:54.001Z</time></trkpt><trkpt lat="41.05112335364238" lon="16.79461199040893"><ele>96.0</ele><time>2026-04-28T15:26:00.001Z</time></trkpt><trkpt lat="41.05106041901564" lon="16.79462027575009"><ele>96.0</ele><time>2026-04-28T15:26:05.002Z</time></trkpt><trkpt lat="41.0509888048222" lon="16.79463426212686"><ele>95.99999999999999</ele><time>2026-04-28T15:26:10.002Z</time></trkpt><trkpt lat="41.05091867534252" lon="16.794647150610032"><ele>96.0</ele><time>2026-04-28T15:26:15.002Z</time></trkpt><trkpt lat="41.05084956329322" lon="16.794668030770097"><ele>95.99999999999999</ele><time>2026-04-28T15:26:21.002Z</time></trkpt><trkpt lat="41.05078689851777" lon="16.79469033572027"><ele>96.0</ele><time>2026-04-28T15:26:25.002Z</time></trkpt><trkpt lat="41.05071934312561" lon="16.794710535352817"><ele>96.0</ele><time>2026-04-28T15:26:30.002Z</time></trkpt><trkpt lat="41.0506535223751" lon="16.794690555074133"><ele>96.0</ele><time>2026-04-28T15:26:35.002Z</time></trkpt><trkpt lat="41.05059055538264" lon="16.794681265103485"><ele>96.0</ele><time>2026-04-28T15:26:40.003Z</time></trkpt><trkpt lat="41.05051846776777" lon="16.79468954427225"><ele>95.99999999999999</ele><time>2026-04-28T15:26:44.998Z</time></trkpt><trkpt lat="41.05045077250592" lon="16.79469659956274"><ele>96.0</ele><time>2026-04-28T15:26:49.999Z</time></trkpt><trkpt lat="41.050382843120126" lon="16.794711752855523"><ele>95.99999999999999</ele><time>2026-04-28T15:26:54.999Z</time></trkpt><trkpt lat="41.05031596768638" lon="16.79471826807788"><ele>96.0</ele><time>2026-04-28T15:26:59.999Z</time></trkpt><trkpt lat="41.05024865480609" lon="16.7947237144853"><ele>96.0</ele><time>2026-04-28T15:27:05Z</time></trkpt><trkpt lat="41.0501759750878" lon="16.79473270276916"><ele>96.0</ele><time>2026-04-28T15:27:10Z</time></trkpt><trkpt lat="41.05010660238763" lon="16.794742327525167"><ele>96.0</ele><time>2026-04-28T15:27:15Z</time></trkpt><trkpt lat="41.05004063829301" lon="16.794737961764397"><ele>95.99999999999999</ele><time>2026-04-28T15:27:20Z</time></trkpt><trkpt lat="41.04996924173644" lon="16.794748181413347"><ele>96.0</ele><time>2026-04-28T15:27:25.001Z</time></trkpt><trkpt lat="41.04989718840263" lon="16.79475506054941"><ele>96.14285714285714</ele><time>2026-04-28T15:27:30.001Z</time></trkpt><trkpt lat="41.04983013288583" lon="16.794764744296405"><ele>96.28571428571428</ele><time>2026-04-28T15:27:35.001Z</time></trkpt><trkpt lat="41.0497568056173" lon="16.794743430808943"><ele>96.42857142857142</ele><time>2026-04-28T15:27:41.001Z</time></trkpt><trkpt lat="41.04968717821288" lon="16.79474771925723"><ele>96.57142857142857</ele><time>2026-04-28T15:27:46.001Z</time></trkpt><trkpt lat="41.04961904245244" lon="16.794740897621676"><ele>96.71428571428572</ele><time>2026-04-28T15:27:51.002Z</time></trkpt><trkpt lat="41.04955385233694" lon="16.7947451631846"><ele>96.85714285714285</ele><time>2026-04-28T15:27:56.002Z</time></trkpt><trkpt lat="41.049477566925546" lon="16.7947434554833"><ele>97.0</ele><time>2026-04-28T15:28:02.002Z</time></trkpt><trkpt lat="41.0494036097835" lon="16.794735184684388"><ele>97.0</ele><time>2026-04-28T15:28:08.002Z</time></trkpt><trkpt lat="41.04933879429443" lon="16.794730095932245"><ele>97.0</ele><time>2026-04-28T15:28:13.002Z</time></trkpt><trkpt lat="41.04926228988835" lon="16.794714031519668"><ele>97.0</ele><time>2026-04-28T15:28:19.002Z</time></trkpt><trkpt lat="41.04919302315253" lon="16.794703106585402"><ele>97.0</ele><time>2026-04-28T15:28:25.003Z</time></trkpt><trkpt lat="41.04912704231722" lon="16.794692823819528"><ele>97.0</ele><time>2026-04-28T15:28:30.003Z</time></trkpt><trkpt lat="41.04906084493868" lon="16.79468474595298"><ele>97.0</ele><time>2026-04-28T15:28:35.003Z</time></trkpt><trkpt lat="41.04899533552425" lon="16.79466939056211"><ele>97.0</ele><time>2026-04-28T15:28:40.003Z</time></trkpt><trkpt lat="41.04892700421173" lon="16.794654605433834"><ele>97.42857142857143</ele><time>2026-04-28T15:28:45.003Z</time></trkpt><trkpt lat="41.0488635548405" lon="16.794642003869043"><ele>97.85714285714286</ele><time>2026-04-28T15:28:50.003Z</time></trkpt><trkpt lat="41.048786876255676" lon="16.794610729528316"><ele>98.28571428571429</ele><time>2026-04-28T15:28:55.999Z</time></trkpt><trkpt lat="41.048716406518665" lon="16.79460207782877"><ele>98.71428571428572</ele><time>2026-04-28T15:29:00.999Z</time></trkpt><trkpt lat="41.04865319853729" lon="16.794592276428943"><ele>99.14285714285714</ele><time>2026-04-28T15:29:05.999Z</time></trkpt><trkpt lat="41.04857861948214" lon="16.79456974497631"><ele>99.57142857142858</ele><time>2026-04-28T15:29:12Z</time></trkpt><trkpt lat="41.048512362396934" lon="16.794550994844432"><ele>100.0</ele><time>2026-04-28T15:29:17Z</time></trkpt><trkpt lat="41.04844501794474" lon="16.794532025029344"><ele>100.00000000000001</ele><time>2026-04-28T15:29:23Z</time></trkpt><trkpt lat="41.04837375647757" lon="16.794521069043725"><ele>100.0</ele><time>2026-04-28T15:29:30.001Z</time></trkpt><trkpt lat="41.04831092059013" lon="16.79450972378278"><ele>100.0</ele><time>2026-04-28T15:29:35.001Z</time></trkpt><trkpt lat="41.048201308290366" lon="16.79448724297481"><ele>100.0</ele><time>2026-04-28T15:29:44.001Z</time></trkpt><trkpt lat="41.048137786503254" lon="16.79449343070217"><ele>100.00000000000001</ele><time>2026-04-28T15:29:48.001Z</time></trkpt><trkpt lat="41.04807402113475" lon="16.794473298094612"><ele>100.0</ele><time>2026-04-28T15:29:54.001Z</time></trkpt><trkpt lat="41.04799733079761" lon="16.794461922483244"><ele>100.14285714285715</ele><time>2026-04-28T15:30:00.002Z</time></trkpt><trkpt lat="41.04793324610321" lon="16.794447186465707"><ele>100.28571428571429</ele><time>2026-04-28T15:30:05.002Z</time></trkpt><trkpt lat="41.04786544238953" lon="16.794447788050952"><ele>100.42857142857143</ele><time>2026-04-28T15:30:10.002Z</time></trkpt><trkpt lat="41.047800319300094" lon="16.794449742289313"><ele>100.57142857142858</ele><time>2026-04-28T15:30:15.002Z</time></trkpt><trkpt lat="41.04773129574047" lon="16.794447982377278"><ele>100.71428571428571</ele><time>2026-04-28T15:30:20.002Z</time></trkpt><trkpt lat="41.047668291896265" lon="16.79444680134362"><ele>100.85714285714286</ele><time>2026-04-28T15:30:25.002Z</time></trkpt><trkpt lat="41.04759591981916" lon="16.79445174224496"><ele>101.0</ele><time>2026-04-28T15:30:30.003Z</time></trkpt><trkpt lat="41.047520477164724" lon="16.794454145224975"><ele>101.0</ele><time>2026-04-28T15:30:36.003Z</time></trkpt><trkpt lat="41.047456212695124" lon="16.794459837530802"><ele>101.0</ele><time>2026-04-28T15:30:41.003Z</time></trkpt><trkpt lat="41.04739340168716" lon="16.794465510705113"><ele>101.0</ele><time>2026-04-28T15:30:46.003Z</time></trkpt><trkpt lat="41.04732636013521" lon="16.794475778628584"><ele>101.0</ele><time>2026-04-28T15:30:51.003Z</time></trkpt><trkpt lat="41.047258099329376" lon="16.794489512961263"><ele>101.0</ele><time>2026-04-28T15:30:56.003Z</time></trkpt><trkpt lat="41.04718828104325" lon="16.794497156466782"><ele>101.0</ele><time>2026-04-28T15:31:01.995Z</time></trkpt><trkpt lat="41.04712361490211" lon="16.794499784954063"><ele>101.0</ele><time>2026-04-28T15:31:06.996Z</time></trkpt><trkpt lat="41.047053597824835" lon="16.7945151243918"><ele>101.0</ele><time>2026-04-28T15:31:11.997Z</time></trkpt><trkpt lat="41.04698694124487" lon="16.794521374725342"><ele>101.0</ele><time>2026-04-28T15:31:16.998Z</time></trkpt><trkpt lat="41.046919552001626" lon="16.79452988121993"><ele>101.0</ele><time>2026-04-28T15:31:21.999Z</time></trkpt><trkpt lat="41.046851256905505" lon="16.79454050430065"><ele>101.0</ele><time>2026-04-28T15:31:26.999Z</time></trkpt><trkpt lat="41.04677482475498" lon="16.79454337651889"><ele>101.0</ele><time>2026-04-28T15:31:33Z</time></trkpt><trkpt lat="41.04670786392458" lon="16.794545033445498"><ele>101.0</ele><time>2026-04-28T15:31:38Z</time></trkpt><trkpt lat="41.046642130171804" lon="16.794549078811"><ele>101.0</ele><time>2026-04-28T15:31:43Z</time></trkpt><trkpt lat="41.04657168993821" lon="16.79454566890167"><ele>101.42857142857143</ele><time>2026-04-28T15:31:49.001Z</time></trkpt><trkpt lat="41.04650621116479" lon="16.794536872423876"><ele>101.85714285714286</ele><time>2026-04-28T15:31:54.001Z</time></trkpt><trkpt lat="41.04643785818319" lon="16.794524926411732"><ele>102.28571428571428</ele><time>2026-04-28T15:31:59.001Z</time></trkpt><trkpt lat="41.04635979280628" lon="16.794516604172465"><ele>102.71428571428572</ele><time>2026-04-28T15:32:05.001Z</time></trkpt><trkpt lat="41.04629215365397" lon="16.79450899055784"><ele>103.14285714285715</ele><time>2026-04-28T15:32:10.002Z</time></trkpt><trkpt lat="41.04622623840122" lon="16.794497749459964"><ele>103.57142857142857</ele><time>2026-04-28T15:32:15.002Z</time></trkpt><trkpt lat="41.046163133569166" lon="16.794477873998748"><ele>104.0</ele><time>2026-04-28T15:32:20.002Z</time></trkpt><trkpt lat="41.04610210209325" lon="16.794453677228162"><ele>104.0</ele><time>2026-04-28T15:32:25.002Z</time></trkpt><trkpt lat="41.04603534437141" lon="16.79442850381353"><ele>104.0</ele><time>2026-04-28T15:32:30.002Z</time></trkpt><trkpt lat="41.04597458574148" lon="16.794398516330578"><ele>104.0</ele><time>2026-04-28T15:32:35.002Z</time></trkpt><trkpt lat="41.04591111072147" lon="16.794369374385468"><ele>104.0</ele><time>2026-04-28T15:32:40.003Z</time></trkpt><trkpt lat="41.04584988607128" lon="16.79432930066519"><ele>104.0</ele><time>2026-04-28T15:32:45.003Z</time></trkpt><trkpt lat="41.04578882976056" lon="16.79429428263973"><ele>104.0</ele><time>2026-04-28T15:32:50.003Z</time></trkpt><trkpt lat="41.045728894799616" lon="16.794260513697484"><ele>104.0</ele><time>2026-04-28T15:32:55.003Z</time></trkpt><trkpt lat="41.0456699795759" lon="16.79422988348912"><ele>104.14285714285714</ele><time>2026-04-28T15:33:00.003Z</time></trkpt><trkpt lat="41.04560914066648" lon="16.794196875585655"><ele>104.28571428571429</ele><time>2026-04-28T15:33:04.997Z</time></trkpt><trkpt lat="41.045546602264814" lon="16.79416087436441"><ele>104.42857142857143</ele><time>2026-04-28T15:33:09.997Z</time></trkpt><trkpt lat="41.045488913698" lon="16.79412517118305"><ele>104.57142857142857</ele><time>2026-04-28T15:33:14.998Z</time></trkpt><trkpt lat="41.04542238178771" lon="16.794099469759093"><ele>104.71428571428572</ele><time>2026-04-28T15:33:19.999Z</time></trkpt><trkpt lat="41.045361413553955" lon="16.794065015078154"><ele>104.85714285714286</ele><time>2026-04-28T15:33:24.999Z</time></trkpt><trkpt lat="41.045290466015786" lon="16.794030642374867"><ele>105.0</ele><time>2026-04-28T15:33:31Z</time></trkpt><trkpt lat="41.04522223368761" lon="16.79399583221126"><ele>105.0</ele><time>2026-04-28T15:33:37Z</time></trkpt><trkpt lat="41.04516037760485" lon="16.79396680730114"><ele>105.0</ele><time>2026-04-28T15:33:43Z</time></trkpt><trkpt lat="41.045093752586894" lon="16.793942605971843"><ele>105.0</ele><time>2026-04-28T15:33:49.001Z</time></trkpt><trkpt lat="41.04502216019581" lon="16.79391829547628"><ele>105.0</ele><time>2026-04-28T15:33:55.001Z</time></trkpt><trkpt lat="41.04495225795728" lon="16.793877450109267"><ele>105.0</ele><time>2026-04-28T15:34:01.001Z</time></trkpt><trkpt lat="41.044880022866415" lon="16.793867823492686"><ele>105.0</ele><time>2026-04-28T15:34:07.001Z</time></trkpt><trkpt lat="41.044808270581534" lon="16.793857215506453"><ele>105.0</ele><time>2026-04-28T15:34:13.002Z</time></trkpt><trkpt lat="41.04473485417908" lon="16.793841189683807"><ele>105.0</ele><time>2026-04-28T15:34:19.002Z</time></trkpt><trkpt lat="41.044669367089796" lon="16.793844440533142"><ele>105.0</ele><time>2026-04-28T15:34:24.002Z</time></trkpt><trkpt lat="41.044600264719" lon="16.793830294138143"><ele>105.0</ele><time>2026-04-28T15:34:30.002Z</time></trkpt><trkpt lat="41.04452712951264" lon="16.79383627870826"><ele>105.0</ele><time>2026-04-28T15:34:36.002Z</time></trkpt><trkpt lat="41.044437592911784" lon="16.793854450769267"><ele>105.0</ele><time>2026-04-28T15:34:42.002Z</time></trkpt><trkpt lat="41.044372263327325" lon="16.79383937170936"><ele>105.0</ele><time>2026-04-28T15:34:49.003Z</time></trkpt><trkpt lat="41.04430607839993" lon="16.79384086038491"><ele>105.0</ele><time>2026-04-28T15:34:54.003Z</time></trkpt><trkpt lat="41.04423703345146" lon="16.793850035045807"><ele>105.0</ele><time>2026-04-28T15:34:59.003Z</time></trkpt><trkpt lat="41.04417362212456" lon="16.79385969171451"><ele>105.0</ele><time>2026-04-28T15:35:04.003Z</time></trkpt><trkpt lat="41.04410532051009" lon="16.793891035013395"><ele>105.0</ele><time>2026-04-28T15:35:09.999Z</time></trkpt><trkpt lat="41.044032356608234" lon="16.79389898119579"><ele>105.0</ele><time>2026-04-28T15:35:14.999Z</time></trkpt><trkpt lat="41.04396607724724" lon="16.793916022474455"><ele>105.0</ele><time>2026-04-28T15:35:19.999Z</time></trkpt><trkpt lat="41.04390487877089" lon="16.793940199529764"><ele>105.0</ele><time>2026-04-28T15:35:25Z</time></trkpt><trkpt lat="41.04383638966565" lon="16.79395173682968"><ele>105.0</ele><time>2026-04-28T15:35:31Z</time></trkpt><trkpt lat="41.043773779780885" lon="16.79396775297695"><ele>104.85714285714286</ele><time>2026-04-28T15:35:36Z</time></trkpt><trkpt lat="41.043702144060475" lon="16.793982524592135"><ele>104.71428571428572</ele><time>2026-04-28T15:35:42Z</time></trkpt><trkpt lat="41.04362988478058" lon="16.793997126140777"><ele>104.57142857142857</ele><time>2026-04-28T15:35:48.001Z</time></trkpt><trkpt lat="41.043556355951225" lon="16.79401231586248"><ele>104.42857142857143</ele><time>2026-04-28T15:35:54.001Z</time></trkpt><trkpt lat="41.04349166264796" lon="16.794033461273212"><ele>104.28571428571429</ele><time>2026-04-28T15:35:58.001Z</time></trkpt><trkpt lat="41.04341866886383" lon="16.794046982122797"><ele>104.14285714285714</ele><time>2026-04-28T15:36:03.001Z</time></trkpt><trkpt lat="41.04335595938976" lon="16.794069803340957"><ele>104.0</ele><time>2026-04-28T15:36:07.001Z</time></trkpt><trkpt lat="41.04328434341482" lon="16.794097558149073"><ele>104.0</ele><time>2026-04-28T15:36:12.001Z</time></trkpt><trkpt lat="41.04321205264522" lon="16.794122102388304"><ele>104.0</ele><time>2026-04-28T15:36:17.002Z</time></trkpt><trkpt lat="41.04314833490751" lon="16.794143054946694"><ele>104.0</ele><time>2026-04-28T15:36:22.002Z</time></trkpt><trkpt lat="41.043081140534184" lon="16.794160407338673"><ele>104.0</ele><time>2026-04-28T15:36:27.002Z</time></trkpt><trkpt lat="41.043016042730585" lon="16.794178010834273"><ele>104.0</ele><time>2026-04-28T15:36:32.002Z</time></trkpt><trkpt lat="41.042943686971455" lon="16.794205709691486"><ele>104.0</ele><time>2026-04-28T15:36:38.002Z</time></trkpt><trkpt lat="41.042879236430274" lon="16.79422306370943"><ele>104.0</ele><time>2026-04-28T15:36:43.002Z</time></trkpt><trkpt lat="41.042813953385135" lon="16.79424148448921"><ele>104.0</ele><time>2026-04-28T15:36:48.003Z</time></trkpt><trkpt lat="41.04274585129318" lon="16.794259454918105"><ele>104.0</ele><time>2026-04-28T15:36:54.003Z</time></trkpt><trkpt lat="41.04268259235881" lon="16.794270305287807"><ele>104.0</ele><time>2026-04-28T15:36:59.003Z</time></trkpt><trkpt lat="41.04261408006842" lon="16.79429128484521"><ele>104.0</ele><time>2026-04-28T15:37:04.003Z</time></trkpt><trkpt lat="41.042543923687205" lon="16.79430231951165"><ele>104.0</ele><time>2026-04-28T15:37:09.003Z</time></trkpt><trkpt lat="41.042479868764985" lon="16.79432978621909"><ele>104.0</ele><time>2026-04-28T15:37:14.003Z</time></trkpt><trkpt lat="41.04240554332882" lon="16.79433608055471"><ele>104.0</ele><time>2026-04-28T15:37:22Z</time></trkpt><trkpt lat="41.042332327287255" lon="16.79435919900667"><ele>104.14285714285714</ele><time>2026-04-28T15:37:28Z</time></trkpt><trkpt lat="41.04225769264405" lon="16.79438629755317"><ele>104.28571428571429</ele><time>2026-04-28T15:37:34Z</time></trkpt><trkpt lat="41.042190938990174" lon="16.794407770015763"><ele>104.42857142857143</ele><time>2026-04-28T15:37:39Z</time></trkpt><trkpt lat="41.04212712610877" lon="16.794416907884457"><ele>104.57142857142857</ele><time>2026-04-28T15:37:44.001Z</time></trkpt><trkpt lat="41.04206428924522" lon="16.79443457011752"><ele>104.71428571428572</ele><time>2026-04-28T15:37:49.001Z</time></trkpt><trkpt lat="41.04199633031189" lon="16.794441571863153"><ele>104.85714285714286</ele><time>2026-04-28T15:37:55.001Z</time></trkpt><trkpt lat="41.041931961483414" lon="16.794444596981396"><ele>105.0</ele><time>2026-04-28T15:38:01.001Z</time></trkpt><trkpt lat="41.04186003119971" lon="16.794455205010014"><ele>105.0</ele><time>2026-04-28T15:38:07.001Z</time></trkpt><trkpt lat="41.04179140915362" lon="16.79446375076549"><ele>105.0</ele><time>2026-04-28T15:38:13.001Z</time></trkpt><trkpt lat="41.04172290405176" lon="16.794468516873597"><ele>105.0</ele><time>2026-04-28T15:38:19.001Z</time></trkpt><trkpt lat="41.0416578038013" lon="16.794467977264823"><ele>105.0</ele><time>2026-04-28T15:38:24.002Z</time></trkpt><trkpt lat="41.04158560476193" lon="16.794478828300804"><ele>105.0</ele><time>2026-04-28T15:38:30.002Z</time></trkpt><trkpt lat="41.041520438600735" lon="16.79447954924069"><ele>105.0</ele><time>2026-04-28T15:38:35.002Z</time></trkpt><trkpt lat="41.04144975079527" lon="16.794493904063696"><ele>105.0</ele><time>2026-04-28T15:38:41.002Z</time></trkpt><trkpt lat="41.04138265007337" lon="16.79450837751243"><ele>105.14285714285714</ele><time>2026-04-28T15:38:46.002Z</time></trkpt><trkpt lat="41.041318910315866" lon="16.794518304755524"><ele>105.28571428571428</ele><time>2026-04-28T15:38:50.002Z</time></trkpt><trkpt lat="41.04125019512349" lon="16.79452435983588"><ele>105.42857142857143</ele><time>2026-04-28T15:38:55.002Z</time></trkpt><trkpt lat="41.041183008308465" lon="16.79453186870864"><ele>105.57142857142857</ele><time>2026-04-28T15:39:00.003Z</time></trkpt><trkpt lat="41.04111108268622" lon="16.7945355676527"><ele>105.71428571428571</ele><time>2026-04-28T15:39:05.003Z</time></trkpt><trkpt lat="41.04104398202232" lon="16.794540769648886"><ele>105.85714285714286</ele><time>2026-04-28T15:39:10.003Z</time></trkpt><trkpt lat="41.04097577321471" lon="16.794546731986696"><ele>106.0</ele><time>2026-04-28T15:39:15.003Z</time></trkpt><trkpt lat="41.04090967337951" lon="16.794547620754628"><ele>106.0</ele><time>2026-04-28T15:39:20.003Z</time></trkpt><trkpt lat="41.040843915085496" lon="16.794557398461876"><ele>106.0</ele><time>2026-04-28T15:39:25Z</time></trkpt><trkpt lat="41.0407738062625" lon="16.794574682892314"><ele>106.0</ele><time>2026-04-28T15:39:30Z</time></trkpt><trkpt lat="41.04070532687648" lon="16.794579796898006"><ele>106.0</ele><time>2026-04-28T15:39:35Z</time></trkpt><trkpt lat="41.04063962364351" lon="16.794589120173146"><ele>106.0</ele><time>2026-04-28T15:39:40Z</time></trkpt><trkpt lat="41.04056365103386" lon="16.794597535234917"><ele>106.0</ele><time>2026-04-28T15:39:46Z</time></trkpt><trkpt lat="41.04049905659427" lon="16.794613270877257"><ele>106.0</ele><time>2026-04-28T15:39:51.001Z</time></trkpt><trkpt lat="41.04043330941295" lon="16.794617602275192"><ele>106.14285714285715</ele><time>2026-04-28T15:39:56.001Z</time></trkpt><trkpt lat="41.04035919335265" lon="16.79463757327953"><ele>106.28571428571428</ele><time>2026-04-28T15:40:02.001Z</time></trkpt><trkpt lat="41.04029598358344" lon="16.794650084856865"><ele>106.42857142857143</ele><time>2026-04-28T15:40:07.001Z</time></trkpt><trkpt lat="41.04023245846185" lon="16.794664185158076"><ele>106.57142857142858</ele><time>2026-04-28T15:40:13.001Z</time></trkpt><trkpt lat="41.040163217182176" lon="16.79468931052756"><ele>106.71428571428572</ele><time>2026-04-28T15:40:18.001Z</time></trkpt><trkpt lat="41.040097086396905" lon="16.794705592708574"><ele>106.85714285714286</ele><time>2026-04-28T15:40:23.001Z</time></trkpt><trkpt lat="41.04003010679763" lon="16.794719233747028"><ele>107.0</ele><time>2026-04-28T15:40:29.002Z</time></trkpt><trkpt lat="41.0399630620472" lon="16.794752552928824"><ele>107.00000000000001</ele><time>2026-04-28T15:40:33.002Z</time></trkpt><trkpt lat="41.039891896096954" lon="16.79477344347373"><ele>107.0</ele><time>2026-04-28T15:40:38.002Z</time></trkpt><trkpt lat="41.039820922564545" lon="16.794794892525818"><ele>107.0</ele><time>2026-04-28T15:40:44.002Z</time></trkpt><trkpt lat="41.03975281081787" lon="16.79481185558735"><ele>107.0</ele><time>2026-04-28T15:40:49.002Z</time></trkpt><trkpt lat="41.039690811978616" lon="16.794834118034238"><ele>107.0</ele><time>2026-04-28T15:40:54.002Z</time></trkpt><trkpt lat="41.03961840870748" lon="16.794843654854674"><ele>107.00000000000001</ele><time>2026-04-28T15:41:00.002Z</time></trkpt><trkpt lat="41.039651221728434" lon="16.79476570897043"><ele>107.0</ele><time>2026-04-28T15:41:05.002Z</time></trkpt><trkpt lat="41.03971179058948" lon="16.794732120294405"><ele>107.00000000000001</ele><time>2026-04-28T15:41:10.003Z</time></trkpt><trkpt lat="41.0397834835129" lon="16.794717187219625"><ele>107.0</ele><time>2026-04-28T15:41:15.003Z</time></trkpt><trkpt lat="41.03984706885421" lon="16.794683295397725"><ele>107.0</ele><time>2026-04-28T15:41:21.003Z</time></trkpt><trkpt lat="41.03990902563628" lon="16.794666177185203"><ele>107.0</ele><time>2026-04-28T15:41:25.003Z</time></trkpt><trkpt lat="41.0399716703858" lon="16.79464939175888"><ele>107.0</ele><time>2026-04-28T15:41:29.001Z</time></trkpt><trkpt lat="41.04004334268239" lon="16.794630388810702"><ele>107.00000000000001</ele><time>2026-04-28T15:41:34Z</time></trkpt><trkpt lat="41.04011233394622" lon="16.7946105674492"><ele>107.0</ele><time>2026-04-28T15:41:39Z</time></trkpt><trkpt lat="41.04017817596204" lon="16.794587425173237"><ele>107.14285714285715</ele><time>2026-04-28T15:41:44Z</time></trkpt><trkpt lat="41.040244465668046" lon="16.794573066383727"><ele>107.28571428571429</ele><time>2026-04-28T15:41:50.001Z</time></trkpt><trkpt lat="41.04031128408154" lon="16.79455220379171"><ele>107.42857142857143</ele><time>2026-04-28T15:41:56.001Z</time></trkpt><trkpt lat="41.04038063111313" lon="16.794541110081468"><ele>107.57142857142858</ele><time>2026-04-28T15:42:01.001Z</time></trkpt><trkpt lat="41.040454694177726" lon="16.794524600321555"><ele>107.71428571428571</ele><time>2026-04-28T15:42:07.001Z</time></trkpt><trkpt lat="41.04053090818229" lon="16.794515711369478"><ele>107.85714285714286</ele><time>2026-04-28T15:42:13.001Z</time></trkpt><trkpt lat="41.04060710412164" lon="16.794514211120685"><ele>108.0</ele><time>2026-04-28T15:42:18.001Z</time></trkpt><trkpt lat="41.04067791644414" lon="16.794509083252805"><ele>108.0</ele><time>2026-04-28T15:42:23.001Z</time></trkpt><trkpt lat="41.0407501254239" lon="16.79448900380899"><ele>108.0</ele><time>2026-04-28T15:42:28.001Z</time></trkpt><trkpt lat="41.04082271387976" lon="16.794479403807607"><ele>108.0</ele><time>2026-04-28T15:42:33.001Z</time></trkpt><trkpt lat="41.04089216119885" lon="16.794473550011805"><ele>108.0</ele><time>2026-04-28T15:42:38.002Z</time></trkpt><trkpt lat="41.04096369211851" lon="16.794468092368472"><ele>108.0</ele><time>2026-04-28T15:42:43.002Z</time></trkpt><trkpt lat="41.041038136619505" lon="16.794455410985705"><ele>108.0</ele><time>2026-04-28T15:42:48.002Z</time></trkpt><trkpt lat="41.04110671295407" lon="16.794457942666323"><ele>108.0</ele><time>2026-04-28T15:42:53.002Z</time></trkpt><trkpt lat="41.04117855622904" lon="16.794446594434678"><ele>107.71428571428571</ele><time>2026-04-28T15:42:59.002Z</time></trkpt><trkpt lat="41.04124708986024" lon="16.794444000479338"><ele>107.42857142857142</ele><time>2026-04-28T15:43:04.002Z</time></trkpt><trkpt lat="41.041317775497234" lon="16.794432994570258"><ele>107.14285714285714</ele><time>2026-04-28T15:43:10.002Z</time></trkpt><trkpt lat="41.041386934135744" lon="16.794424987472137"><ele>106.85714285714286</ele><time>2026-04-28T15:43:15.002Z</time></trkpt><trkpt lat="41.04145005823472" lon="16.794420357904386"><ele>106.57142857142857</ele><time>2026-04-28T15:43:19.003Z</time></trkpt><trkpt lat="41.041525836800545" lon="16.794408690489306"><ele>106.28571428571429</ele><time>2026-04-28T15:43:25.003Z</time></trkpt><trkpt lat="41.04159803948232" lon="16.794401479406805"><ele>106.0</ele><time>2026-04-28T15:43:30.003Z</time></trkpt><trkpt lat="41.04167551313416" lon="16.79439649339072"><ele>105.85714285714286</ele><time>2026-04-28T15:43:36.001Z</time></trkpt><trkpt lat="41.04174105909333" lon="16.794392533809933"><ele>105.71428571428571</ele><time>2026-04-28T15:43:41.001Z</time></trkpt><trkpt lat="41.04181177034291" lon="16.794382994473644"><ele>105.57142857142857</ele><time>2026-04-28T15:43:46.001Z</time></trkpt><trkpt lat="41.041889224027976" lon="16.794368739905636"><ele>105.42857142857143</ele><time>2026-04-28T15:43:51.001Z</time></trkpt><trkpt lat="41.04195440925505" lon="16.794356753251122"><ele>105.28571428571428</ele><time>2026-04-28T15:43:57.001Z</time></trkpt><trkpt lat="41.042018123687924" lon="16.794348838898486"><ele>105.14285714285714</ele><time>2026-04-28T15:44:02.001Z</time></trkpt><trkpt lat="41.0420814669816" lon="16.7943340598328"><ele>105.0</ele><time>2026-04-28T15:44:06.001Z</time></trkpt><trkpt lat="41.04214948795153" lon="16.79432626033619"><ele>104.83333333333333</ele><time>2026-04-28T15:44:11.001Z</time></trkpt><trkpt lat="41.04221828512853" lon="16.794311400108757"><ele>104.66666666666666</ele><time>2026-04-28T15:44:16.001Z</time></trkpt><trkpt lat="41.04228239140057" lon="16.794293300381703"><ele>104.5</ele><time>2026-04-28T15:44:21.001Z</time></trkpt><trkpt lat="41.042345659271106" lon="16.794265449421268"><ele>104.33333333333333</ele><time>2026-04-28T15:44:25.001Z</time></trkpt><trkpt lat="41.0424301928353" lon="16.794233298554374"><ele>104.16666666666666</ele><time>2026-04-28T15:44:29.001Z</time></trkpt><trkpt lat="41.04252766157745" lon="16.794209016614463"><ele>104.0</ele><time>2026-04-28T15:44:32.001Z</time></trkpt><trkpt lat="41.042592634987145" lon="16.79419554825658"><ele>103.99999999999999</ele><time>2026-04-28T15:44:34.001Z</time></trkpt><trkpt lat="41.0426884988005" lon="16.794172908342514"><ele>104.0</ele><time>2026-04-28T15:44:37.001Z</time></trkpt><trkpt lat="41.042753982635126" lon="16.794154962990564"><ele>104.0</ele><time>2026-04-28T15:44:39.002Z</time></trkpt><trkpt lat="41.04283665755577" lon="16.794113969404933"><ele>104.0</ele><time>2026-04-28T15:44:42.002Z</time></trkpt><trkpt lat="41.04290639209473" lon="16.794105491371962"><ele>103.99999999999999</ele><time>2026-04-28T15:44:44.002Z</time></trkpt><trkpt lat="41.04296924130869" lon="16.794095905632197"><ele>104.0</ele><time>2026-04-28T15:44:47.002Z</time></trkpt><trkpt lat="41.04304536378891" lon="16.79407550738436"><ele>104.0</ele><time>2026-04-28T15:44:53.002Z</time></trkpt><trkpt lat="41.043116746067376" lon="16.794051501283946"><ele>104.0</ele><time>2026-04-28T15:44:58.002Z</time></trkpt><trkpt lat="41.043181557749236" lon="16.79402958961109"><ele>104.0</ele><time>2026-04-28T15:45:03.002Z</time></trkpt><trkpt lat="41.04325219987071" lon="16.79401323267298"><ele>104.0</ele><time>2026-04-28T15:45:09.002Z</time></trkpt><trkpt lat="41.043314179324945" lon="16.793992532557994"><ele>104.0</ele><time>2026-04-28T15:45:14.002Z</time></trkpt><trkpt lat="41.04338528142494" lon="16.793971525133383"><ele>104.0</ele><time>2026-04-28T15:45:19.002Z</time></trkpt><trkpt lat="41.04345990500514" lon="16.79396146569118"><ele>104.0</ele><time>2026-04-28T15:45:24.002Z</time></trkpt><trkpt lat="41.04352226927482" lon="16.79394269775136"><ele>104.0</ele><time>2026-04-28T15:45:29.003Z</time></trkpt><trkpt lat="41.04359048160725" lon="16.793928359908648"><ele>104.0</ele><time>2026-04-28T15:45:34.003Z</time></trkpt><trkpt lat="41.043660245376664" lon="16.793911267570696"><ele>104.0</ele><time>2026-04-28T15:45:39.001Z</time></trkpt><trkpt lat="41.04373066994641" lon="16.79389760762401"><ele>104.0</ele><time>2026-04-28T15:45:44.001Z</time></trkpt><trkpt lat="41.043798439777355" lon="16.7938820196251"><ele>104.0</ele><time>2026-04-28T15:45:49.001Z</time></trkpt><trkpt lat="41.04386093206743" lon="16.79386004911661"><ele>104.0</ele><time>2026-04-28T15:45:54.001Z</time></trkpt><trkpt lat="41.043928633967916" lon="16.793842593106316"><ele>104.0</ele><time>2026-04-28T15:45:59.001Z</time></trkpt><trkpt lat="41.043994942117635" lon="16.793829031086084"><ele>104.0</ele><time>2026-04-28T15:46:04.001Z</time></trkpt><trkpt lat="41.044061260469775" lon="16.79381434948526"><ele>104.0</ele><time>2026-04-28T15:46:09.001Z</time></trkpt><trkpt lat="41.04412810503661" lon="16.79379399534496"><ele>104.0</ele><time>2026-04-28T15:46:14.001Z</time></trkpt><trkpt lat="41.044194226729275" lon="16.793784803225297"><ele>104.0</ele><time>2026-04-28T15:46:19.001Z</time></trkpt><trkpt lat="41.04426101267129" lon="16.793774298073966"><ele>104.0</ele><time>2026-04-28T15:46:24.001Z</time></trkpt><trkpt lat="41.04432545896534" lon="16.793768131512273"><ele>104.0</ele><time>2026-04-28T15:46:29.001Z</time></trkpt><trkpt lat="41.04438888783755" lon="16.793752146236198"><ele>104.0</ele><time>2026-04-28T15:46:34.001Z</time></trkpt><trkpt lat="41.04445328781933" lon="16.79374908102444"><ele>104.14285714285714</ele><time>2026-04-28T15:46:39.001Z</time></trkpt><trkpt lat="41.04451773593593" lon="16.79374553885692"><ele>104.28571428571429</ele><time>2026-04-28T15:46:44.001Z</time></trkpt><trkpt lat="41.04458575913381" lon="16.793744600116337"><ele>104.42857142857143</ele><time>2026-04-28T15:46:49.001Z</time></trkpt><trkpt lat="41.044650180441735" lon="16.793751514772637"><ele>104.57142857142857</ele><time>2026-04-28T15:46:54.002Z</time></trkpt><trkpt lat="41.04471521361958" lon="16.79375501906512"><ele>104.71428571428572</ele><time>2026-04-28T15:46:59.002Z</time></trkpt><trkpt lat="41.04477884370883" lon="16.793765131123035"><ele>104.85714285714286</ele><time>2026-04-28T15:47:04.002Z</time></trkpt><trkpt lat="41.044855484370146" lon="16.79377983017703"><ele>105.0</ele><time>2026-04-28T15:47:10.002Z</time></trkpt><trkpt lat="41.04492119885773" lon="16.793792784438644"><ele>105.0</ele><time>2026-04-28T15:47:15.002Z</time></trkpt><trkpt lat="41.044985174968815" lon="16.793814949520552"><ele>105.0</ele><time>2026-04-28T15:47:20.002Z</time></trkpt><trkpt lat="41.045057036275466" lon="16.79383772647796"><ele>105.0</ele><time>2026-04-28T15:47:26.002Z</time></trkpt><trkpt lat="41.04511814175165" lon="16.793873932472973"><ele>105.0</ele><time>2026-04-28T15:47:32.002Z</time></trkpt><trkpt lat="41.04518418572809" lon="16.793906634178743"><ele>105.0</ele><time>2026-04-28T15:47:38.002Z</time></trkpt><trkpt lat="41.04525098712387" lon="16.7939419579112"><ele>105.0</ele><time>2026-04-28T15:47:43.003Z</time></trkpt><trkpt lat="41.04531259484404" lon="16.793974909977965"><ele>105.0</ele><time>2026-04-28T15:47:48.001Z</time></trkpt><trkpt lat="41.045371081063685" lon="16.794010620832662"><ele>105.0</ele><time>2026-04-28T15:47:53.001Z</time></trkpt><trkpt lat="41.045434368892224" lon="16.79404339779065"><ele>105.0</ele><time>2026-04-28T15:47:58.001Z</time></trkpt><trkpt lat="41.04549531329792" lon="16.794078184501238"><ele>105.0</ele><time>2026-04-28T15:48:03.001Z</time></trkpt><trkpt lat="41.045561220000735" lon="16.794110761141358"><ele>105.0</ele><time>2026-04-28T15:48:08.001Z</time></trkpt><trkpt lat="41.0456339020347" lon="16.794144159496685"><ele>105.0</ele><time>2026-04-28T15:48:14.001Z</time></trkpt><trkpt lat="41.04569479760189" lon="16.79418462806246"><ele>105.0</ele><time>2026-04-28T15:48:19.001Z</time></trkpt><trkpt lat="41.04575478742375" lon="16.794218902592416"><ele>105.0</ele><time>2026-04-28T15:48:24.001Z</time></trkpt><trkpt lat="41.04581638353629" lon="16.79425357808049"><ele>104.85714285714286</ele><time>2026-04-28T15:48:29.001Z</time></trkpt><trkpt lat="41.04588170178898" lon="16.79429031243871"><ele>104.71428571428572</ele><time>2026-04-28T15:48:34.001Z</time></trkpt><trkpt lat="41.04595204381348" lon="16.794319807785104"><ele>104.57142857142857</ele><time>2026-04-28T15:48:39.001Z</time></trkpt><trkpt lat="41.04601643618018" lon="16.79434913779599"><ele>104.42857142857143</ele><time>2026-04-28T15:48:44.001Z</time></trkpt><trkpt lat="41.04608245112035" lon="16.794371556236268"><ele>104.28571428571429</ele><time>2026-04-28T15:48:49.001Z</time></trkpt><trkpt lat="41.04614367962818" lon="16.79439546460567"><ele>104.14285714285714</ele><time>2026-04-28T15:48:54.001Z</time></trkpt><trkpt lat="41.046211060213714" lon="16.79441770357803"><ele>104.0</ele><time>2026-04-28T15:48:59.002Z</time></trkpt><trkpt lat="41.046279389025024" lon="16.794430228835104"><ele>104.0</ele><time>2026-04-28T15:49:04.002Z</time></trkpt><trkpt lat="41.04634863660259" lon="16.794444384680247"><ele>104.0</ele><time>2026-04-28T15:49:09.002Z</time></trkpt><trkpt lat="41.04641727436148" lon="16.79445490168009"><ele>104.0</ele><time>2026-04-28T15:49:14.002Z</time></trkpt><trkpt lat="41.04647992961962" lon="16.794465098910273"><ele>104.0</ele><time>2026-04-28T15:49:19.002Z</time></trkpt><trkpt lat="41.04654729072444" lon="16.794473889307724"><ele>104.0</ele><time>2026-04-28T15:49:24.002Z</time></trkpt><trkpt lat="41.046614249525774" lon="16.79447586527888"><ele>104.0</ele><time>2026-04-28T15:49:29.002Z</time></trkpt><trkpt lat="41.04668130042335" lon="16.794480148802087"><ele>104.0</ele><time>2026-04-28T15:49:34.002Z</time></trkpt><trkpt lat="41.046747133089376" lon="16.794479585572525"><ele>103.57142857142857</ele><time>2026-04-28T15:49:39.002Z</time></trkpt><trkpt lat="41.04681245566756" lon="16.794477277552563"><ele>103.14285714285715</ele><time>2026-04-28T15:49:44.002Z</time></trkpt><trkpt lat="41.046875297708134" lon="16.794466554858595"><ele>102.71428571428572</ele><time>2026-04-28T15:49:49.002Z</time></trkpt><trkpt lat="41.046941164340026" lon="16.79445970079058"><ele>102.28571428571428</ele><time>2026-04-28T15:49:54Z</time></trkpt><trkpt lat="41.04700777844141" lon="16.79444318251036"><ele>101.85714285714286</ele><time>2026-04-28T15:49:59Z</time></trkpt><trkpt lat="41.04707323292877" lon="16.794437638788025"><ele>101.42857142857143</ele><time>2026-04-28T15:50:04Z</time></trkpt><trkpt lat="41.047138585481875" lon="16.79443369122504"><ele>101.0</ele><time>2026-04-28T15:50:09Z</time></trkpt><trkpt lat="41.047211691409714" lon="16.794430943302697"><ele>101.0</ele><time>2026-04-28T15:50:15Z</time></trkpt><trkpt lat="41.04727413468908" lon="16.794416356675065"><ele>101.0</ele><time>2026-04-28T15:50:20Z</time></trkpt><trkpt lat="41.04733824734112" lon="16.794409284244203"><ele>101.0</ele><time>2026-04-28T15:50:25Z</time></trkpt><trkpt lat="41.04740800657262" lon="16.794405442289438"><ele>101.0</ele><time>2026-04-28T15:50:30.001Z</time></trkpt><trkpt lat="41.047478989759064" lon="16.794391206247486"><ele>101.0</ele><time>2026-04-28T15:50:35.001Z</time></trkpt><trkpt lat="41.04754284719349" lon="16.794384055878762"><ele>101.0</ele><time>2026-04-28T15:50:40.001Z</time></trkpt><trkpt lat="41.04761730332137" lon="16.794375739336683"><ele>101.0</ele><time>2026-04-28T15:50:46.001Z</time></trkpt><trkpt lat="41.04768026139348" lon="16.794374978467207"><ele>101.0</ele><time>2026-04-28T15:50:51.001Z</time></trkpt><trkpt lat="41.04775545253425" lon="16.79437100322032"><ele>101.0</ele><time>2026-04-28T15:50:57.001Z</time></trkpt><trkpt lat="41.04782192767404" lon="16.794370773360235"><ele>101.0</ele><time>2026-04-28T15:51:02.001Z</time></trkpt><trkpt lat="41.04788769566671" lon="16.7943723950097"><ele>101.0</ele><time>2026-04-28T15:51:07.001Z</time></trkpt><trkpt lat="41.04795727249369" lon="16.79437455722168"><ele>101.0</ele><time>2026-04-28T15:51:12.001Z</time></trkpt><trkpt lat="41.04802296052946" lon="16.79438147779183"><ele>101.0</ele><time>2026-04-28T15:51:17.001Z</time></trkpt><trkpt lat="41.04809480774073" lon="16.7943947344465"><ele>101.0</ele><time>2026-04-28T15:51:23.001Z</time></trkpt><trkpt lat="41.04816894909437" lon="16.79440621229841"><ele>101.0</ele><time>2026-04-28T15:51:29.002Z</time></trkpt><trkpt lat="41.04823346538839" lon="16.794411475222383"><ele>101.0</ele><time>2026-04-28T15:51:34.002Z</time></trkpt><trkpt lat="41.04829412794277" lon="16.794434310193523"><ele>101.0</ele><time>2026-04-28T15:51:39.002Z</time></trkpt><trkpt lat="41.04836845945344" lon="16.79444976625806"><ele>101.0</ele><time>2026-04-28T15:51:45.002Z</time></trkpt><trkpt lat="41.04843974987108" lon="16.794465956208974"><ele>101.0</ele><time>2026-04-28T15:51:51.002Z</time></trkpt><trkpt lat="41.04850211096336" lon="16.79448358957571"><ele>101.0</ele><time>2026-04-28T15:51:56.002Z</time></trkpt><trkpt lat="41.04856468374932" lon="16.794497333129037"><ele>101.0</ele><time>2026-04-28T15:52:01Z</time></trkpt><trkpt lat="41.0486292553547" lon="16.79451124946619"><ele>100.85714285714286</ele><time>2026-04-28T15:52:06Z</time></trkpt><trkpt lat="41.04869279683629" lon="16.794532179276363"><ele>100.71428571428571</ele><time>2026-04-28T15:52:11Z</time></trkpt><trkpt lat="41.04875975609757" lon="16.794542070259915"><ele>100.57142857142858</ele><time>2026-04-28T15:52:16Z</time></trkpt><trkpt lat="41.048833638218106" lon="16.794563317600808"><ele>100.42857142857143</ele><time>2026-04-28T15:52:22Z</time></trkpt><trkpt lat="41.04890574093121" lon="16.79457579066062"><ele>100.28571428571429</ele><time>2026-04-28T15:52:28.001Z</time></trkpt><trkpt lat="41.04897376508429" lon="16.794593722644105"><ele>100.14285714285715</ele><time>2026-04-28T15:52:33.001Z</time></trkpt><trkpt lat="41.04904691823413" lon="16.79460731382944"><ele>100.0</ele><time>2026-04-28T15:52:39.001Z</time></trkpt><trkpt lat="41.049110770638" lon="16.794619544876443"><ele>99.57142857142858</ele><time>2026-04-28T15:52:44.001Z</time></trkpt><trkpt lat="41.04917525144383" lon="16.79462887250102"><ele>99.14285714285714</ele><time>2026-04-28T15:52:49.001Z</time></trkpt><trkpt lat="41.04923954299543" lon="16.79464175343257"><ele>98.71428571428572</ele><time>2026-04-28T15:52:54.001Z</time></trkpt><trkpt lat="41.04931389147092" lon="16.794655477709828"><ele>98.28571428571429</ele><time>2026-04-28T15:53:00.001Z</time></trkpt><trkpt lat="41.049381948459605" lon="16.794657350948132"><ele>97.85714285714286</ele><time>2026-04-28T15:53:05.001Z</time></trkpt><trkpt lat="41.049448832365314" lon="16.79465818731476"><ele>97.42857142857143</ele><time>2026-04-28T15:53:10.001Z</time></trkpt><trkpt lat="41.04951679960738" lon="16.794665173583216"><ele>97.0</ele><time>2026-04-28T15:53:15.001Z</time></trkpt><trkpt lat="41.049581533830555" lon="16.794665980441078"><ele>97.0</ele><time>2026-04-28T15:53:20.001Z</time></trkpt><trkpt lat="41.04964695763876" lon="16.794668322343377"><ele>97.0</ele><time>2026-04-28T15:53:25.001Z</time></trkpt><trkpt lat="41.04972250834832" lon="16.794667022258533"><ele>97.0</ele><time>2026-04-28T15:53:31.002Z</time></trkpt><trkpt lat="41.04979635443544" lon="16.794673371065695"><ele>97.0</ele><time>2026-04-28T15:53:37.002Z</time></trkpt><trkpt lat="41.04986799717713" lon="16.794673898628893"><ele>97.0</ele><time>2026-04-28T15:53:43.002Z</time></trkpt><trkpt lat="41.04994227142832" lon="16.794667809590305"><ele>97.0</ele><time>2026-04-28T15:53:49.002Z</time></trkpt><trkpt lat="41.050016109533466" lon="16.79467213487097"><ele>97.0</ele><time>2026-04-28T15:53:55.002Z</time></trkpt><trkpt lat="41.05007958664944" lon="16.794664940340162"><ele>96.85714285714285</ele><time>2026-04-28T15:54:00.002Z</time></trkpt><trkpt lat="41.05015375054965" lon="16.79465749342284"><ele>96.71428571428572</ele><time>2026-04-28T15:54:06.001Z</time></trkpt><trkpt lat="41.050226024637126" lon="16.794652870556572"><ele>96.57142857142857</ele><time>2026-04-28T15:54:12.001Z</time></trkpt><trkpt lat="41.05028875565879" lon="16.794644362499607"><ele>96.42857142857142</ele><time>2026-04-28T15:54:17Z</time></trkpt><trkpt lat="41.05035972662055" lon="16.794627200188163"><ele>96.28571428571428</ele><time>2026-04-28T15:54:23Z</time></trkpt><trkpt lat="41.05042731402951" lon="16.794612588118596"><ele>96.14285714285714</ele><time>2026-04-28T15:54:29.001Z</time></trkpt><trkpt lat="41.05049933703001" lon="16.794609383977093"><ele>96.0</ele><time>2026-04-28T15:54:35.001Z</time></trkpt><trkpt lat="41.050568573427384" lon="16.794590700153567"><ele>95.99999999999999</ele><time>2026-04-28T15:54:41.001Z</time></trkpt><trkpt lat="41.050640796264425" lon="16.79458328766813"><ele>96.0</ele><time>2026-04-28T15:54:47.001Z</time></trkpt><trkpt lat="41.05070655172732" lon="16.794574863592388"><ele>96.0</ele><time>2026-04-28T15:54:53.001Z</time></trkpt><trkpt lat="41.05077028026023" lon="16.794577187406244"><ele>96.0</ele><time>2026-04-28T15:54:58.001Z</time></trkpt><trkpt lat="41.05084214576663" lon="16.79457804121393"><ele>96.0</ele><time>2026-04-28T15:55:04.001Z</time></trkpt><trkpt lat="41.0509156937382" lon="16.794571550068653"><ele>95.99999999999999</ele><time>2026-04-28T15:55:10.001Z</time></trkpt><trkpt lat="41.05097981271825" lon="16.79456357578527"><ele>96.0</ele><time>2026-04-28T15:55:15.001Z</time></trkpt><trkpt lat="41.05105385293022" lon="16.794553282502623"><ele>95.99999999999999</ele><time>2026-04-28T15:55:21.001Z</time></trkpt><trkpt lat="41.05112407523394" lon="16.7945419007098"><ele>96.0</ele><time>2026-04-28T15:55:27.001Z</time></trkpt><trkpt lat="41.051192029530576" lon="16.794521123081772"><ele>96.0</ele><time>2026-04-28T15:55:32.001Z</time></trkpt><trkpt lat="41.05126299545945" lon="16.79451161364175"><ele>96.0</ele><time>2026-04-28T15:55:37.001Z</time></trkpt><trkpt lat="41.051330377531585" lon="16.79450170657781"><ele>96.0</ele><time>2026-04-28T15:55:42.001Z</time></trkpt><trkpt lat="41.051405050546855" lon="16.794493189104767"><ele>95.99999999999999</ele><time>2026-04-28T15:55:47.002Z</time></trkpt><trkpt lat="41.051475080031246" lon="16.794472987003402"><ele>96.0</ele><time>2026-04-28T15:55:52.002Z</time></trkpt><trkpt lat="41.051543179049595" lon="16.79445894314711"><ele>95.99999999999999</ele><time>2026-04-28T15:55:57.002Z</time></trkpt><trkpt lat="41.05161222679574" lon="16.79444139762239"><ele>96.0</ele><time>2026-04-28T15:56:02.002Z</time></trkpt><trkpt lat="41.05167861791314" lon="16.794410192891615"><ele>96.0</ele><time>2026-04-28T15:56:07.002Z</time></trkpt><trkpt lat="41.0517492582262" lon="16.794409371498716"><ele>96.0</ele><time>2026-04-28T15:56:11.998Z</time></trkpt><trkpt lat="41.05181559473092" lon="16.794397068281665"><ele>96.0</ele><time>2026-04-28T15:56:16.998Z</time></trkpt><trkpt lat="41.051878145557154" lon="16.794382199076157"><ele>95.99999999999999</ele><time>2026-04-28T15:56:21.999Z</time></trkpt><trkpt lat="41.05194545868064" lon="16.794369829214684"><ele>96.0</ele><time>2026-04-28T15:56:26.999Z</time></trkpt><trkpt lat="41.05201394653709" lon="16.79435722273617"><ele>96.14285714285714</ele><time>2026-04-28T15:56:31.999Z</time></trkpt><trkpt lat="41.052077825415004" lon="16.794336547475073"><ele>96.28571428571428</ele><time>2026-04-28T15:56:36.999Z</time></trkpt><trkpt lat="41.05214015459028" lon="16.79431948234308"><ele>96.42857142857142</ele><time>2026-04-28T15:56:42Z</time></trkpt><trkpt lat="41.0522057864003" lon="16.794307118952638"><ele>96.57142857142857</ele><time>2026-04-28T15:56:47Z</time></trkpt><trkpt lat="41.05227351034055" lon="16.794291708622694"><ele>96.71428571428572</ele><time>2026-04-28T15:56:52Z</time></trkpt><trkpt lat="41.05233617028809" lon="16.794274268917302"><ele>96.85714285714285</ele><time>2026-04-28T15:56:57Z</time></trkpt><trkpt lat="41.052404647801175" lon="16.794243365085073"><ele>97.0</ele><time>2026-04-28T15:57:03Z</time></trkpt><trkpt lat="41.05246911444627" lon="16.794231467850175"><ele>96.71428571428571</ele><time>2026-04-28T15:57:08Z</time></trkpt><trkpt lat="41.0525424865154" lon="16.794220048131116"><ele>96.42857142857143</ele><time>2026-04-28T15:57:14Z</time></trkpt><trkpt lat="41.052617067046405" lon="16.79420433547993"><ele>96.14285714285714</ele><time>2026-04-28T15:57:20.001Z</time></trkpt><trkpt lat="41.052687357788756" lon="16.794187376951605"><ele>95.85714285714286</ele><time>2026-04-28T15:57:26.001Z</time></trkpt><trkpt lat="41.05275508707797" lon="16.794172691897145"><ele>95.57142857142858</ele><time>2026-04-28T15:57:32.001Z</time></trkpt><trkpt lat="41.05281835365011" lon="16.79416100865566"><ele>95.28571428571429</ele><time>2026-04-28T15:57:37.001Z</time></trkpt><trkpt lat="41.05289059059568" lon="16.794142261185847"><ele>95.0</ele><time>2026-04-28T15:57:42.001Z</time></trkpt><trkpt lat="41.05296314945744" lon="16.79413333234907"><ele>95.0</ele><time>2026-04-28T15:57:47.001Z</time></trkpt><trkpt lat="41.05303286386084" lon="16.794120527750515"><ele>95.0</ele><time>2026-04-28T15:57:52.001Z</time></trkpt><trkpt lat="41.053103221919734" lon="16.794108348892802"><ele>95.0</ele><time>2026-04-28T15:57:57.001Z</time></trkpt><trkpt lat="41.05317043413841" lon="16.794087177742327"><ele>95.0</ele><time>2026-04-28T15:58:02.001Z</time></trkpt><trkpt lat="41.05323650738803" lon="16.794072850640095"><ele>95.0</ele><time>2026-04-28T15:58:07.001Z</time></trkpt><trkpt lat="41.05330079062852" lon="16.794059841961094"><ele>95.0</ele><time>2026-04-28T15:58:12.002Z</time></trkpt><trkpt lat="41.053368412079" lon="16.794049551328445"><ele>95.0</ele><time>2026-04-28T15:58:17Z</time></trkpt><trkpt lat="41.05343627352296" lon="16.79403319139222"><ele>95.0</ele><time>2026-04-28T15:58:22Z</time></trkpt><trkpt lat="41.053506664660176" lon="16.794020710644613"><ele>95.0</ele><time>2026-04-28T15:58:27Z</time></trkpt><trkpt lat="41.05357604733292" lon="16.794007940205212"><ele>95.0</ele><time>2026-04-28T15:58:32Z</time></trkpt><trkpt lat="41.05364286777257" lon="16.793990406847005"><ele>95.0</ele><time>2026-04-28T15:58:37Z</time></trkpt><trkpt lat="41.05371464485983" lon="16.793969968349256"><ele>95.0</ele><time>2026-04-28T15:58:42Z</time></trkpt><trkpt lat="41.05378459511921" lon="16.793958640069633"><ele>95.0</ele><time>2026-04-28T15:58:47.001Z</time></trkpt><trkpt lat="41.053854746588634" lon="16.793933656332015"><ele>95.0</ele><time>2026-04-28T15:58:53.001Z</time></trkpt><trkpt lat="41.05392339984506" lon="16.793919994320184"><ele>95.0</ele><time>2026-04-28T15:58:59.001Z</time></trkpt><trkpt lat="41.05399118076453" lon="16.793939624598163"><ele>95.0</ele><time>2026-04-28T15:59:05.001Z</time></trkpt><trkpt lat="41.05406043647851" lon="16.793951695655196"><ele>95.0</ele><time>2026-04-28T15:59:10.001Z</time></trkpt><trkpt lat="41.05412729281602" lon="16.793940366755614"><ele>95.0</ele><time>2026-04-28T15:59:15.001Z</time></trkpt><trkpt lat="41.05420378815587" lon="16.79392234155909"><ele>95.0</ele><time>2026-04-28T15:59:20.001Z</time></trkpt><trkpt lat="41.05427942457859" lon="16.793897882893067"><ele>95.0</ele><time>2026-04-28T15:59:26.001Z</time></trkpt><trkpt lat="41.05435638692312" lon="16.793872162218094"><ele>95.0</ele><time>2026-04-28T15:59:32.001Z</time></trkpt><trkpt lat="41.05441931542289" lon="16.79384381869004"><ele>94.57142857142857</ele><time>2026-04-28T15:59:37.001Z</time></trkpt><trkpt lat="41.05449050001275" lon="16.793811476934824"><ele>94.14285714285714</ele><time>2026-04-28T15:59:42.001Z</time></trkpt><trkpt lat="41.054550506661705" lon="16.793786117408246"><ele>93.71428571428572</ele><time>2026-04-28T15:59:47.002Z</time></trkpt><trkpt lat="41.0546111410553" lon="16.79375010115668"><ele>93.28571428571428</ele><time>2026-04-28T15:59:52.002Z</time></trkpt><trkpt lat="41.05467364685513" lon="16.793711783104502"><ele>92.85714285714285</ele><time>2026-04-28T15:59:57.002Z</time></trkpt><trkpt lat="41.05474551077081" lon="16.79367212537929"><ele>92.42857142857143</ele><time>2026-04-28T16:00:03.002Z</time></trkpt><trkpt lat="41.05480539480258" lon="16.79362700377063"><ele>92.0</ele><time>2026-04-28T16:00:08.002Z</time></trkpt><trkpt lat="41.054863906701854" lon="16.793587318881535"><ele>92.0</ele><time>2026-04-28T16:00:13.002Z</time></trkpt><trkpt lat="41.05492318034895" lon="16.793552405529773"><ele>92.0</ele><time>2026-04-28T16:00:18.002Z</time></trkpt><trkpt lat="41.05498430620058" lon="16.793517621094036"><ele>92.0</ele><time>2026-04-28T16:00:23.001Z</time></trkpt><trkpt lat="41.055042134555244" lon="16.79347335099858"><ele>92.0</ele><time>2026-04-28T16:00:28.001Z</time></trkpt><trkpt lat="41.05510017253815" lon="16.793429355202658"><ele>92.0</ele><time>2026-04-28T16:00:33.001Z</time></trkpt><trkpt lat="41.05515283077088" lon="16.793371083153787"><ele>92.0</ele><time>2026-04-28T16:00:38.001Z</time></trkpt><trkpt lat="41.05520900083187" lon="16.79331911220451"><ele>92.0</ele><time>2026-04-28T16:00:43.001Z</time></trkpt><trkpt lat="41.055264647943154" lon="16.793272958630666"><ele>91.57142857142857</ele><time>2026-04-28T16:00:48.001Z</time></trkpt><trkpt lat="41.05531495201916" lon="16.793213307024242"><ele>91.14285714285714</ele><time>2026-04-28T16:00:53.001Z</time></trkpt><trkpt lat="41.05536412051377" lon="16.793152572864166"><ele>90.71428571428571</ele><time>2026-04-28T16:00:58.001Z</time></trkpt><trkpt lat="41.055409460311495" lon="16.79309325652499"><ele>90.28571428571428</ele><time>2026-04-28T16:01:03.001Z</time></trkpt><trkpt lat="41.055450173198246" lon="16.793028381104225"><ele>89.85714285714286</ele><time>2026-04-28T16:01:08.001Z</time></trkpt><trkpt lat="41.055489918664" lon="16.792957740440958"><ele>89.42857142857142</ele><time>2026-04-28T16:01:13.001Z</time></trkpt><trkpt lat="41.055540673679545" lon="16.7929028531581"><ele>89.0</ele><time>2026-04-28T16:01:18.001Z</time></trkpt><trkpt lat="41.05558325848859" lon="16.7928327423096"><ele>88.99999999999999</ele><time>2026-04-28T16:01:23.001Z</time></trkpt><trkpt lat="41.05562791233925" lon="16.792763386446513"><ele>89.0</ele><time>2026-04-28T16:01:28.001Z</time></trkpt><trkpt lat="41.055673620060716" lon="16.792702347165985"><ele>89.0</ele><time>2026-04-28T16:01:33.001Z</time></trkpt><trkpt lat="41.05571722711283" lon="16.792636797072994"><ele>89.0</ele><time>2026-04-28T16:01:38.001Z</time></trkpt><trkpt lat="41.05575836279215" lon="16.79257179429748"><ele>89.0</ele><time>2026-04-28T16:01:43.002Z</time></trkpt><trkpt lat="41.05581399618417" lon="16.792514262620664"><ele>88.99999999999999</ele><time>2026-04-28T16:01:49.002Z</time></trkpt><trkpt lat="41.05585884853487" lon="16.792446947619005"><ele>89.0</ele><time>2026-04-28T16:01:54.002Z</time></trkpt><trkpt lat="41.055909573178376" lon="16.792386835446834"><ele>89.57142857142857</ele><time>2026-04-28T16:01:59.002Z</time></trkpt><trkpt lat="41.05594517958487" lon="16.792315658717357"><ele>90.14285714285714</ele><time>2026-04-28T16:02:04.002Z</time></trkpt><trkpt lat="41.05598571153974" lon="16.792242581804754"><ele>90.71428571428572</ele><time>2026-04-28T16:02:10.002Z</time></trkpt><trkpt lat="41.05602762428366" lon="16.792172374208686"><ele>91.28571428571428</ele><time>2026-04-28T16:02:15.002Z</time></trkpt><trkpt lat="41.05607390763407" lon="16.792102561805986"><ele>91.85714285714286</ele><time>2026-04-28T16:02:20.002Z</time></trkpt><trkpt lat="41.056125360783454" lon="16.792037948271673"><ele>92.42857142857143</ele><time>2026-04-28T16:02:25.002Z</time></trkpt><trkpt lat="41.05617597422256" lon="16.791969623100844"><ele>93.0</ele><time>2026-04-28T16:02:31Z</time></trkpt><trkpt lat="41.056217600260304" lon="16.79189838003796"><ele>93.14285714285715</ele><time>2026-04-28T16:02:36Z</time></trkpt><trkpt lat="41.05627249011804" lon="16.79183580800468"><ele>93.28571428571429</ele><time>2026-04-28T16:02:41Z</time></trkpt><trkpt lat="41.05632594893173" lon="16.791782233587817"><ele>93.42857142857143</ele><time>2026-04-28T16:02:46Z</time></trkpt><trkpt lat="41.05637501904495" lon="16.79172567940329"><ele>93.57142857142858</ele><time>2026-04-28T16:02:51Z</time></trkpt><trkpt lat="41.05642812450813" lon="16.791672439105383"><ele>93.71428571428571</ele><time>2026-04-28T16:02:56Z</time></trkpt><trkpt lat="41.056485820182985" lon="16.791613684029326"><ele>93.85714285714286</ele><time>2026-04-28T16:03:01Z</time></trkpt><trkpt lat="41.05653644757556" lon="16.791556162045907"><ele>94.0</ele><time>2026-04-28T16:03:06Z</time></trkpt><trkpt lat="41.0565975937221" lon="16.79150331997399"><ele>93.71428571428571</ele><time>2026-04-28T16:03:12Z</time></trkpt><trkpt lat="41.05666251127248" lon="16.791455709882246"><ele>93.42857142857142</ele><time>2026-04-28T16:03:18Z</time></trkpt><trkpt lat="41.056730625503356" lon="16.791409433106566"><ele>93.14285714285714</ele><time>2026-04-28T16:03:23.001Z</time></trkpt><trkpt lat="41.056795451392105" lon="16.79136140869303"><ele>92.85714285714286</ele><time>2026-04-28T16:03:28.001Z</time></trkpt><trkpt lat="41.05685616613025" lon="16.791330356989928"><ele>92.57142857142857</ele><time>2026-04-28T16:03:33.001Z</time></trkpt><trkpt lat="41.056922848373375" lon="16.791300314929583"><ele>92.28571428571429</ele><time>2026-04-28T16:03:38.001Z</time></trkpt><trkpt lat="41.05698388619147" lon="16.791262304033406"><ele>92.0</ele><time>2026-04-28T16:03:43.001Z</time></trkpt><trkpt lat="41.057058051564596" lon="16.79122144403793"><ele>92.0</ele><time>2026-04-28T16:03:49.001Z</time></trkpt><trkpt lat="41.05712539560592" lon="16.791180870554967"><ele>92.0</ele><time>2026-04-28T16:03:55.001Z</time></trkpt><trkpt lat="41.05718905076257" lon="16.791142365822243"><ele>92.0</ele><time>2026-04-28T16:04:00.001Z</time></trkpt><trkpt lat="41.05725838723787" lon="16.79109610111444"><ele>92.0</ele><time>2026-04-28T16:04:06.001Z</time></trkpt><trkpt lat="41.05732364125843" lon="16.791051598748894"><ele>92.0</ele><time>2026-04-28T16:04:12.001Z</time></trkpt><trkpt lat="41.057400605511994" lon="16.791008326926416"><ele>92.0</ele><time>2026-04-28T16:04:17.001Z</time></trkpt><trkpt lat="41.05747070100848" lon="16.790971164110857"><ele>92.0</ele><time>2026-04-28T16:04:22.002Z</time></trkpt><trkpt lat="41.05753131763195" lon="16.790943059842558"><ele>92.0</ele><time>2026-04-28T16:04:27.002Z</time></trkpt><trkpt lat="41.057591968336844" lon="16.790908859118222"><ele>92.0</ele><time>2026-04-28T16:04:32.002Z</time></trkpt><trkpt lat="41.05765190390805" lon="16.790876777378937"><ele>92.0</ele><time>2026-04-28T16:04:37Z</time></trkpt><trkpt lat="41.057715396807254" lon="16.790834455658302"><ele>92.0</ele><time>2026-04-28T16:04:43Z</time></trkpt><trkpt lat="41.057783320644596" lon="16.790791220761"><ele>92.0</ele><time>2026-04-28T16:04:49Z</time></trkpt><trkpt lat="41.05784737265197" lon="16.790752548794853"><ele>92.0</ele><time>2026-04-28T16:04:54Z</time></trkpt><trkpt lat="41.05790819691412" lon="16.790713357949713"><ele>92.0</ele><time>2026-04-28T16:04:59Z</time></trkpt><trkpt lat="41.05797651740223" lon="16.790668722003772"><ele>92.0</ele><time>2026-04-28T16:05:05Z</time></trkpt><trkpt lat="41.05804446566024" lon="16.790635913757118"><ele>92.0</ele><time>2026-04-28T16:05:10Z</time></trkpt><trkpt lat="41.05811591045748" lon="16.79060624794228"><ele>92.0</ele><time>2026-04-28T16:05:15Z</time></trkpt><trkpt lat="41.058188530957324" lon="16.79057675730287"><ele>92.0</ele><time>2026-04-28T16:05:21.001Z</time></trkpt><trkpt lat="41.05825453963922" lon="16.79054522390785"><ele>92.0</ele><time>2026-04-28T16:05:26.001Z</time></trkpt><trkpt lat="41.05832081814345" lon="16.79050198133324"><ele>92.0</ele><time>2026-04-28T16:05:32.001Z</time></trkpt><trkpt lat="41.0583855911185" lon="16.790474120632677"><ele>91.85714285714286</ele><time>2026-04-28T16:05:37.001Z</time></trkpt><trkpt lat="41.05844956503827" lon="16.79043912914155"><ele>91.71428571428571</ele><time>2026-04-28T16:05:43.001Z</time></trkpt><trkpt lat="41.05851779249141" lon="16.790398971903517"><ele>91.57142857142857</ele><time>2026-04-28T16:05:49.001Z</time></trkpt><trkpt lat="41.058587746554586" lon="16.790360885151532"><ele>91.42857142857143</ele><time>2026-04-28T16:05:55.001Z</time></trkpt><trkpt lat="41.058652465224384" lon="16.790314741679428"><ele>91.28571428571428</ele><time>2026-04-28T16:06:01.001Z</time></trkpt><trkpt lat="41.058712736559436" lon="16.79028258537561"><ele>91.14285714285714</ele><time>2026-04-28T16:06:06.001Z</time></trkpt><trkpt lat="41.05878692204153" lon="16.79025372553248"><ele>91.0</ele><time>2026-04-28T16:06:11.001Z</time></trkpt><trkpt lat="41.05884774356569" lon="16.790221119027734"><ele>91.0</ele><time>2026-04-28T16:06:16.002Z</time></trkpt><trkpt lat="41.05891566697322" lon="16.79018983113962"><ele>91.0</ele><time>2026-04-28T16:06:21.002Z</time></trkpt><trkpt lat="41.05898341584014" lon="16.790152009141913"><ele>91.0</ele><time>2026-04-28T16:06:27.002Z</time></trkpt><trkpt lat="41.05904944408573" lon="16.790121805752438"><ele>91.0</ele><time>2026-04-28T16:06:33.002Z</time></trkpt><trkpt lat="41.05911769845734" lon="16.79009115718642"><ele>91.0</ele><time>2026-04-28T16:06:39Z</time></trkpt><trkpt lat="41.059180804570985" lon="16.790069342131982"><ele>91.0</ele><time>2026-04-28T16:06:44Z</time></trkpt><trkpt lat="41.05924252754396" lon="16.7900508356104"><ele>91.0</ele><time>2026-04-28T16:06:48Z</time></trkpt><trkpt lat="41.059313789092194" lon="16.79001752910958"><ele>91.0</ele><time>2026-04-28T16:06:53Z</time></trkpt><trkpt lat="41.05938473752708" lon="16.789997436360093"><ele>91.0</ele><time>2026-04-28T16:06:58Z</time></trkpt><trkpt lat="41.05945003643442" lon="16.78998532610866"><ele>91.0</ele><time>2026-04-28T16:07:03Z</time></trkpt><trkpt lat="41.05951207752784" lon="16.789966195971733"><ele>91.0</ele><time>2026-04-28T16:07:08Z</time></trkpt><trkpt lat="41.05957737953119" lon="16.789950331986102"><ele>91.0</ele><time>2026-04-28T16:07:14Z</time></trkpt><trkpt lat="41.05964023384367" lon="16.78994261869748"><ele>91.0</ele><time>2026-04-28T16:07:18.001Z</time></trkpt><trkpt lat="41.05973145833178" lon="16.789924794348853"><ele>91.0</ele><time>2026-04-28T16:07:22.001Z</time></trkpt><trkpt lat="41.05983793357318" lon="16.789915469425296"><ele>91.0</ele><time>2026-04-28T16:07:26.001Z</time></trkpt><trkpt lat="41.05991255843127" lon="16.789913457078633"><ele>91.0</ele><time>2026-04-28T16:07:29.001Z</time></trkpt><trkpt lat="41.05998842645672" lon="16.789903043740377"><ele>91.0</ele><time>2026-04-28T16:07:34.001Z</time></trkpt><trkpt lat="41.06005963179517" lon="16.789899214763455"><ele>91.0</ele><time>2026-04-28T16:07:38.001Z</time></trkpt><trkpt lat="41.06013270220113" lon="16.789891837372778"><ele>91.0</ele><time>2026-04-28T16:07:43.001Z</time></trkpt><trkpt lat="41.060208333462455" lon="16.789893761087836"><ele>91.0</ele><time>2026-04-28T16:07:48.001Z</time></trkpt><trkpt lat="41.06027755890891" lon="16.789889322080487"><ele>91.0</ele><time>2026-04-28T16:07:53.001Z</time></trkpt><trkpt lat="41.06034133018502" lon="16.789896299262523"><ele>90.85714285714286</ele><time>2026-04-28T16:07:57.001Z</time></trkpt><trkpt lat="41.06041083936248" lon="16.789894883728977"><ele>90.71428571428572</ele><time>2026-04-28T16:08:02.001Z</time></trkpt><trkpt lat="41.060484451873656" lon="16.789899926430223"><ele>90.57142857142857</ele><time>2026-04-28T16:08:07.001Z</time></trkpt><trkpt lat="41.06055648736873" lon="16.789905555047575"><ele>90.42857142857143</ele><time>2026-04-28T16:08:12.001Z</time></trkpt><trkpt lat="41.060622461101275" lon="16.789916433600926"><ele>90.28571428571429</ele><time>2026-04-28T16:08:17.002Z</time></trkpt><trkpt lat="41.0606869357091" lon="16.78992896802818"><ele>90.14285714285714</ele><time>2026-04-28T16:08:22.002Z</time></trkpt><trkpt lat="41.060751275833105" lon="16.789925099133423"><ele>90.0</ele><time>2026-04-28T16:08:28.002Z</time></trkpt><trkpt lat="41.0608175766741" lon="16.78992921676128"><ele>90.0</ele><time>2026-04-28T16:08:34.002Z</time></trkpt><trkpt lat="41.060885873388294" lon="16.78993141623124"><ele>90.0</ele><time>2026-04-28T16:08:41.002Z</time></trkpt><trkpt lat="41.060954306300275" lon="16.789928897782527"><ele>90.0</ele><time>2026-04-28T16:08:45.999Z</time></trkpt><trkpt lat="41.06101878001414" lon="16.789940032440665"><ele>90.0</ele><time>2026-04-28T16:08:50.999Z</time></trkpt><trkpt lat="41.06109198198318" lon="16.789968924292438"><ele>90.0</ele><time>2026-04-28T16:08:57.999Z</time></trkpt><trkpt lat="41.06115749906174" lon="16.789999005772188"><ele>90.0</ele><time>2026-04-28T16:09:03Z</time></trkpt><trkpt lat="41.06122813581796" lon="16.790024422587564"><ele>90.0</ele><time>2026-04-28T16:09:08Z</time></trkpt><trkpt lat="41.06129715519593" lon="16.79004921318586"><ele>90.0</ele><time>2026-04-28T16:09:13Z</time></trkpt><trkpt lat="41.061370645565184" lon="16.790070856225917"><ele>90.0</ele><time>2026-04-28T16:09:18Z</time></trkpt><trkpt lat="41.061445530562345" lon="16.790092452158454"><ele>90.0</ele><time>2026-04-28T16:09:23Z</time></trkpt><trkpt lat="41.06150787800533" lon="16.790118144371323"><ele>90.0</ele><time>2026-04-28T16:09:28Z</time></trkpt><trkpt lat="41.06155272465847" lon="16.79018741344118"><ele>90.0</ele><time>2026-04-28T16:09:33Z</time></trkpt><trkpt lat="41.061605055105005" lon="16.790238103914387"><ele>90.0</ele><time>2026-04-28T16:09:38Z</time></trkpt><trkpt lat="41.06166361515659" lon="16.79027599303163"><ele>90.0</ele><time>2026-04-28T16:09:43.001Z</time></trkpt><trkpt lat="41.06172540135872" lon="16.79029484403547"><ele>89.85714285714285</ele><time>2026-04-28T16:09:48.001Z</time></trkpt><trkpt lat="41.061791895155366" lon="16.790300062046104"><ele>89.71428571428572</ele><time>2026-04-28T16:09:53.001Z</time></trkpt><trkpt lat="41.06185555023188" lon="16.790275225025276"><ele>89.57142857142857</ele><time>2026-04-28T16:09:58.001Z</time></trkpt><trkpt lat="41.061920643079986" lon="16.79023225070955"><ele>89.42857142857142</ele><time>2026-04-28T16:10:04.001Z</time></trkpt><trkpt lat="41.06198506671628" lon="16.79022588598514"><ele>89.28571428571428</ele><time>2026-04-28T16:10:09.001Z</time></trkpt><trkpt lat="41.06204995046591" lon="16.790237022656576"><ele>89.14285714285714</ele><time>2026-04-28T16:10:14.001Z</time></trkpt><trkpt lat="41.0621203363174" lon="16.790238964433684"><ele>89.0</ele><time>2026-04-28T16:10:20.001Z</time></trkpt><trkpt lat="41.06218760458722" lon="16.79025890098721"><ele>88.99999999999999</ele><time>2026-04-28T16:10:25.001Z</time></trkpt><trkpt lat="41.06226293337083" lon="16.79027679472321"><ele>89.0</ele><time>2026-04-28T16:10:30.001Z</time></trkpt><trkpt lat="41.062333187888896" lon="16.7902893317813"><ele>89.0</ele><time>2026-04-28T16:10:35.002Z</time></trkpt><trkpt lat="41.06240439368444" lon="16.790295376111846"><ele>89.0</ele><time>2026-04-28T16:10:40.002Z</time></trkpt><trkpt lat="41.06247676401573" lon="16.790309796971616"><ele>89.0</ele><time>2026-04-28T16:10:45.002Z</time></trkpt><trkpt lat="41.06254810655009" lon="16.7903137846808"><ele>88.99999999999999</ele><time>2026-04-28T16:10:50.002Z</time></trkpt><trkpt lat="41.06261487107497" lon="16.790343686946773"><ele>89.0</ele><time>2026-04-28T16:10:54.999Z</time></trkpt><trkpt lat="41.06267948561237" lon="16.790361205354667"><ele>88.71428571428571</ele><time>2026-04-28T16:10:59.999Z</time></trkpt><trkpt lat="41.06274524616102" lon="16.790378537075753"><ele>88.42857142857143</ele><time>2026-04-28T16:11:04.999Z</time></trkpt><trkpt lat="41.06281966683162" lon="16.790401378581237"><ele>88.14285714285714</ele><time>2026-04-28T16:11:10.999Z</time></trkpt><trkpt lat="41.0628819833525" lon="16.79041487895818"><ele>87.85714285714286</ele><time>2026-04-28T16:11:16Z</time></trkpt><trkpt lat="41.06295199949928" lon="16.790437347741594"><ele>87.57142857142857</ele><time>2026-04-28T16:11:21Z</time></trkpt><trkpt lat="41.06301938789763" lon="16.79045431206129"><ele>87.28571428571428</ele><time>2026-04-28T16:11:26Z</time></trkpt><trkpt lat="41.06308288749978" lon="16.790467622210738"><ele>87.0</ele><time>2026-04-28T16:11:31Z</time></trkpt><trkpt lat="41.063158243228" lon="16.790485834460636"><ele>87.0</ele><time>2026-04-28T16:11:36Z</time></trkpt><trkpt lat="41.063227968184776" lon="16.790507791775248"><ele>87.0</ele><time>2026-04-28T16:11:41Z</time></trkpt><trkpt lat="41.063293518856014" lon="16.790526563818712"><ele>87.0</ele><time>2026-04-28T16:11:46Z</time></trkpt><trkpt lat="41.063357998591385" lon="16.790540630058167"><ele>87.0</ele><time>2026-04-28T16:11:51.001Z</time></trkpt><trkpt lat="41.06342620383336" lon="16.790556053974594"><ele>87.0</ele><time>2026-04-28T16:11:56.001Z</time></trkpt><trkpt lat="41.063497512722314" lon="16.79056878080677"><ele>87.0</ele><time>2026-04-28T16:12:02.001Z</time></trkpt><trkpt lat="41.063564985141674" lon="16.79058298526464"><ele>87.0</ele><time>2026-04-28T16:12:07.001Z</time></trkpt><trkpt lat="41.06363774143512" lon="16.790603447653275"><ele>87.0</ele><time>2026-04-28T16:12:12.001Z</time></trkpt><trkpt lat="41.06370611279255" lon="16.790621730344196"><ele>87.0</ele><time>2026-04-28T16:12:17.001Z</time></trkpt><trkpt lat="41.06377750704647" lon="16.790634193946673"><ele>87.0</ele><time>2026-04-28T16:12:22.001Z</time></trkpt><trkpt lat="41.06383831033912" lon="16.79065818178812"><ele>87.0</ele><time>2026-04-28T16:12:27.001Z</time></trkpt><trkpt lat="41.06390521567534" lon="16.790675754588673"><ele>87.0</ele><time>2026-04-28T16:12:32.001Z</time></trkpt><trkpt lat="41.06397295719516" lon="16.790683172293445"><ele>87.0</ele><time>2026-04-28T16:12:37.002Z</time></trkpt><trkpt lat="41.064042102325445" lon="16.79068364726023"><ele>87.0</ele><time>2026-04-28T16:12:42.002Z</time></trkpt><trkpt lat="41.06411584810544" lon="16.79067657867086"><ele>87.0</ele><time>2026-04-28T16:12:47.002Z</time></trkpt><trkpt lat="41.06418877906022" lon="16.790661518293803"><ele>87.0</ele><time>2026-04-28T16:12:52.002Z</time></trkpt><trkpt lat="41.06425689430799" lon="16.790644667243495"><ele>87.0</ele><time>2026-04-28T16:12:57Z</time></trkpt><trkpt lat="41.064327861300875" lon="16.790613498022008"><ele>87.0</ele><time>2026-04-28T16:13:03Z</time></trkpt><trkpt lat="41.064397380549664" lon="16.790582341892122"><ele>87.0</ele><time>2026-04-28T16:13:09Z</time></trkpt><trkpt lat="41.06445640003453" lon="16.790546826160963"><ele>87.0</ele><time>2026-04-28T16:13:14Z</time></trkpt><trkpt lat="41.06452011558554" lon="16.790497191703874"><ele>87.0</ele><time>2026-04-28T16:13:19Z</time></trkpt><trkpt lat="41.06457351653156" lon="16.7904456562703"><ele>87.0</ele><time>2026-04-28T16:13:24Z</time></trkpt><trkpt lat="41.06462431859975" lon="16.79038850468771"><ele>87.0</ele><time>2026-04-28T16:13:29Z</time></trkpt><trkpt lat="41.0646759772195" lon="16.790331657504545"><ele>87.0</ele><time>2026-04-28T16:13:34Z</time></trkpt><trkpt lat="41.064733247329166" lon="16.79026738869449"><ele>87.0</ele><time>2026-04-28T16:13:39.001Z</time></trkpt><trkpt lat="41.06478066604791" lon="16.79020818184583"><ele>87.0</ele><time>2026-04-28T16:13:44.001Z</time></trkpt><trkpt lat="41.064832408427364" lon="16.790142324092773"><ele>87.0</ele><time>2026-04-28T16:13:49.001Z</time></trkpt><trkpt lat="41.064877305965204" lon="16.7900825418654"><ele>87.0</ele><time>2026-04-28T16:13:54.001Z</time></trkpt><trkpt lat="41.06492910234213" lon="16.790011380102264"><ele>86.71428571428571</ele><time>2026-04-28T16:13:59.001Z</time></trkpt><trkpt lat="41.064985205302754" lon="16.789947181010675"><ele>86.42857142857143</ele><time>2026-04-28T16:14:05.001Z</time></trkpt><trkpt lat="41.065035284874526" lon="16.789877903715396"><ele>86.14285714285714</ele><time>2026-04-28T16:14:10.001Z</time></trkpt><trkpt lat="41.06508917667758" lon="16.789819206243774"><ele>85.85714285714286</ele><time>2026-04-28T16:14:15.001Z</time></trkpt><trkpt lat="41.0651402615774" lon="16.789765116089157"><ele>85.57142857142857</ele><time>2026-04-28T16:14:20.002Z</time></trkpt><trkpt lat="41.06519352670573" lon="16.789699560665674"><ele>85.28571428571429</ele><time>2026-04-28T16:14:26.002Z</time></trkpt><trkpt lat="41.06523788077669" lon="16.789638606240636"><ele>85.0</ele><time>2026-04-28T16:14:31.002Z</time></trkpt><trkpt lat="41.06528076997326" lon="16.789573214205234"><ele>85.0</ele><time>2026-04-28T16:14:35.002Z</time></trkpt><trkpt lat="41.065335277863944" lon="16.78951048597861"><ele>85.0</ele><time>2026-04-28T16:14:41.002Z</time></trkpt><trkpt lat="41.065387163105804" lon="16.789438054617467"><ele>85.0</ele><time>2026-04-28T16:14:46.002Z</time></trkpt><trkpt lat="41.06543904919528" lon="16.7893784484561"><ele>85.0</ele><time>2026-04-28T16:14:51.002Z</time></trkpt><trkpt lat="41.06548690824741" lon="16.789310710150893"><ele>85.0</ele><time>2026-04-28T16:14:56.002Z</time></trkpt><trkpt lat="41.065536472460586" lon="16.789246158180532"><ele>85.0</ele><time>2026-04-28T16:15:01.003Z</time></trkpt><trkpt lat="41.06558485790369" lon="16.78919112765214"><ele>85.0</ele><time>2026-04-28T16:15:06.001Z</time></trkpt><trkpt lat="41.06563609176522" lon="16.78913543946561"><ele>84.71428571428572</ele><time>2026-04-28T16:15:11Z</time></trkpt><trkpt lat="41.06568622782588" lon="16.78908302033073"><ele>84.42857142857142</ele><time>2026-04-28T16:15:16Z</time></trkpt><trkpt lat="41.06573891786787" lon="16.789018068530403"><ele>84.14285714285714</ele><time>2026-04-28T16:15:21Z</time></trkpt><trkpt lat="41.06578365383897" lon="16.788957236609725"><ele>83.85714285714286</ele><time>2026-04-28T16:15:26Z</time></trkpt><trkpt lat="41.06582927531378" lon="16.7888880164112"><ele>83.57142857142858</ele><time>2026-04-28T16:15:31Z</time></trkpt><trkpt lat="41.065874522561344" lon="16.788818665353634"><ele>83.28571428571428</ele><time>2026-04-28T16:15:36Z</time></trkpt><trkpt lat="41.06592737456884" lon="16.788751162698176"><ele>83.0</ele><time>2026-04-28T16:15:42.001Z</time></trkpt><trkpt lat="41.06596707009717" lon="16.788679215482247"><ele>82.85714285714285</ele><time>2026-04-28T16:15:47.001Z</time></trkpt><trkpt lat="41.06602571182916" lon="16.788597812238745"><ele>82.71428571428572</ele><time>2026-04-28T16:15:53.001Z</time></trkpt><trkpt lat="41.066067001037574" lon="16.78853148541095"><ele>82.57142857142857</ele><time>2026-04-28T16:15:59.001Z</time></trkpt><trkpt lat="41.06611324247124" lon="16.78846253958737"><ele>82.42857142857142</ele><time>2026-04-28T16:16:04.001Z</time></trkpt><trkpt lat="41.06615403099653" lon="16.788398882297393"><ele>82.28571428571428</ele><time>2026-04-28T16:16:09.001Z</time></trkpt><trkpt lat="41.066199488771794" lon="16.788336382893156"><ele>82.14285714285714</ele><time>2026-04-28T16:16:14.001Z</time></trkpt><trkpt lat="41.06625822366766" lon="16.78828516244461"><ele>82.0</ele><time>2026-04-28T16:16:20.001Z</time></trkpt><trkpt lat="41.06630664561244" lon="16.78820610546086"><ele>81.71428571428571</ele><time>2026-04-28T16:16:25.002Z</time></trkpt><trkpt lat="41.066365284157435" lon="16.788147838095448"><ele>81.42857142857143</ele><time>2026-04-28T16:16:30.002Z</time></trkpt><trkpt lat="41.06642412000562" lon="16.788107211668333"><ele>81.14285714285714</ele><time>2026-04-28T16:16:35.002Z</time></trkpt><trkpt lat="41.06649073387135" lon="16.78807706192196"><ele>80.85714285714286</ele><time>2026-04-28T16:16:40.002Z</time></trkpt><trkpt lat="41.066560652431406" lon="16.78805720242672"><ele>80.57142857142857</ele><time>2026-04-28T16:16:46.002Z</time></trkpt><trkpt lat="41.066630679974104" lon="16.78805178765159"><ele>80.28571428571428</ele><time>2026-04-28T16:16:50.002Z</time></trkpt><trkpt lat="41.06670071750263" lon="16.7880735456583"><ele>80.0</ele><time>2026-04-28T16:16:55.002Z</time></trkpt><trkpt lat="41.066766830540075" lon="16.788088849819278"><ele>80.0</ele><time>2026-04-28T16:17:00.002Z</time></trkpt><trkpt lat="41.066835587736456" lon="16.788103737158487"><ele>80.0</ele><time>2026-04-28T16:17:06.002Z</time></trkpt><trkpt lat="41.066912721921184" lon="16.788126106592735"><ele>80.0</ele><time>2026-04-28T16:17:10.999Z</time></trkpt><trkpt lat="41.06697501037959" lon="16.788162232344053"><ele>80.0</ele><time>2026-04-28T16:17:15.999Z</time></trkpt><trkpt lat="41.067032499874365" lon="16.788212132117074"><ele>80.0</ele><time>2026-04-28T16:17:20.999Z</time></trkpt><trkpt lat="41.0670923460103" lon="16.788255953676703"><ele>80.0</ele><time>2026-04-28T16:17:26Z</time></trkpt><trkpt lat="41.06715382445856" lon="16.78832179237955"><ele>80.0</ele><time>2026-04-28T16:17:32Z</time></trkpt><trkpt lat="41.06720098630985" lon="16.788377914741552"><ele>80.0</ele><time>2026-04-28T16:17:36Z</time></trkpt><trkpt lat="41.06725015188001" lon="16.788441880490364"><ele>80.0</ele><time>2026-04-28T16:17:41Z</time></trkpt><trkpt lat="41.067276284661084" lon="16.78852207199237"><ele>80.0</ele><time>2026-04-28T16:17:46Z</time></trkpt><trkpt lat="41.067313800190405" lon="16.788591961937655"><ele>80.0</ele><time>2026-04-28T16:17:50Z</time></trkpt><trkpt lat="41.06734340541402" lon="16.78868019064286"><ele>80.0</ele><time>2026-04-28T16:17:55.001Z</time></trkpt><trkpt lat="41.067373598530985" lon="16.788760228554466"><ele>80.0</ele><time>2026-04-28T16:18:00.001Z</time></trkpt><trkpt lat="41.06740474221634" lon="16.78884999304854"><ele>80.0</ele><time>2026-04-28T16:18:05.001Z</time></trkpt><trkpt lat="41.06744067891008" lon="16.78893272177051"><ele>79.5</ele><time>2026-04-28T16:18:10.001Z</time></trkpt><trkpt lat="41.06748170484449" lon="16.7890129798981"><ele>79.0</ele><time>2026-04-28T16:18:15.001Z</time></trkpt><trkpt lat="41.067520758642345" lon="16.789105075599306"><ele>78.5</ele><time>2026-04-28T16:18:21.001Z</time></trkpt><trkpt lat="41.06757484078755" lon="16.789165322083665"><ele>78.0</ele><time>2026-04-28T16:18:26.001Z</time></trkpt><trkpt lat="41.067643482389315" lon="16.789205399272607"><ele>77.5</ele><time>2026-04-28T16:18:31.001Z</time></trkpt><trkpt lat="41.06770337971534" lon="16.789242513108352"><ele>77.0</ele><time>2026-04-28T16:18:37.002Z</time></trkpt><trkpt lat="41.067781970779286" lon="16.789286439835085"><ele>77.0</ele><time>2026-04-28T16:18:43.002Z</time></trkpt><trkpt lat="41.06784804971083" lon="16.789309518054306"><ele>77.0</ele><time>2026-04-28T16:18:47.002Z</time></trkpt><trkpt lat="41.06792223776107" lon="16.78929468140437"><ele>77.0</ele><time>2026-04-28T16:18:51.002Z</time></trkpt><trkpt lat="41.06802937212721" lon="16.789333234404722"><ele>77.0</ele><time>2026-04-28T16:18:54.002Z</time></trkpt><trkpt lat="41.06810583252278" lon="16.789329496498205"><ele>77.0</ele><time>2026-04-28T16:18:58.002Z</time></trkpt><trkpt lat="41.06818452420717" lon="16.78935333747021"><ele>77.0</ele><time>2026-04-28T16:19:03.002Z</time></trkpt><trkpt lat="41.06826192698022" lon="16.789354608936446"><ele>76.57142857142857</ele><time>2026-04-28T16:19:08.002Z</time></trkpt><trkpt lat="41.06832786231551" lon="16.78936831065032"><ele>76.14285714285714</ele><time>2026-04-28T16:19:13.002Z</time></trkpt><trkpt lat="41.06839503086552" lon="16.78938048361291"><ele>75.71428571428572</ele><time>2026-04-28T16:19:18.002Z</time></trkpt><trkpt lat="41.06846403328138" lon="16.789386596381174"><ele>75.28571428571428</ele><time>2026-04-28T16:19:23.001Z</time></trkpt><trkpt lat="41.06853503864305" lon="16.78939399239923"><ele>74.85714285714286</ele><time>2026-04-28T16:19:28.001Z</time></trkpt><trkpt lat="41.06860084841708" lon="16.789400865656088"><ele>74.42857142857143</ele><time>2026-04-28T16:19:33.001Z</time></trkpt><trkpt lat="41.068664937278804" lon="16.789398492069896"><ele>74.0</ele><time>2026-04-28T16:19:38.001Z</time></trkpt><trkpt lat="41.06872894100191" lon="16.78940826799709"><ele>74.0</ele><time>2026-04-28T16:19:43.001Z</time></trkpt><trkpt lat="41.06880145560518" lon="16.789396300905803"><ele>74.0</ele><time>2026-04-28T16:19:48.001Z</time></trkpt><trkpt lat="41.06887310736907" lon="16.789371518597484"><ele>74.0</ele><time>2026-04-28T16:19:54.001Z</time></trkpt><trkpt lat="41.06893416493335" lon="16.789321761207134"><ele>74.0</ele><time>2026-04-28T16:20:00.001Z</time></trkpt><trkpt lat="41.06899276717501" lon="16.789266736418206"><ele>74.0</ele><time>2026-04-28T16:20:06.001Z</time></trkpt><trkpt lat="41.069029558324914" lon="16.78919688532766"><ele>74.0</ele><time>2026-04-28T16:20:12.002Z</time></trkpt><trkpt lat="41.06906378422894" lon="16.78911722344577"><ele>74.0</ele><time>2026-04-28T16:20:18.002Z</time></trkpt><trkpt lat="41.06908928034895" lon="16.78903579554827"><ele>74.42857142857143</ele><time>2026-04-28T16:20:23.002Z</time></trkpt><trkpt lat="41.06911272774096" lon="16.788957516649695"><ele>74.85714285714286</ele><time>2026-04-28T16:20:28.002Z</time></trkpt><trkpt lat="41.06913387206382" lon="16.788874923893342"><ele>75.28571428571428</ele><time>2026-04-28T16:20:33.002Z</time></trkpt><trkpt lat="41.06916191473683" lon="16.788798023782814"><ele>75.71428571428572</ele><time>2026-04-28T16:20:38.002Z</time></trkpt><trkpt lat="41.06918498454592" lon="16.788717725059453"><ele>76.14285714285714</ele><time>2026-04-28T16:20:43.002Z</time></trkpt><trkpt lat="41.06921082210189" lon="16.78863787712936"><ele>76.57142857142857</ele><time>2026-04-28T16:20:48.002Z</time></trkpt><trkpt lat="41.069238150704905" lon="16.78855855649253"><ele>77.0</ele><time>2026-04-28T16:20:53.002Z</time></trkpt><trkpt lat="41.069268599595176" lon="16.788477830020366"><ele>77.0</ele><time>2026-04-28T16:20:58.002Z</time></trkpt><trkpt lat="41.06930864285898" lon="16.78839649891743"><ele>77.0</ele><time>2026-04-28T16:21:04.003Z</time></trkpt><trkpt lat="41.06935184655402" lon="16.78833570158995"><ele>77.0</ele><time>2026-04-28T16:21:09.003Z</time></trkpt><trkpt lat="41.069403093263055" lon="16.78828455423772"><ele>77.0</ele><time>2026-04-28T16:21:14.003Z</time></trkpt><trkpt lat="41.06946298151885" lon="16.78823867559602"><ele>77.0</ele><time>2026-04-28T16:21:20.003Z</time></trkpt><trkpt lat="41.069523284911426" lon="16.788201215939264"><ele>77.0</ele><time>2026-04-28T16:21:26.002Z</time></trkpt><trkpt lat="41.06958055531651" lon="16.78816008319738"><ele>77.0</ele><time>2026-04-28T16:21:31.002Z</time></trkpt><trkpt lat="41.069635859685505" lon="16.788110171703515"><ele>77.0</ele><time>2026-04-28T16:21:36.002Z</time></trkpt><trkpt lat="41.06969834922345" lon="16.788077665312834"><ele>77.0</ele><time>2026-04-28T16:21:42.002Z</time></trkpt><trkpt lat="41.06975758216317" lon="16.7880400161878"><ele>77.0</ele><time>2026-04-28T16:21:47.002Z</time></trkpt><trkpt lat="41.06981454731882" lon="16.788002743785622"><ele>77.0</ele><time>2026-04-28T16:21:52.002Z</time></trkpt><trkpt lat="41.0698815262444" lon="16.78795902448097"><ele>77.0</ele><time>2026-04-28T16:21:58.002Z</time></trkpt><trkpt lat="41.06994813891052" lon="16.787919109373885"><ele>77.0</ele><time>2026-04-28T16:22:04.002Z</time></trkpt><trkpt lat="41.07000931754621" lon="16.787890881560234"><ele>77.0</ele><time>2026-04-28T16:22:09.002Z</time></trkpt><trkpt lat="41.07007125119131" lon="16.787856697202056"><ele>77.42857142857143</ele><time>2026-04-28T16:22:14.002Z</time></trkpt><trkpt lat="41.070132996217446" lon="16.787814722403102"><ele>77.85714285714286</ele><time>2026-04-28T16:22:20.002Z</time></trkpt><trkpt lat="41.07019283166475" lon="16.78777583440753"><ele>78.28571428571428</ele><time>2026-04-28T16:22:25.002Z</time></trkpt><trkpt lat="41.07025292052205" lon="16.78773405022307"><ele>78.71428571428572</ele><time>2026-04-28T16:22:30.002Z</time></trkpt><trkpt lat="41.07030727140543" lon="16.787678909030912"><ele>79.14285714285714</ele><time>2026-04-28T16:22:35.002Z</time></trkpt><trkpt lat="41.07036608762578" lon="16.78763490173072"><ele>79.57142857142857</ele><time>2026-04-28T16:22:40.002Z</time></trkpt><trkpt lat="41.07042458111466" lon="16.78758738130444"><ele>80.0</ele><time>2026-04-28T16:22:45.002Z</time></trkpt><trkpt lat="41.07047671885272" lon="16.787530381517332"><ele>79.85714285714286</ele><time>2026-04-28T16:22:50.002Z</time></trkpt><trkpt lat="41.07052859431512" lon="16.787473203382376"><ele>79.71428571428572</ele><time>2026-04-28T16:22:55.002Z</time></trkpt><trkpt lat="41.070580717173506" lon="16.787421084883807"><ele>79.57142857142858</ele><time>2026-04-28T16:23:00.002Z</time></trkpt><trkpt lat="41.07063642902845" lon="16.78737219743284"><ele>79.42857142857143</ele><time>2026-04-28T16:23:05.002Z</time></trkpt><trkpt lat="41.07069277628928" lon="16.78733483560181"><ele>79.28571428571429</ele><time>2026-04-28T16:23:10.002Z</time></trkpt><trkpt lat="41.070754938731795" lon="16.787300353713196"><ele>79.14285714285715</ele><time>2026-04-28T16:23:15.002Z</time></trkpt><trkpt lat="41.07081817818939" lon="16.787287281180546"><ele>79.0</ele><time>2026-04-28T16:23:20.002Z</time></trkpt><trkpt lat="41.07088931751174" lon="16.787293847643657"><ele>79.00000000000001</ele><time>2026-04-28T16:23:25.003Z</time></trkpt><trkpt lat="41.070957410608976" lon="16.787294410178113"><ele>79.0</ele><time>2026-04-28T16:23:30.002Z</time></trkpt><trkpt lat="41.07102728411162" lon="16.78730384353652"><ele>79.0</ele><time>2026-04-28T16:23:35.002Z</time></trkpt><trkpt lat="41.071097009520194" lon="16.787304084392314"><ele>79.0</ele><time>2026-04-28T16:23:40.001Z</time></trkpt><trkpt lat="41.07116608656851" lon="16.787308044518255"><ele>79.0</ele><time>2026-04-28T16:23:45.001Z</time></trkpt><trkpt lat="41.07123264730449" lon="16.787308803142768"><ele>79.00000000000001</ele><time>2026-04-28T16:23:50.001Z</time></trkpt><trkpt lat="41.071297542007464" lon="16.787308566776826"><ele>79.0</ele><time>2026-04-28T16:23:55.001Z</time></trkpt><trkpt lat="41.07136224538246" lon="16.787315971318055"><ele>79.00000000000001</ele><time>2026-04-28T16:24:00.001Z</time></trkpt><trkpt lat="41.071428477216394" lon="16.787310557723348"><ele>79.0</ele><time>2026-04-28T16:24:05.001Z</time></trkpt><trkpt lat="41.07150106811612" lon="16.787312076433707"><ele>79.0</ele><time>2026-04-28T16:24:11.001Z</time></trkpt><trkpt lat="41.071566655407445" lon="16.787306249130587"><ele>79.0</ele><time>2026-04-28T16:24:16.001Z</time></trkpt><trkpt lat="41.07163225442597" lon="16.78730002418382"><ele>79.0</ele><time>2026-04-28T16:24:21.001Z</time></trkpt><trkpt lat="41.071696657689245" lon="16.787288547600863"><ele>79.00000000000001</ele><time>2026-04-28T16:24:26.001Z</time></trkpt><trkpt lat="41.07176200356956" lon="16.78730023628149"><ele>79.0</ele><time>2026-04-28T16:24:31.001Z</time></trkpt><trkpt lat="41.07182472070874" lon="16.78729217468627"><ele>78.57142857142858</ele><time>2026-04-28T16:24:36.001Z</time></trkpt><trkpt lat="41.07188894203469" lon="16.78728955071209"><ele>78.14285714285714</ele><time>2026-04-28T16:24:41.001Z</time></trkpt><trkpt lat="41.0719530618788" lon="16.78729720221816"><ele>77.71428571428572</ele><time>2026-04-28T16:24:46.001Z</time></trkpt><trkpt lat="41.07202105540322" lon="16.787303591321013"><ele>77.28571428571429</ele><time>2026-04-28T16:24:51.001Z</time></trkpt><trkpt lat="41.072084777650325" lon="16.787323921565555"><ele>76.85714285714286</ele><time>2026-04-28T16:24:56.001Z</time></trkpt><trkpt lat="41.07214581101059" lon="16.78735397881152"><ele>76.42857142857143</ele><time>2026-04-28T16:25:01.001Z</time></trkpt><trkpt lat="41.07220482123754" lon="16.787386929095366"><ele>76.0</ele><time>2026-04-28T16:25:06.001Z</time></trkpt><trkpt lat="41.072262803517496" lon="16.787427168636015"><ele>76.0</ele><time>2026-04-28T16:25:11.002Z</time></trkpt><trkpt lat="41.072323466397556" lon="16.787464863366893"><ele>76.0</ele><time>2026-04-28T16:25:16.002Z</time></trkpt><trkpt lat="41.072386757444555" lon="16.787470972822923"><ele>76.0</ele><time>2026-04-28T16:25:21.002Z</time></trkpt><trkpt lat="41.07245075321245" lon="16.78747239911043"><ele>76.0</ele><time>2026-04-28T16:25:26.002Z</time></trkpt><trkpt lat="41.07251746891807" lon="16.787437242189803"><ele>76.0</ele><time>2026-04-28T16:25:32.002Z</time></trkpt><trkpt lat="41.07258079106464" lon="16.78744406186688"><ele>76.0</ele><time>2026-04-28T16:25:37.001Z</time></trkpt><trkpt lat="41.07263922700507" lon="16.787385972342147"><ele>76.0</ele><time>2026-04-28T16:25:43.001Z</time></trkpt><trkpt lat="41.072663983591994" lon="16.787307229795783"><ele>76.28571428571428</ele><time>2026-04-28T16:25:48.001Z</time></trkpt><trkpt lat="41.072682800102434" lon="16.787223004243714"><ele>76.57142857142858</ele><time>2026-04-28T16:25:53.001Z</time></trkpt><trkpt lat="41.07269116018332" lon="16.787131254168358"><ele>76.85714285714286</ele><time>2026-04-28T16:25:58.001Z</time></trkpt><trkpt lat="41.07267300289724" lon="16.787040619482518"><ele>77.14285714285714</ele><time>2026-04-28T16:26:03.001Z</time></trkpt><trkpt lat="41.07268199822002" lon="16.786953112762603"><ele>77.42857142857142</ele><time>2026-04-28T16:26:08.001Z</time></trkpt><trkpt lat="41.07267219531137" lon="16.786862532999926"><ele>77.71428571428572</ele><time>2026-04-28T16:26:13.001Z</time></trkpt><trkpt lat="41.072643840388636" lon="16.78677144351204"><ele>78.0</ele><time>2026-04-28T16:26:18.001Z</time></trkpt><trkpt lat="41.072595776862016" lon="16.786706893763135"><ele>78.42857142857143</ele><time>2026-04-28T16:26:23.001Z</time></trkpt><trkpt lat="41.072548081072256" lon="16.786647986681974"><ele>78.85714285714285</ele><time>2026-04-28T16:26:28.001Z</time></trkpt><trkpt lat="41.0725018199155" lon="16.78658556874175"><ele>79.28571428571428</ele><time>2026-04-28T16:26:33.001Z</time></trkpt><trkpt lat="41.07246402494475" lon="16.786506360650016"><ele>79.71428571428572</ele><time>2026-04-28T16:26:38.001Z</time></trkpt><trkpt lat="41.07244111875427" lon="16.78642229575744"><ele>80.14285714285714</ele><time>2026-04-28T16:26:43.001Z</time></trkpt><trkpt lat="41.07242614804689" lon="16.786336597340078"><ele>80.57142857142857</ele><time>2026-04-28T16:26:48.001Z</time></trkpt><trkpt lat="41.072407897221325" lon="16.786250632868736"><ele>81.0</ele><time>2026-04-28T16:26:53.001Z</time></trkpt><trkpt lat="41.072396694288656" lon="16.786161283598872"><ele>81.0</ele><time>2026-04-28T16:26:58.001Z</time></trkpt><trkpt lat="41.07238300868014" lon="16.786073083956826"><ele>81.0</ele><time>2026-04-28T16:27:03.001Z</time></trkpt><trkpt lat="41.072365253597724" lon="16.78599037880413"><ele>81.0</ele><time>2026-04-28T16:27:08.001Z</time></trkpt><trkpt lat="41.07235057752224" lon="16.78590045594022"><ele>81.0</ele><time>2026-04-28T16:27:13.001Z</time></trkpt><trkpt lat="41.07233312567529" lon="16.785812690750817"><ele>81.0</ele><time>2026-04-28T16:27:18.001Z</time></trkpt><trkpt lat="41.072322885015794" lon="16.785725322352715"><ele>81.0</ele><time>2026-04-28T16:27:23.001Z</time></trkpt><trkpt lat="41.072307553691786" lon="16.78563662943164"><ele>81.0</ele><time>2026-04-28T16:27:28.001Z</time></trkpt><trkpt lat="41.07229143537509" lon="16.785538552898227"><ele>81.14285714285714</ele><time>2026-04-28T16:27:34.001Z</time></trkpt><trkpt lat="41.07230941259829" lon="16.785444073355897"><ele>81.28571428571428</ele><time>2026-04-28T16:27:40Z</time></trkpt><trkpt lat="41.072300157448495" lon="16.785354895590654"><ele>81.42857142857142</ele><time>2026-04-28T16:27:45Z</time></trkpt><trkpt lat="41.07228483296354" lon="16.78526192890217"><ele>81.57142857142857</ele><time>2026-04-28T16:27:50Z</time></trkpt><trkpt lat="41.072269903109074" lon="16.7851716811548"><ele>81.71428571428571</ele><time>2026-04-28T16:27:55Z</time></trkpt><trkpt lat="41.072253126852644" lon="16.78508579109241"><ele>81.85714285714285</ele><time>2026-04-28T16:28:00Z</time></trkpt><trkpt lat="41.07224269266342" lon="16.784997633466535"><ele>82.0</ele><time>2026-04-28T16:28:05Z</time></trkpt><trkpt lat="41.072232586817805" lon="16.78491048169029"><ele>82.28571428571428</ele><time>2026-04-28T16:28:10Z</time></trkpt><trkpt lat="41.07221771817141" lon="16.7848255019346"><ele>82.57142857142857</ele><time>2026-04-28T16:28:15Z</time></trkpt><trkpt lat="41.07220503805598" lon="16.784742506067417"><ele>82.85714285714286</ele><time>2026-04-28T16:28:20Z</time></trkpt><trkpt lat="41.072195054185265" lon="16.78465942994666"><ele>83.14285714285714</ele><time>2026-04-28T16:28:25Z</time></trkpt><trkpt lat="41.072180687892875" lon="16.78457160849886"><ele>83.42857142857143</ele><time>2026-04-28T16:28:30Z</time></trkpt><trkpt lat="41.072164997233926" lon="16.784482749186438"><ele>83.71428571428571</ele><time>2026-04-28T16:28:35Z</time></trkpt><trkpt lat="41.07215286141588" lon="16.78439445385671"><ele>84.0</ele><time>2026-04-28T16:28:40Z</time></trkpt><trkpt lat="41.072139419501525" lon="16.78431075732249"><ele>84.14285714285714</ele><time>2026-04-28T16:28:45Z</time></trkpt><trkpt lat="41.07212664045664" lon="16.78422862916172"><ele>84.28571428571428</ele><time>2026-04-28T16:28:50.001Z</time></trkpt><trkpt lat="41.072108929117185" lon="16.784143642713786"><ele>84.42857142857143</ele><time>2026-04-28T16:28:55.001Z</time></trkpt><trkpt lat="41.07209356623842" lon="16.78404629290458"><ele>84.57142857142857</ele><time>2026-04-28T16:29:01.001Z</time></trkpt><trkpt lat="41.072090897288795" lon="16.7839611794663"><ele>84.71428571428571</ele><time>2026-04-28T16:29:06.001Z</time></trkpt><trkpt lat="41.07209764145482" lon="16.783860914431283"><ele>84.85714285714286</ele><time>2026-04-28T16:29:12.001Z</time></trkpt><trkpt lat="41.07212851788328" lon="16.783787948497935"><ele>85.0</ele><time>2026-04-28T16:29:17.001Z</time></trkpt><trkpt lat="41.07219028329552" lon="16.783760023350712"><ele>85.0</ele><time>2026-04-28T16:29:22.001Z</time></trkpt><trkpt lat="41.07225936760542" lon="16.783774425930606"><ele>85.0</ele><time>2026-04-28T16:29:27.001Z</time></trkpt><trkpt lat="41.07232798873737" lon="16.78380320585365"><ele>85.0</ele><time>2026-04-28T16:29:32.001Z</time></trkpt><trkpt lat="41.072397219512304" lon="16.783833327259526"><ele>85.0</ele><time>2026-04-28T16:29:37.001Z</time></trkpt><trkpt lat="41.07246372475756" lon="16.78385384136895"><ele>85.0</ele><time>2026-04-28T16:29:42.001Z</time></trkpt><trkpt lat="41.07253085359568" lon="16.783850678952433"><ele>85.0</ele><time>2026-04-28T16:29:47Z</time></trkpt><trkpt lat="41.07260077485166" lon="16.783873487188977"><ele>85.0</ele><time>2026-04-28T16:29:52Z</time></trkpt><trkpt lat="41.072664516839694" lon="16.783877376007954"><ele>84.85714285714286</ele><time>2026-04-28T16:29:57Z</time></trkpt><trkpt lat="41.07272797294934" lon="16.783880271795"><ele>84.71428571428571</ele><time>2026-04-28T16:30:02Z</time></trkpt><trkpt lat="41.07279707161582" lon="16.78387584623063"><ele>84.57142857142857</ele><time>2026-04-28T16:30:07Z</time></trkpt><trkpt lat="41.07286341572712" lon="16.78387072302978"><ele>84.42857142857143</ele><time>2026-04-28T16:30:12Z</time></trkpt><trkpt lat="41.07293146240725" lon="16.78386410630727"><ele>84.28571428571428</ele><time>2026-04-28T16:30:17Z</time></trkpt><trkpt lat="41.07299857884327" lon="16.783857899370222"><ele>84.14285714285714</ele><time>2026-04-28T16:30:22Z</time></trkpt><trkpt lat="41.0730670726486" lon="16.78385211747762"><ele>84.0</ele><time>2026-04-28T16:30:27Z</time></trkpt><trkpt lat="41.07313265252832" lon="16.783845562961076"><ele>84.0</ele><time>2026-04-28T16:30:32Z</time></trkpt><trkpt lat="41.073202053389636" lon="16.78384009140715"><ele>84.0</ele><time>2026-04-28T16:30:37Z</time></trkpt><trkpt lat="41.073276710616845" lon="16.783837610630545"><ele>84.0</ele><time>2026-04-28T16:30:42Z</time></trkpt><trkpt lat="41.07334141586879" lon="16.7838363374157"><ele>84.0</ele><time>2026-04-28T16:30:47Z</time></trkpt><trkpt lat="41.07341093971909" lon="16.783826323509153"><ele>84.0</ele><time>2026-04-28T16:30:52Z</time></trkpt><trkpt lat="41.07347491200822" lon="16.783817097748482"><ele>84.0</ele><time>2026-04-28T16:30:57Z</time></trkpt><trkpt lat="41.07354085665517" lon="16.783819837132775"><ele>84.0</ele><time>2026-04-28T16:31:02Z</time></trkpt><trkpt lat="41.07361848153262" lon="16.783809081925373"><ele>84.0</ele><time>2026-04-28T16:31:08Z</time></trkpt><trkpt lat="41.07368129693" lon="16.783789120654312"><ele>84.0</ele><time>2026-04-28T16:31:13Z</time></trkpt><trkpt lat="41.073742186314526" lon="16.783760902009437"><ele>84.0</ele><time>2026-04-28T16:31:18Z</time></trkpt><trkpt lat="41.07379912413728" lon="16.78371424908136"><ele>84.0</ele><time>2026-04-28T16:31:23Z</time></trkpt><trkpt lat="41.07385892312887" lon="16.783674378964083"><ele>84.0</ele><time>2026-04-28T16:31:28.001Z</time></trkpt><trkpt lat="41.07391868843706" lon="16.78363024184017"><ele>84.0</ele><time>2026-04-28T16:31:33.001Z</time></trkpt><trkpt lat="41.07399026961277" lon="16.783638217909864"><ele>84.0</ele><time>2026-04-28T16:31:38.001Z</time></trkpt><trkpt lat="41.0740561323094" lon="16.783653554687536"><ele>83.85714285714286</ele><time>2026-04-28T16:31:43.001Z</time></trkpt><trkpt lat="41.07412263932827" lon="16.783664931135537"><ele>83.71428571428572</ele><time>2026-04-28T16:31:48.001Z</time></trkpt><trkpt lat="41.0741887608158" lon="16.78368615283068"><ele>83.57142857142857</ele><time>2026-04-28T16:31:53Z</time></trkpt><trkpt lat="41.07425875847969" lon="16.78370423743967"><ele>83.42857142857143</ele><time>2026-04-28T16:32:00Z</time></trkpt><trkpt lat="41.07432258333316" lon="16.783730515842144"><ele>83.28571428571429</ele><time>2026-04-28T16:32:06Z</time></trkpt><trkpt lat="41.07439545563558" lon="16.78375132227155"><ele>83.14285714285714</ele><time>2026-04-28T16:32:13Z</time></trkpt><trkpt lat="41.07446861920894" lon="16.783773927323438"><ele>83.0</ele><time>2026-04-28T16:32:18Z</time></trkpt><trkpt lat="41.07454165808553" lon="16.783794167191775"><ele>83.0</ele><time>2026-04-28T16:32:23Z</time></trkpt><trkpt lat="41.074611983862795" lon="16.783816020802345"><ele>83.0</ele><time>2026-04-28T16:32:28Z</time></trkpt><trkpt lat="41.07467917376643" lon="16.783836856586234"><ele>83.0</ele><time>2026-04-28T16:32:33Z</time></trkpt><trkpt lat="41.074757429310786" lon="16.783858804981683"><ele>83.0</ele><time>2026-04-28T16:32:38Z</time></trkpt><trkpt lat="41.074826341605046" lon="16.78388027491546"><ele>83.0</ele><time>2026-04-28T16:32:43Z</time></trkpt><trkpt lat="41.07489403453916" lon="16.783890361322104"><ele>83.0</ele><time>2026-04-28T16:32:48Z</time></trkpt><trkpt lat="41.07496193296876" lon="16.78391144364113"><ele>83.0</ele><time>2026-04-28T16:32:53Z</time></trkpt><trkpt lat="41.07501966807418" lon="16.78395193554748"><ele>83.0</ele><time>2026-04-28T16:32:58Z</time></trkpt><trkpt lat="41.07508412506194" lon="16.783991267444463"><ele>83.0</ele><time>2026-04-28T16:33:04Z</time></trkpt><trkpt lat="41.07515355141508" lon="16.784019177633766"><ele>83.0</ele><time>2026-04-28T16:33:09Z</time></trkpt><trkpt lat="41.075224202226806" lon="16.784046836473006"><ele>83.0</ele><time>2026-04-28T16:33:14Z</time></trkpt><trkpt lat="41.0752890715466" lon="16.784076717920914"><ele>83.0</ele><time>2026-04-28T16:33:19Z</time></trkpt><trkpt lat="41.07535198141308" lon="16.784102742813474"><ele>83.0</ele><time>2026-04-28T16:33:25Z</time></trkpt><trkpt lat="41.07542229597974" lon="16.784132717447932"><ele>83.0</ele><time>2026-04-28T16:33:31Z</time></trkpt><trkpt lat="41.07549920865759" lon="16.784168588585665"><ele>83.0</ele><time>2026-04-28T16:33:36Z</time></trkpt><trkpt lat="41.07556040167519" lon="16.78419121832312"><ele>83.0</ele><time>2026-04-28T16:33:41.001Z</time></trkpt><trkpt lat="41.075620444761334" lon="16.784237002102966"><ele>83.0</ele><time>2026-04-28T16:33:45.001Z</time></trkpt><trkpt lat="41.075678584469586" lon="16.784279900081724"><ele>83.0</ele><time>2026-04-28T16:33:50.001Z</time></trkpt><trkpt lat="41.07574379296489" lon="16.784306024643588"><ele>83.0</ele><time>2026-04-28T16:33:56.001Z</time></trkpt><trkpt lat="41.07581138198088" lon="16.78434347955921"><ele>83.0</ele><time>2026-04-28T16:34:01.999Z</time></trkpt><trkpt lat="41.07587314163552" lon="16.78437737549547"><ele>83.0</ele><time>2026-04-28T16:34:06Z</time></trkpt><trkpt lat="41.075934147181464" lon="16.78441741472849"><ele>83.14285714285714</ele><time>2026-04-28T16:34:10Z</time></trkpt><trkpt lat="41.07599640049043" lon="16.784474792726954"><ele>83.28571428571429</ele><time>2026-04-28T16:34:16Z</time></trkpt><trkpt lat="41.076058953781754" lon="16.784534430707602"><ele>83.42857142857143</ele><time>2026-04-28T16:34:22Z</time></trkpt><trkpt lat="41.07612031823875" lon="16.784571489411857"><ele>83.57142857142857</ele><time>2026-04-28T16:34:28Z</time></trkpt><trkpt lat="41.076166119377774" lon="16.78463619064941"><ele>83.71428571428572</ele><time>2026-04-28T16:34:35Z</time></trkpt><trkpt lat="41.07619532870629" lon="16.78471358029847"><ele>83.85714285714286</ele><time>2026-04-28T16:34:51Z</time></trkpt><trkpt lat="41.07626873710341" lon="16.784699300570747"><ele>84.0</ele><time>2026-04-28T16:34:57Z</time></trkpt><trkpt lat="41.07633314529348" lon="16.78469732503972"><ele>84.0</ele><time>2026-04-28T16:35:05Z</time></trkpt><trkpt lat="41.07639330800546" lon="16.784753750143462"><ele>84.0</ele><time>2026-04-28T16:35:12Z</time></trkpt><trkpt lat="41.07645581921532" lon="16.784814144678826"><ele>84.0</ele><time>2026-04-28T16:35:19Z</time></trkpt><trkpt lat="41.076521896724444" lon="16.784859548796494"><ele>84.0</ele><time>2026-04-28T16:35:24Z</time></trkpt><trkpt lat="41.07658367140888" lon="16.784905995222502"><ele>84.0</ele><time>2026-04-28T16:35:29Z</time></trkpt><trkpt lat="41.07664563412657" lon="16.7849250861286"><ele>84.0</ele><time>2026-04-28T16:35:35Z</time></trkpt><trkpt lat="41.07671460106167" lon="16.784929410321443"><ele>84.0</ele><time>2026-04-28T16:35:41Z</time></trkpt><trkpt lat="41.07677759283747" lon="16.784986327295098"><ele>83.71428571428571</ele><time>2026-04-28T16:35:46.001Z</time></trkpt><trkpt lat="41.07682932349094" lon="16.785054477840117"><ele>83.42857142857143</ele><time>2026-04-28T16:35:51.001Z</time></trkpt><trkpt lat="41.07688876186912" lon="16.785123667142187"><ele>83.14285714285714</ele><time>2026-04-28T16:35:57.001Z</time></trkpt><trkpt lat="41.07694816959056" lon="16.785085985685374"><ele>82.85714285714286</ele><time>2026-04-28T16:36:06Z</time></trkpt><trkpt lat="41.07699769759084" lon="16.785029363413397"><ele>82.57142857142857</ele><time>2026-04-28T16:36:10Z</time></trkpt><trkpt lat="41.077034023879555" lon="16.78494403288437"><ele>82.28571428571428</ele><time>2026-04-28T16:36:16Z</time></trkpt><trkpt lat="41.0770816526852" lon="16.78487986346189"><ele>82.0</ele><time>2026-04-28T16:36:22Z</time></trkpt><trkpt lat="41.0771334874712" lon="16.784831561359756"><ele>81.99999999999999</ele><time>2026-04-28T16:36:26Z</time></trkpt><trkpt lat="41.07718151061323" lon="16.784769591998998"><ele>82.0</ele><time>2026-04-28T16:36:31Z</time></trkpt><trkpt lat="41.077213195075174" lon="16.784687942328166"><ele>82.0</ele><time>2026-04-28T16:36:36Z</time></trkpt><trkpt lat="41.07725115532222" lon="16.784603055336465"><ele>82.0</ele><time>2026-04-28T16:36:42Z</time></trkpt><trkpt lat="41.07728212674977" lon="16.784515239679653"><ele>82.0</ele><time>2026-04-28T16:36:47Z</time></trkpt><trkpt lat="41.07732349475216" lon="16.784428745618605"><ele>81.99999999999999</ele><time>2026-04-28T16:36:53Z</time></trkpt><trkpt lat="41.07736151493486" lon="16.7843545933986"><ele>82.0</ele><time>2026-04-28T16:36:58Z</time></trkpt><trkpt lat="41.07739804043954" lon="16.78427892333182"><ele>81.99999999999999</ele><time>2026-04-28T16:37:03Z</time></trkpt><trkpt lat="41.077439132801196" lon="16.784209458159296"><ele>82.0</ele><time>2026-04-28T16:37:09Z</time></trkpt><trkpt lat="41.077470858914765" lon="16.784133679986827"><ele>82.0</ele><time>2026-04-28T16:37:13Z</time></trkpt><trkpt lat="41.07754562904826" lon="16.78410862907987"><ele>82.0</ele><time>2026-04-28T16:37:21Z</time></trkpt><trkpt lat="41.07761076115993" lon="16.78414543320186"><ele>82.0</ele><time>2026-04-28T16:37:26.001Z</time></trkpt><trkpt lat="41.077676095950956" lon="16.78418251920606"><ele>81.99999999999999</ele><time>2026-04-28T16:37:31.001Z</time></trkpt><trkpt lat="41.07774418459121" lon="16.78424365573685"><ele>82.0</ele><time>2026-04-28T16:37:37.001Z</time></trkpt><trkpt lat="41.07781033826548" lon="16.78425735183979"><ele>81.99999999999999</ele><time>2026-04-28T16:37:40.001Z</time></trkpt><trkpt lat="41.0778728229207" lon="16.784285254186102"><ele>82.0</ele><time>2026-04-28T16:37:44.001Z</time></trkpt><trkpt lat="41.077932221585776" lon="16.78431366680278"><ele>82.0</ele><time>2026-04-28T16:37:49.001Z</time></trkpt><trkpt lat="41.077992857190495" lon="16.784374277652706"><ele>82.0</ele><time>2026-04-28T16:37:59.001Z</time></trkpt><trkpt lat="41.078041077380426" lon="16.78442891521748"><ele>82.0</ele><time>2026-04-28T16:38:04.001Z</time></trkpt><trkpt lat="41.07797793296586" lon="16.784453449604836"><ele>81.99999999999999</ele><time>2026-04-28T16:38:16Z</time></trkpt><trkpt lat="41.07793735642329" lon="16.784538421823314"><ele>82.0</ele><time>2026-04-28T16:38:22Z</time></trkpt><trkpt lat="41.07788991503825" lon="16.78460018967569"><ele>82.0</ele><time>2026-04-28T16:38:27Z</time></trkpt></trkseg></trk></gpx>